<?xml version="1.0" encoding="UTF-8" standalone="no" ?>
<gpx xmlns="http://www.topografix.com/GPX/1/1" xmlns:xsi="http://www.w3.org/2001/XMLSchema-instance" xsi:schemaLocation="http://www.topografix.com/GPX/1/1 http://www.topografix.com/GPX/1/1/gpx.xsd" version="1.1" creator="VisuGPX - https://www.visugpx.com">
  <metadata>
    <name>Les Gorges de Caramy et la Baume St Michel</name>
    <desc><![CDATA[Les copains randonneurs du 04
Au depart parking des Gorges juste avant le pont à Tourves]]></desc>
  </metadata>
  <trk>
    <name><![CDATA[Les Gorges de Caramy et la Baume St Michel_1]]></name>
    <trkseg>
      <trkpt lat="43.40601" lon="5.92406">
        <ele>282</ele>
        <time>2024-04-05T09:34:23+02:00</time>
      </trkpt>
      <trkpt lat="43.40601" lon="5.92406">
        <ele>282</ele>
        <time>2024-04-05T09:34:24+02:00</time>
      </trkpt>
      <trkpt lat="43.40598" lon="5.92407">
        <ele>282</ele>
        <time>2024-04-05T09:34:42+02:00</time>
      </trkpt>
      <trkpt lat="43.40596" lon="5.9241">
        <ele>282</ele>
        <time>2024-04-05T09:34:58+02:00</time>
      </trkpt>
      <trkpt lat="43.40595" lon="5.92407">
        <ele>282</ele>
        <time>2024-04-05T09:35:13+02:00</time>
      </trkpt>
      <trkpt lat="43.40596" lon="5.92407">
        <ele>282</ele>
        <time>2024-04-05T09:35:35+02:00</time>
      </trkpt>
      <trkpt lat="43.40597" lon="5.92407">
        <ele>282</ele>
        <time>2024-04-05T09:36:07+02:00</time>
      </trkpt>
      <trkpt lat="43.40597" lon="5.9241">
        <ele>282</ele>
        <time>2024-04-05T09:36:24+02:00</time>
      </trkpt>
      <trkpt lat="43.40596" lon="5.92409">
        <ele>282</ele>
        <time>2024-04-05T09:36:46+02:00</time>
      </trkpt>
      <trkpt lat="43.40594" lon="5.92408">
        <ele>282</ele>
        <time>2024-04-05T09:37:03+02:00</time>
      </trkpt>
      <trkpt lat="43.40597" lon="5.9241">
        <ele>282</ele>
        <time>2024-04-05T09:37:22+02:00</time>
      </trkpt>
      <trkpt lat="43.40599" lon="5.92407">
        <ele>282</ele>
        <time>2024-04-05T09:37:41+02:00</time>
      </trkpt>
      <trkpt lat="43.40599" lon="5.92408">
        <ele>282</ele>
        <time>2024-04-05T09:37:59+02:00</time>
      </trkpt>
      <trkpt lat="43.40597" lon="5.92413">
        <ele>282</ele>
        <time>2024-04-05T09:38:16+02:00</time>
      </trkpt>
      <trkpt lat="43.40596" lon="5.92408">
        <ele>282</ele>
        <time>2024-04-05T09:38:36+02:00</time>
      </trkpt>
      <trkpt lat="43.40597" lon="5.92405">
        <ele>282</ele>
        <time>2024-04-05T09:38:53+02:00</time>
      </trkpt>
      <trkpt lat="43.40596" lon="5.92404">
        <ele>282</ele>
        <time>2024-04-05T09:38:55+02:00</time>
      </trkpt>
      <trkpt lat="43.40592" lon="5.92395">
        <ele>282</ele>
        <time>2024-04-05T09:39:10+02:00</time>
      </trkpt>
      <trkpt lat="43.40594" lon="5.92393">
        <ele>282</ele>
        <time>2024-04-05T09:39:35+02:00</time>
      </trkpt>
      <trkpt lat="43.40592" lon="5.92395">
        <ele>282</ele>
        <time>2024-04-05T09:39:55+02:00</time>
      </trkpt>
      <trkpt lat="43.40593" lon="5.92394">
        <ele>282</ele>
        <time>2024-04-05T09:40:15+02:00</time>
      </trkpt>
      <trkpt lat="43.40594" lon="5.92389">
        <ele>282</ele>
        <time>2024-04-05T09:40:33+02:00</time>
      </trkpt>
      <trkpt lat="43.40591" lon="5.9239">
        <ele>282</ele>
        <time>2024-04-05T09:40:51+02:00</time>
      </trkpt>
      <trkpt lat="43.40578" lon="5.92389">
        <ele>281</ele>
        <time>2024-04-05T09:41:11+02:00</time>
      </trkpt>
      <trkpt lat="43.40565" lon="5.92385">
        <ele>281</ele>
        <time>2024-04-05T09:41:31+02:00</time>
      </trkpt>
      <trkpt lat="43.40552" lon="5.92374">
        <ele>281</ele>
        <time>2024-04-05T09:41:48+02:00</time>
      </trkpt>
      <trkpt lat="43.40548" lon="5.92357">
        <ele>283</ele>
        <time>2024-04-05T09:42:04+02:00</time>
      </trkpt>
      <trkpt lat="43.40528" lon="5.92342">
        <ele>286</ele>
        <time>2024-04-05T09:42:22+02:00</time>
      </trkpt>
      <trkpt lat="43.40511" lon="5.92329">
        <ele>288</ele>
        <time>2024-04-05T09:42:45+02:00</time>
      </trkpt>
      <trkpt lat="43.40495" lon="5.92322">
        <ele>291</ele>
        <time>2024-04-05T09:43:08+02:00</time>
      </trkpt>
      <trkpt lat="43.40481" lon="5.92319">
        <ele>292</ele>
        <time>2024-04-05T09:43:31+02:00</time>
      </trkpt>
      <trkpt lat="43.40465" lon="5.9231">
        <ele>295</ele>
        <time>2024-04-05T09:43:48+02:00</time>
      </trkpt>
      <trkpt lat="43.40452" lon="5.92299">
        <ele>299</ele>
        <time>2024-04-05T09:44:05+02:00</time>
      </trkpt>
      <trkpt lat="43.40442" lon="5.9229">
        <ele>302</ele>
        <time>2024-04-05T09:44:24+02:00</time>
      </trkpt>
      <trkpt lat="43.40423" lon="5.92277">
        <ele>305</ele>
        <time>2024-04-05T09:44:43+02:00</time>
      </trkpt>
      <trkpt lat="43.40406" lon="5.92268">
        <ele>308</ele>
        <time>2024-04-05T09:45:04+02:00</time>
      </trkpt>
      <trkpt lat="43.40396" lon="5.92247">
        <ele>311</ele>
        <time>2024-04-05T09:45:25+02:00</time>
      </trkpt>
      <trkpt lat="43.40393" lon="5.92241">
        <ele>311</ele>
        <time>2024-04-05T09:45:29+02:00</time>
      </trkpt>
      <trkpt lat="43.40385" lon="5.92227">
        <ele>311</ele>
        <time>2024-04-05T09:45:42+02:00</time>
      </trkpt>
      <trkpt lat="43.40366" lon="5.92214">
        <ele>310</ele>
        <time>2024-04-05T09:46:02+02:00</time>
      </trkpt>
      <trkpt lat="43.40352" lon="5.92209">
        <ele>310</ele>
        <time>2024-04-05T09:46:17+02:00</time>
      </trkpt>
      <trkpt lat="43.40345" lon="5.9221">
        <ele>310</ele>
        <time>2024-04-05T09:46:24+02:00</time>
      </trkpt>
      <trkpt lat="43.40324" lon="5.92205">
        <ele>309</ele>
        <time>2024-04-05T09:46:44+02:00</time>
      </trkpt>
      <trkpt lat="43.40305" lon="5.92209">
        <ele>310</ele>
        <time>2024-04-05T09:47:02+02:00</time>
      </trkpt>
      <trkpt lat="43.403" lon="5.92212">
        <ele>310</ele>
        <time>2024-04-05T09:47:07+02:00</time>
      </trkpt>
      <trkpt lat="43.40275" lon="5.92217">
        <ele>310</ele>
        <time>2024-04-05T09:47:30+02:00</time>
      </trkpt>
      <trkpt lat="43.40255" lon="5.92214">
        <ele>312</ele>
        <time>2024-04-05T09:47:47+02:00</time>
      </trkpt>
      <trkpt lat="43.40227" lon="5.92213">
        <ele>313</ele>
        <time>2024-04-05T09:48:08+02:00</time>
      </trkpt>
      <trkpt lat="43.40201" lon="5.92217">
        <ele>314</ele>
        <time>2024-04-05T09:48:30+02:00</time>
      </trkpt>
      <trkpt lat="43.40178" lon="5.92215">
        <ele>314</ele>
        <time>2024-04-05T09:48:54+02:00</time>
      </trkpt>
      <trkpt lat="43.40151" lon="5.9221">
        <ele>314</ele>
        <time>2024-04-05T09:49:18+02:00</time>
      </trkpt>
      <trkpt lat="43.40132" lon="5.92205">
        <ele>314</ele>
        <time>2024-04-05T09:49:33+02:00</time>
      </trkpt>
      <trkpt lat="43.4011" lon="5.92204">
        <ele>315</ele>
        <time>2024-04-05T09:49:52+02:00</time>
      </trkpt>
      <trkpt lat="43.40089" lon="5.92207">
        <ele>318</ele>
        <time>2024-04-05T09:50:13+02:00</time>
      </trkpt>
      <trkpt lat="43.40063" lon="5.9221">
        <ele>319</ele>
        <time>2024-04-05T09:50:35+02:00</time>
      </trkpt>
      <trkpt lat="43.40046" lon="5.92202">
        <ele>320</ele>
        <time>2024-04-05T09:50:54+02:00</time>
      </trkpt>
      <trkpt lat="43.40025" lon="5.92187">
        <ele>321</ele>
        <time>2024-04-05T09:51:14+02:00</time>
      </trkpt>
      <trkpt lat="43.40006" lon="5.92176">
        <ele>319</ele>
        <time>2024-04-05T09:51:34+02:00</time>
      </trkpt>
      <trkpt lat="43.39979" lon="5.92164">
        <ele>317</ele>
        <time>2024-04-05T09:51:57+02:00</time>
      </trkpt>
      <trkpt lat="43.39963" lon="5.92165">
        <ele>315</ele>
        <time>2024-04-05T09:52:13+02:00</time>
      </trkpt>
      <trkpt lat="43.39961" lon="5.92166">
        <ele>315</ele>
        <time>2024-04-05T09:52:15+02:00</time>
      </trkpt>
      <trkpt lat="43.39938" lon="5.92178">
        <ele>315</ele>
        <time>2024-04-05T09:52:36+02:00</time>
      </trkpt>
      <trkpt lat="43.39919" lon="5.92187">
        <ele>318</ele>
        <time>2024-04-05T09:52:55+02:00</time>
      </trkpt>
      <trkpt lat="43.39895" lon="5.92199">
        <ele>323</ele>
        <time>2024-04-05T09:53:12+02:00</time>
      </trkpt>
      <trkpt lat="43.39879" lon="5.92209">
        <ele>326</ele>
        <time>2024-04-05T09:53:29+02:00</time>
      </trkpt>
      <trkpt lat="43.39862" lon="5.92221">
        <ele>329</ele>
        <time>2024-04-05T09:53:51+02:00</time>
      </trkpt>
      <trkpt lat="43.39843" lon="5.92239">
        <ele>330</ele>
        <time>2024-04-05T09:54:13+02:00</time>
      </trkpt>
      <trkpt lat="43.39819" lon="5.92261">
        <ele>333</ele>
        <time>2024-04-05T09:54:34+02:00</time>
      </trkpt>
      <trkpt lat="43.39806" lon="5.9227">
        <ele>336</ele>
        <time>2024-04-05T09:54:51+02:00</time>
      </trkpt>
      <trkpt lat="43.39793" lon="5.92278">
        <ele>338</ele>
        <time>2024-04-05T09:55:07+02:00</time>
      </trkpt>
      <trkpt lat="43.39782" lon="5.92285">
        <ele>339</ele>
        <time>2024-04-05T09:55:22+02:00</time>
      </trkpt>
      <trkpt lat="43.39763" lon="5.92296">
        <ele>340</ele>
        <time>2024-04-05T09:55:41+02:00</time>
      </trkpt>
      <trkpt lat="43.39749" lon="5.92304">
        <ele>341</ele>
        <time>2024-04-05T09:55:57+02:00</time>
      </trkpt>
      <trkpt lat="43.39749" lon="5.92304">
        <ele>341</ele>
        <time>2024-04-05T09:56:17+02:00</time>
      </trkpt>
      <trkpt lat="43.39753" lon="5.92311">
        <ele>341</ele>
        <time>2024-04-05T09:56:44+02:00</time>
      </trkpt>
      <trkpt lat="43.3975" lon="5.9231">
        <ele>341</ele>
        <time>2024-04-05T09:57:15+02:00</time>
      </trkpt>
      <trkpt lat="43.39749" lon="5.92308">
        <ele>341</ele>
        <time>2024-04-05T09:57:35+02:00</time>
      </trkpt>
      <trkpt lat="43.3975" lon="5.92305">
        <ele>341</ele>
        <time>2024-04-05T09:57:52+02:00</time>
      </trkpt>
      <trkpt lat="43.39751" lon="5.92303">
        <ele>341</ele>
        <time>2024-04-05T09:58:11+02:00</time>
      </trkpt>
      <trkpt lat="43.39747" lon="5.92302">
        <ele>341</ele>
        <time>2024-04-05T09:58:29+02:00</time>
      </trkpt>
      <trkpt lat="43.39743" lon="5.92304">
        <ele>341</ele>
        <time>2024-04-05T09:58:53+02:00</time>
      </trkpt>
      <trkpt lat="43.39739" lon="5.92308">
        <ele>342</ele>
        <time>2024-04-05T09:59:13+02:00</time>
      </trkpt>
      <trkpt lat="43.39731" lon="5.9232">
        <ele>343</ele>
        <time>2024-04-05T09:59:29+02:00</time>
      </trkpt>
      <trkpt lat="43.39724" lon="5.9234">
        <ele>345</ele>
        <time>2024-04-05T09:59:47+02:00</time>
      </trkpt>
      <trkpt lat="43.39708" lon="5.92356">
        <ele>348</ele>
        <time>2024-04-05T10:00:03+02:00</time>
      </trkpt>
      <trkpt lat="43.39697" lon="5.92366">
        <ele>350</ele>
        <time>2024-04-05T10:00:21+02:00</time>
      </trkpt>
      <trkpt lat="43.39686" lon="5.92374">
        <ele>352</ele>
        <time>2024-04-05T10:00:38+02:00</time>
      </trkpt>
      <trkpt lat="43.39671" lon="5.92385">
        <ele>355</ele>
        <time>2024-04-05T10:00:56+02:00</time>
      </trkpt>
      <trkpt lat="43.39665" lon="5.92394">
        <ele>358</ele>
        <time>2024-04-05T10:01:17+02:00</time>
      </trkpt>
      <trkpt lat="43.39661" lon="5.92396">
        <ele>358</ele>
        <time>2024-04-05T10:01:34+02:00</time>
      </trkpt>
      <trkpt lat="43.39651" lon="5.92401">
        <ele>361</ele>
        <time>2024-04-05T10:01:49+02:00</time>
      </trkpt>
      <trkpt lat="43.39643" lon="5.92402">
        <ele>363</ele>
        <time>2024-04-05T10:02:01+02:00</time>
      </trkpt>
      <trkpt lat="43.39629" lon="5.92413">
        <ele>366</ele>
        <time>2024-04-05T10:02:20+02:00</time>
      </trkpt>
      <trkpt lat="43.3962" lon="5.92425">
        <ele>368</ele>
        <time>2024-04-05T10:02:38+02:00</time>
      </trkpt>
      <trkpt lat="43.39608" lon="5.92436">
        <ele>371</ele>
        <time>2024-04-05T10:02:58+02:00</time>
      </trkpt>
      <trkpt lat="43.396" lon="5.92437">
        <ele>372</ele>
        <time>2024-04-05T10:03:17+02:00</time>
      </trkpt>
      <trkpt lat="43.39595" lon="5.92434">
        <ele>373</ele>
        <time>2024-04-05T10:03:31+02:00</time>
      </trkpt>
      <trkpt lat="43.39591" lon="5.92442">
        <ele>375</ele>
        <time>2024-04-05T10:03:45+02:00</time>
      </trkpt>
      <trkpt lat="43.39586" lon="5.92444">
        <ele>376</ele>
        <time>2024-04-05T10:04:00+02:00</time>
      </trkpt>
      <trkpt lat="43.3958" lon="5.92447">
        <ele>377</ele>
        <time>2024-04-05T10:04:14+02:00</time>
      </trkpt>
      <trkpt lat="43.39578" lon="5.92451">
        <ele>376</ele>
        <time>2024-04-05T10:04:18+02:00</time>
      </trkpt>
      <trkpt lat="43.39563" lon="5.92459">
        <ele>377</ele>
        <time>2024-04-05T10:04:37+02:00</time>
      </trkpt>
      <trkpt lat="43.39549" lon="5.92464">
        <ele>380</ele>
        <time>2024-04-05T10:04:54+02:00</time>
      </trkpt>
      <trkpt lat="43.39546" lon="5.92466">
        <ele>381</ele>
        <time>2024-04-05T10:04:57+02:00</time>
      </trkpt>
      <trkpt lat="43.39534" lon="5.92472">
        <ele>384</ele>
        <time>2024-04-05T10:05:10+02:00</time>
      </trkpt>
      <trkpt lat="43.39521" lon="5.92474">
        <ele>388</ele>
        <time>2024-04-05T10:05:24+02:00</time>
      </trkpt>
      <trkpt lat="43.39509" lon="5.92479">
        <ele>391</ele>
        <time>2024-04-05T10:05:37+02:00</time>
      </trkpt>
      <trkpt lat="43.39495" lon="5.92481">
        <ele>395</ele>
        <time>2024-04-05T10:05:55+02:00</time>
      </trkpt>
      <trkpt lat="43.39482" lon="5.92475">
        <ele>399</ele>
        <time>2024-04-05T10:06:15+02:00</time>
      </trkpt>
      <trkpt lat="43.39472" lon="5.92471">
        <ele>402</ele>
        <time>2024-04-05T10:06:32+02:00</time>
      </trkpt>
      <trkpt lat="43.39463" lon="5.92468">
        <ele>404</ele>
        <time>2024-04-05T10:06:49+02:00</time>
      </trkpt>
      <trkpt lat="43.39454" lon="5.92466">
        <ele>407</ele>
        <time>2024-04-05T10:07:06+02:00</time>
      </trkpt>
      <trkpt lat="43.39439" lon="5.9246">
        <ele>410</ele>
        <time>2024-04-05T10:07:25+02:00</time>
      </trkpt>
      <trkpt lat="43.39428" lon="5.92453">
        <ele>413</ele>
        <time>2024-04-05T10:07:44+02:00</time>
      </trkpt>
      <trkpt lat="43.39416" lon="5.92446">
        <ele>416</ele>
        <time>2024-04-05T10:08:03+02:00</time>
      </trkpt>
      <trkpt lat="43.39416" lon="5.92455">
        <ele>419</ele>
        <time>2024-04-05T10:08:21+02:00</time>
      </trkpt>
      <trkpt lat="43.39421" lon="5.92471">
        <ele>422</ele>
        <time>2024-04-05T10:08:40+02:00</time>
      </trkpt>
      <trkpt lat="43.39427" lon="5.92487">
        <ele>421</ele>
        <time>2024-04-05T10:08:55+02:00</time>
      </trkpt>
      <trkpt lat="43.39428" lon="5.92489">
        <ele>422</ele>
        <time>2024-04-05T10:09:01+02:00</time>
      </trkpt>
      <trkpt lat="43.39431" lon="5.92496">
        <ele>421</ele>
        <time>2024-04-05T10:09:20+02:00</time>
      </trkpt>
      <trkpt lat="43.39433" lon="5.92498">
        <ele>421</ele>
        <time>2024-04-05T10:09:45+02:00</time>
      </trkpt>
      <trkpt lat="43.39432" lon="5.925">
        <ele>421</ele>
        <time>2024-04-05T10:10:14+02:00</time>
      </trkpt>
      <trkpt lat="43.39432" lon="5.925">
        <ele>421</ele>
        <time>2024-04-05T10:10:38+02:00</time>
      </trkpt>
      <trkpt lat="43.39428" lon="5.92511">
        <ele>422</ele>
        <time>2024-04-05T10:10:57+02:00</time>
      </trkpt>
      <trkpt lat="43.39417" lon="5.92531">
        <ele>425</ele>
        <time>2024-04-05T10:11:15+02:00</time>
      </trkpt>
      <trkpt lat="43.39406" lon="5.92548">
        <ele>429</ele>
        <time>2024-04-05T10:11:32+02:00</time>
      </trkpt>
      <trkpt lat="43.39394" lon="5.92561">
        <ele>434</ele>
        <time>2024-04-05T10:11:49+02:00</time>
      </trkpt>
      <trkpt lat="43.39382" lon="5.92574">
        <ele>437</ele>
        <time>2024-04-05T10:12:07+02:00</time>
      </trkpt>
      <trkpt lat="43.39372" lon="5.92588">
        <ele>440</ele>
        <time>2024-04-05T10:12:26+02:00</time>
      </trkpt>
      <trkpt lat="43.3936" lon="5.92602">
        <ele>443</ele>
        <time>2024-04-05T10:12:43+02:00</time>
      </trkpt>
      <trkpt lat="43.39347" lon="5.92618">
        <ele>447</ele>
        <time>2024-04-05T10:13:04+02:00</time>
      </trkpt>
      <trkpt lat="43.39333" lon="5.92638">
        <ele>449</ele>
        <time>2024-04-05T10:13:24+02:00</time>
      </trkpt>
      <trkpt lat="43.39319" lon="5.92656">
        <ele>453</ele>
        <time>2024-04-05T10:13:41+02:00</time>
      </trkpt>
      <trkpt lat="43.39309" lon="5.92666">
        <ele>457</ele>
        <time>2024-04-05T10:13:57+02:00</time>
      </trkpt>
      <trkpt lat="43.39296" lon="5.92678">
        <ele>462</ele>
        <time>2024-04-05T10:14:15+02:00</time>
      </trkpt>
      <trkpt lat="43.39289" lon="5.92687">
        <ele>464</ele>
        <time>2024-04-05T10:14:40+02:00</time>
      </trkpt>
      <trkpt lat="43.39286" lon="5.92693">
        <ele>464</ele>
        <time>2024-04-05T10:15:00+02:00</time>
      </trkpt>
      <trkpt lat="43.39286" lon="5.92695">
        <ele>463</ele>
        <time>2024-04-05T10:15:18+02:00</time>
      </trkpt>
      <trkpt lat="43.39285" lon="5.92696">
        <ele>464</ele>
        <time>2024-04-05T10:15:38+02:00</time>
      </trkpt>
      <trkpt lat="43.39286" lon="5.92692">
        <ele>464</ele>
        <time>2024-04-05T10:16:02+02:00</time>
      </trkpt>
      <trkpt lat="43.39286" lon="5.92686">
        <ele>466</ele>
        <time>2024-04-05T10:16:27+02:00</time>
      </trkpt>
      <trkpt lat="43.39284" lon="5.92674">
        <ele>471</ele>
        <time>2024-04-05T10:16:43+02:00</time>
      </trkpt>
      <trkpt lat="43.39287" lon="5.92667">
        <ele>472</ele>
        <time>2024-04-05T10:16:56+02:00</time>
      </trkpt>
      <trkpt lat="43.3929" lon="5.92656">
        <ele>473</ele>
        <time>2024-04-05T10:17:13+02:00</time>
      </trkpt>
      <trkpt lat="43.3929" lon="5.92637">
        <ele>477</ele>
        <time>2024-04-05T10:17:30+02:00</time>
      </trkpt>
      <trkpt lat="43.39293" lon="5.92626">
        <ele>478</ele>
        <time>2024-04-05T10:17:46+02:00</time>
      </trkpt>
      <trkpt lat="43.39295" lon="5.92617">
        <ele>478</ele>
        <time>2024-04-05T10:18:03+02:00</time>
      </trkpt>
      <trkpt lat="43.39294" lon="5.92598">
        <ele>482</ele>
        <time>2024-04-05T10:18:18+02:00</time>
      </trkpt>
      <trkpt lat="43.39291" lon="5.92581">
        <ele>487</ele>
        <time>2024-04-05T10:18:34+02:00</time>
      </trkpt>
      <trkpt lat="43.39294" lon="5.92566">
        <ele>485</ele>
        <time>2024-04-05T10:18:50+02:00</time>
      </trkpt>
      <trkpt lat="43.39296" lon="5.92552">
        <ele>484</ele>
        <time>2024-04-05T10:19:08+02:00</time>
      </trkpt>
      <trkpt lat="43.39292" lon="5.9254">
        <ele>487</ele>
        <time>2024-04-05T10:19:25+02:00</time>
      </trkpt>
      <trkpt lat="43.39288" lon="5.92547">
        <ele>490</ele>
        <time>2024-04-05T10:19:41+02:00</time>
      </trkpt>
      <trkpt lat="43.39282" lon="5.92559">
        <ele>494</ele>
        <time>2024-04-05T10:19:59+02:00</time>
      </trkpt>
      <trkpt lat="43.39279" lon="5.92567">
        <ele>497</ele>
        <time>2024-04-05T10:20:12+02:00</time>
      </trkpt>
      <trkpt lat="43.39275" lon="5.92564">
        <ele>498</ele>
        <time>2024-04-05T10:20:26+02:00</time>
      </trkpt>
      <trkpt lat="43.39266" lon="5.92567">
        <ele>499</ele>
        <time>2024-04-05T10:20:40+02:00</time>
      </trkpt>
      <trkpt lat="43.39255" lon="5.92577">
        <ele>500</ele>
        <time>2024-04-05T10:20:57+02:00</time>
      </trkpt>
      <trkpt lat="43.39253" lon="5.92587">
        <ele>500</ele>
        <time>2024-04-05T10:21:14+02:00</time>
      </trkpt>
      <trkpt lat="43.39252" lon="5.92587">
        <ele>500</ele>
        <time>2024-04-05T10:21:15+02:00</time>
      </trkpt>
      <trkpt lat="43.3925" lon="5.92587">
        <ele>500</ele>
        <time>2024-04-05T10:21:17+02:00</time>
      </trkpt>
      <trkpt lat="43.39244" lon="5.92587">
        <ele>500</ele>
        <time>2024-04-05T10:21:29+02:00</time>
      </trkpt>
      <trkpt lat="43.3925" lon="5.92584">
        <ele>500</ele>
        <time>2024-04-05T10:21:36+02:00</time>
      </trkpt>
      <trkpt lat="43.39255" lon="5.9258">
        <ele>500</ele>
        <time>2024-04-05T10:21:41+02:00</time>
      </trkpt>
      <trkpt lat="43.39259" lon="5.92579">
        <ele>499</ele>
        <time>2024-04-05T10:21:48+02:00</time>
      </trkpt>
      <trkpt lat="43.39265" lon="5.92575">
        <ele>499</ele>
        <time>2024-04-05T10:21:54+02:00</time>
      </trkpt>
      <trkpt lat="43.39263" lon="5.92563">
        <ele>499</ele>
        <time>2024-04-05T10:22:09+02:00</time>
      </trkpt>
      <trkpt lat="43.39266" lon="5.92561">
        <ele>498</ele>
        <time>2024-04-05T10:22:23+02:00</time>
      </trkpt>
      <trkpt lat="43.39274" lon="5.92543">
        <ele>497</ele>
        <time>2024-04-05T10:22:41+02:00</time>
      </trkpt>
      <trkpt lat="43.39274" lon="5.92542">
        <ele>497</ele>
        <time>2024-04-05T10:22:42+02:00</time>
      </trkpt>
      <trkpt lat="43.39278" lon="5.92529">
        <ele>495</ele>
        <time>2024-04-05T10:23:00+02:00</time>
      </trkpt>
      <trkpt lat="43.39273" lon="5.92517">
        <ele>495</ele>
        <time>2024-04-05T10:23:14+02:00</time>
      </trkpt>
      <trkpt lat="43.39265" lon="5.92511">
        <ele>497</ele>
        <time>2024-04-05T10:23:30+02:00</time>
      </trkpt>
      <trkpt lat="43.39258" lon="5.92507">
        <ele>498</ele>
        <time>2024-04-05T10:23:44+02:00</time>
      </trkpt>
      <trkpt lat="43.39249" lon="5.92509">
        <ele>500</ele>
        <time>2024-04-05T10:23:59+02:00</time>
      </trkpt>
      <trkpt lat="43.39246" lon="5.92506">
        <ele>500</ele>
        <time>2024-04-05T10:24:14+02:00</time>
      </trkpt>
      <trkpt lat="43.39259" lon="5.92505">
        <ele>498</ele>
        <time>2024-04-05T10:24:27+02:00</time>
      </trkpt>
      <trkpt lat="43.39262" lon="5.92511">
        <ele>497</ele>
        <time>2024-04-05T10:24:32+02:00</time>
      </trkpt>
      <trkpt lat="43.39278" lon="5.92526">
        <ele>495</ele>
        <time>2024-04-05T10:24:51+02:00</time>
      </trkpt>
      <trkpt lat="43.39281" lon="5.9253">
        <ele>493</ele>
        <time>2024-04-05T10:25:04+02:00</time>
      </trkpt>
      <trkpt lat="43.39284" lon="5.92529">
        <ele>491</ele>
        <time>2024-04-05T10:25:21+02:00</time>
      </trkpt>
      <trkpt lat="43.39282" lon="5.92529">
        <ele>493</ele>
        <time>2024-04-05T10:25:42+02:00</time>
      </trkpt>
      <trkpt lat="43.39281" lon="5.92534">
        <ele>493</ele>
        <time>2024-04-05T10:25:47+02:00</time>
      </trkpt>
      <trkpt lat="43.39279" lon="5.92538">
        <ele>495</ele>
        <time>2024-04-05T10:26:03+02:00</time>
      </trkpt>
      <trkpt lat="43.39274" lon="5.92532">
        <ele>496</ele>
        <time>2024-04-05T10:26:17+02:00</time>
      </trkpt>
      <trkpt lat="43.3926" lon="5.92535">
        <ele>498</ele>
        <time>2024-04-05T10:26:40+02:00</time>
      </trkpt>
      <trkpt lat="43.3928" lon="5.92532">
        <ele>494</ele>
        <time>2024-04-05T10:34:54+02:00</time>
      </trkpt>
      <trkpt lat="43.39281" lon="5.92526">
        <ele>493</ele>
        <time>2024-04-05T10:35:09+02:00</time>
      </trkpt>
      <trkpt lat="43.39274" lon="5.92517">
        <ele>495</ele>
        <time>2024-04-05T10:35:22+02:00</time>
      </trkpt>
      <trkpt lat="43.39261" lon="5.92507">
        <ele>497</ele>
        <time>2024-04-05T10:35:39+02:00</time>
      </trkpt>
      <trkpt lat="43.3926" lon="5.92503">
        <ele>498</ele>
        <time>2024-04-05T10:35:43+02:00</time>
      </trkpt>
      <trkpt lat="43.39259" lon="5.92494">
        <ele>498</ele>
        <time>2024-04-05T10:35:58+02:00</time>
      </trkpt>
      <trkpt lat="43.39252" lon="5.92491">
        <ele>499</ele>
        <time>2024-04-05T10:36:09+02:00</time>
      </trkpt>
      <trkpt lat="43.39243" lon="5.92473">
        <ele>500</ele>
        <time>2024-04-05T10:36:26+02:00</time>
      </trkpt>
      <trkpt lat="43.39239" lon="5.92466">
        <ele>500</ele>
        <time>2024-04-05T10:36:38+02:00</time>
      </trkpt>
      <trkpt lat="43.39231" lon="5.92438">
        <ele>500</ele>
        <time>2024-04-05T10:36:59+02:00</time>
      </trkpt>
      <trkpt lat="43.39235" lon="5.92434">
        <ele>500</ele>
        <time>2024-04-05T10:37:12+02:00</time>
      </trkpt>
      <trkpt lat="43.39231" lon="5.92434">
        <ele>500</ele>
        <time>2024-04-05T10:37:25+02:00</time>
      </trkpt>
      <trkpt lat="43.39229" lon="5.92415">
        <ele>500</ele>
        <time>2024-04-05T10:37:42+02:00</time>
      </trkpt>
      <trkpt lat="43.3923" lon="5.92399">
        <ele>500</ele>
        <time>2024-04-05T10:37:56+02:00</time>
      </trkpt>
      <trkpt lat="43.39221" lon="5.92374">
        <ele>500</ele>
        <time>2024-04-05T10:38:15+02:00</time>
      </trkpt>
      <trkpt lat="43.39216" lon="5.92358">
        <ele>500</ele>
        <time>2024-04-05T10:38:27+02:00</time>
      </trkpt>
      <trkpt lat="43.39213" lon="5.92342">
        <ele>500</ele>
        <time>2024-04-05T10:38:41+02:00</time>
      </trkpt>
      <trkpt lat="43.3921" lon="5.9231">
        <ele>500</ele>
        <time>2024-04-05T10:39:02+02:00</time>
      </trkpt>
      <trkpt lat="43.39205" lon="5.92292">
        <ele>500</ele>
        <time>2024-04-05T10:39:18+02:00</time>
      </trkpt>
      <trkpt lat="43.39194" lon="5.92265">
        <ele>500</ele>
        <time>2024-04-05T10:39:38+02:00</time>
      </trkpt>
      <trkpt lat="43.3919" lon="5.92255">
        <ele>500</ele>
        <time>2024-04-05T10:39:55+02:00</time>
      </trkpt>
      <trkpt lat="43.39188" lon="5.92245">
        <ele>500</ele>
        <time>2024-04-05T10:40:10+02:00</time>
      </trkpt>
      <trkpt lat="43.39186" lon="5.9224">
        <ele>500</ele>
        <time>2024-04-05T10:40:26+02:00</time>
      </trkpt>
      <trkpt lat="43.3918" lon="5.9222">
        <ele>500</ele>
        <time>2024-04-05T10:40:44+02:00</time>
      </trkpt>
      <trkpt lat="43.3917" lon="5.92192">
        <ele>500</ele>
        <time>2024-04-05T10:41:04+02:00</time>
      </trkpt>
      <trkpt lat="43.39163" lon="5.92164">
        <ele>500</ele>
        <time>2024-04-05T10:41:25+02:00</time>
      </trkpt>
      <trkpt lat="43.39156" lon="5.92144">
        <ele>499</ele>
        <time>2024-04-05T10:41:40+02:00</time>
      </trkpt>
      <trkpt lat="43.39151" lon="5.92121">
        <ele>498</ele>
        <time>2024-04-05T10:41:55+02:00</time>
      </trkpt>
      <trkpt lat="43.3914" lon="5.92096">
        <ele>501</ele>
        <time>2024-04-05T10:42:16+02:00</time>
      </trkpt>
      <trkpt lat="43.3913" lon="5.92067">
        <ele>503</ele>
        <time>2024-04-05T10:42:37+02:00</time>
      </trkpt>
      <trkpt lat="43.39124" lon="5.92038">
        <ele>505</ele>
        <time>2024-04-05T10:42:58+02:00</time>
      </trkpt>
      <trkpt lat="43.39121" lon="5.92018">
        <ele>507</ele>
        <time>2024-04-05T10:43:13+02:00</time>
      </trkpt>
      <trkpt lat="43.39119" lon="5.92009">
        <ele>507</ele>
        <time>2024-04-05T10:43:20+02:00</time>
      </trkpt>
      <trkpt lat="43.39121" lon="5.92003">
        <ele>506</ele>
        <time>2024-04-05T10:43:36+02:00</time>
      </trkpt>
      <trkpt lat="43.39121" lon="5.92002">
        <ele>507</ele>
        <time>2024-04-05T10:43:57+02:00</time>
      </trkpt>
      <trkpt lat="43.39115" lon="5.91973">
        <ele>508</ele>
        <time>2024-04-05T10:44:16+02:00</time>
      </trkpt>
      <trkpt lat="43.39108" lon="5.91942">
        <ele>508</ele>
        <time>2024-04-05T10:44:37+02:00</time>
      </trkpt>
      <trkpt lat="43.39106" lon="5.9193">
        <ele>507</ele>
        <time>2024-04-05T10:44:53+02:00</time>
      </trkpt>
      <trkpt lat="43.39101" lon="5.9192">
        <ele>507</ele>
        <time>2024-04-05T10:45:08+02:00</time>
      </trkpt>
      <trkpt lat="43.39088" lon="5.91899">
        <ele>507</ele>
        <time>2024-04-05T10:45:27+02:00</time>
      </trkpt>
      <trkpt lat="43.39085" lon="5.91898">
        <ele>508</ele>
        <time>2024-04-05T10:45:42+02:00</time>
      </trkpt>
      <trkpt lat="43.39085" lon="5.91898">
        <ele>508</ele>
        <time>2024-04-05T10:46:17+02:00</time>
      </trkpt>
      <trkpt lat="43.39085" lon="5.91898">
        <ele>508</ele>
        <time>2024-04-05T10:46:55+02:00</time>
      </trkpt>
      <trkpt lat="43.39085" lon="5.91897">
        <ele>508</ele>
        <time>2024-04-05T10:47:27+02:00</time>
      </trkpt>
      <trkpt lat="43.39083" lon="5.91894">
        <ele>508</ele>
        <time>2024-04-05T10:47:35+02:00</time>
      </trkpt>
      <trkpt lat="43.39069" lon="5.91879">
        <ele>507</ele>
        <time>2024-04-05T10:47:51+02:00</time>
      </trkpt>
      <trkpt lat="43.3905" lon="5.91862">
        <ele>508</ele>
        <time>2024-04-05T10:48:08+02:00</time>
      </trkpt>
      <trkpt lat="43.39031" lon="5.9185">
        <ele>506</ele>
        <time>2024-04-05T10:48:25+02:00</time>
      </trkpt>
      <trkpt lat="43.39019" lon="5.91845">
        <ele>504</ele>
        <time>2024-04-05T10:48:35+02:00</time>
      </trkpt>
      <trkpt lat="43.39013" lon="5.91835">
        <ele>503</ele>
        <time>2024-04-05T10:48:42+02:00</time>
      </trkpt>
      <trkpt lat="43.38992" lon="5.91817">
        <ele>501</ele>
        <time>2024-04-05T10:49:01+02:00</time>
      </trkpt>
      <trkpt lat="43.38973" lon="5.91821">
        <ele>500</ele>
        <time>2024-04-05T10:49:17+02:00</time>
      </trkpt>
      <trkpt lat="43.38947" lon="5.91817">
        <ele>501</ele>
        <time>2024-04-05T10:49:37+02:00</time>
      </trkpt>
      <trkpt lat="43.3892" lon="5.91818">
        <ele>499</ele>
        <time>2024-04-05T10:49:56+02:00</time>
      </trkpt>
      <trkpt lat="43.38893" lon="5.91801">
        <ele>499</ele>
        <time>2024-04-05T10:50:18+02:00</time>
      </trkpt>
      <trkpt lat="43.38868" lon="5.91794">
        <ele>498</ele>
        <time>2024-04-05T10:50:39+02:00</time>
      </trkpt>
      <trkpt lat="43.38848" lon="5.918">
        <ele>496</ele>
        <time>2024-04-05T10:50:56+02:00</time>
      </trkpt>
      <trkpt lat="43.38846" lon="5.91801">
        <ele>496</ele>
        <time>2024-04-05T10:50:58+02:00</time>
      </trkpt>
      <trkpt lat="43.38821" lon="5.91794">
        <ele>495</ele>
        <time>2024-04-05T10:51:17+02:00</time>
      </trkpt>
      <trkpt lat="43.38806" lon="5.91777">
        <ele>495</ele>
        <time>2024-04-05T10:51:35+02:00</time>
      </trkpt>
      <trkpt lat="43.38793" lon="5.91757">
        <ele>495</ele>
        <time>2024-04-05T10:51:54+02:00</time>
      </trkpt>
      <trkpt lat="43.38784" lon="5.91744">
        <ele>494</ele>
        <time>2024-04-05T10:52:08+02:00</time>
      </trkpt>
      <trkpt lat="43.38771" lon="5.91721">
        <ele>493</ele>
        <time>2024-04-05T10:52:27+02:00</time>
      </trkpt>
      <trkpt lat="43.38761" lon="5.91694">
        <ele>493</ele>
        <time>2024-04-05T10:52:45+02:00</time>
      </trkpt>
      <trkpt lat="43.38744" lon="5.91678">
        <ele>489</ele>
        <time>2024-04-05T10:53:04+02:00</time>
      </trkpt>
      <trkpt lat="43.38733" lon="5.91668">
        <ele>486</ele>
        <time>2024-04-05T10:53:16+02:00</time>
      </trkpt>
      <trkpt lat="43.38727" lon="5.91662">
        <ele>485</ele>
        <time>2024-04-05T10:53:22+02:00</time>
      </trkpt>
      <trkpt lat="43.38707" lon="5.91655">
        <ele>482</ele>
        <time>2024-04-05T10:53:41+02:00</time>
      </trkpt>
      <trkpt lat="43.38688" lon="5.91652">
        <ele>479</ele>
        <time>2024-04-05T10:53:58+02:00</time>
      </trkpt>
      <trkpt lat="43.38687" lon="5.91652">
        <ele>479</ele>
        <time>2024-04-05T10:53:59+02:00</time>
      </trkpt>
      <trkpt lat="43.38667" lon="5.91655">
        <ele>476</ele>
        <time>2024-04-05T10:54:15+02:00</time>
      </trkpt>
      <trkpt lat="43.38661" lon="5.9166">
        <ele>475</ele>
        <time>2024-04-05T10:54:23+02:00</time>
      </trkpt>
      <trkpt lat="43.38658" lon="5.91663">
        <ele>474</ele>
        <time>2024-04-05T10:54:26+02:00</time>
      </trkpt>
      <trkpt lat="43.38648" lon="5.9167">
        <ele>472</ele>
        <time>2024-04-05T10:54:37+02:00</time>
      </trkpt>
      <trkpt lat="43.38639" lon="5.91674">
        <ele>471</ele>
        <time>2024-04-05T10:54:49+02:00</time>
      </trkpt>
      <trkpt lat="43.38632" lon="5.91683">
        <ele>470</ele>
        <time>2024-04-05T10:55:02+02:00</time>
      </trkpt>
      <trkpt lat="43.38621" lon="5.91699">
        <ele>470</ele>
        <time>2024-04-05T10:55:17+02:00</time>
      </trkpt>
      <trkpt lat="43.38621" lon="5.917">
        <ele>470</ele>
        <time>2024-04-05T10:55:18+02:00</time>
      </trkpt>
      <trkpt lat="43.38612" lon="5.91723">
        <ele>469</ele>
        <time>2024-04-05T10:55:36+02:00</time>
      </trkpt>
      <trkpt lat="43.38607" lon="5.91744">
        <ele>468</ele>
        <time>2024-04-05T10:55:50+02:00</time>
      </trkpt>
      <trkpt lat="43.38599" lon="5.91761">
        <ele>466</ele>
        <time>2024-04-05T10:56:07+02:00</time>
      </trkpt>
      <trkpt lat="43.38583" lon="5.91762">
        <ele>464</ele>
        <time>2024-04-05T10:56:22+02:00</time>
      </trkpt>
      <trkpt lat="43.38573" lon="5.91757">
        <ele>464</ele>
        <time>2024-04-05T10:56:36+02:00</time>
      </trkpt>
      <trkpt lat="43.38561" lon="5.91748">
        <ele>463</ele>
        <time>2024-04-05T10:56:54+02:00</time>
      </trkpt>
      <trkpt lat="43.38555" lon="5.91727">
        <ele>461</ele>
        <time>2024-04-05T10:57:10+02:00</time>
      </trkpt>
      <trkpt lat="43.38541" lon="5.91709">
        <ele>458</ele>
        <time>2024-04-05T10:57:26+02:00</time>
      </trkpt>
      <trkpt lat="43.38524" lon="5.91707">
        <ele>455</ele>
        <time>2024-04-05T10:57:42+02:00</time>
      </trkpt>
      <trkpt lat="43.38509" lon="5.91702">
        <ele>453</ele>
        <time>2024-04-05T10:57:56+02:00</time>
      </trkpt>
      <trkpt lat="43.38491" lon="5.917">
        <ele>452</ele>
        <time>2024-04-05T10:58:13+02:00</time>
      </trkpt>
      <trkpt lat="43.38476" lon="5.91697">
        <ele>450</ele>
        <time>2024-04-05T10:58:31+02:00</time>
      </trkpt>
      <trkpt lat="43.38455" lon="5.91674">
        <ele>450</ele>
        <time>2024-04-05T10:58:50+02:00</time>
      </trkpt>
      <trkpt lat="43.38437" lon="5.91659">
        <ele>450</ele>
        <time>2024-04-05T10:59:10+02:00</time>
      </trkpt>
      <trkpt lat="43.38415" lon="5.91644">
        <ele>450</ele>
        <time>2024-04-05T10:59:27+02:00</time>
      </trkpt>
      <trkpt lat="43.38403" lon="5.91629">
        <ele>450</ele>
        <time>2024-04-05T10:59:42+02:00</time>
      </trkpt>
      <trkpt lat="43.38403" lon="5.91628">
        <ele>450</ele>
        <time>2024-04-05T11:00:03+02:00</time>
      </trkpt>
      <trkpt lat="43.38403" lon="5.91628">
        <ele>450</ele>
        <time>2024-04-05T11:00:15+02:00</time>
      </trkpt>
      <trkpt lat="43.38403" lon="5.91629">
        <ele>450</ele>
        <time>2024-04-05T11:00:38+02:00</time>
      </trkpt>
      <trkpt lat="43.38394" lon="5.91626">
        <ele>450</ele>
        <time>2024-04-05T11:01:02+02:00</time>
      </trkpt>
      <trkpt lat="43.38378" lon="5.91615">
        <ele>450</ele>
        <time>2024-04-05T11:01:22+02:00</time>
      </trkpt>
      <trkpt lat="43.38376" lon="5.91614">
        <ele>450</ele>
        <time>2024-04-05T11:01:23+02:00</time>
      </trkpt>
      <trkpt lat="43.38361" lon="5.91602">
        <ele>450</ele>
        <time>2024-04-05T11:01:39+02:00</time>
      </trkpt>
      <trkpt lat="43.38341" lon="5.91589">
        <ele>450</ele>
        <time>2024-04-05T11:01:59+02:00</time>
      </trkpt>
      <trkpt lat="43.3833" lon="5.91568">
        <ele>450</ele>
        <time>2024-04-05T11:02:15+02:00</time>
      </trkpt>
      <trkpt lat="43.38326" lon="5.91552">
        <ele>450</ele>
        <time>2024-04-05T11:02:24+02:00</time>
      </trkpt>
      <trkpt lat="43.38326" lon="5.91518">
        <ele>450</ele>
        <time>2024-04-05T11:02:44+02:00</time>
      </trkpt>
      <trkpt lat="43.38318" lon="5.91496">
        <ele>450</ele>
        <time>2024-04-05T11:02:59+02:00</time>
      </trkpt>
      <trkpt lat="43.38313" lon="5.91489">
        <ele>450</ele>
        <time>2024-04-05T11:03:17+02:00</time>
      </trkpt>
      <trkpt lat="43.38308" lon="5.91463">
        <ele>450</ele>
        <time>2024-04-05T11:03:35+02:00</time>
      </trkpt>
      <trkpt lat="43.38293" lon="5.91443">
        <ele>450</ele>
        <time>2024-04-05T11:03:53+02:00</time>
      </trkpt>
      <trkpt lat="43.38277" lon="5.91427">
        <ele>450</ele>
        <time>2024-04-05T11:04:10+02:00</time>
      </trkpt>
      <trkpt lat="43.38265" lon="5.9141">
        <ele>450</ele>
        <time>2024-04-05T11:04:25+02:00</time>
      </trkpt>
      <trkpt lat="43.38261" lon="5.91396">
        <ele>450</ele>
        <time>2024-04-05T11:04:35+02:00</time>
      </trkpt>
      <trkpt lat="43.38255" lon="5.9137">
        <ele>450</ele>
        <time>2024-04-05T11:04:53+02:00</time>
      </trkpt>
      <trkpt lat="43.38244" lon="5.91335">
        <ele>450</ele>
        <time>2024-04-05T11:05:13+02:00</time>
      </trkpt>
      <trkpt lat="43.38237" lon="5.91302">
        <ele>450</ele>
        <time>2024-04-05T11:05:31+02:00</time>
      </trkpt>
      <trkpt lat="43.38235" lon="5.91272">
        <ele>450</ele>
        <time>2024-04-05T11:05:50+02:00</time>
      </trkpt>
      <trkpt lat="43.38227" lon="5.91253">
        <ele>450</ele>
        <time>2024-04-05T11:06:02+02:00</time>
      </trkpt>
      <trkpt lat="43.3822" lon="5.91225">
        <ele>450</ele>
        <time>2024-04-05T11:06:19+02:00</time>
      </trkpt>
      <trkpt lat="43.38211" lon="5.91203">
        <ele>450</ele>
        <time>2024-04-05T11:06:34+02:00</time>
      </trkpt>
      <trkpt lat="43.38199" lon="5.91185">
        <ele>450</ele>
        <time>2024-04-05T11:06:49+02:00</time>
      </trkpt>
      <trkpt lat="43.38185" lon="5.91169">
        <ele>448</ele>
        <time>2024-04-05T11:07:05+02:00</time>
      </trkpt>
      <trkpt lat="43.38175" lon="5.91143">
        <ele>446</ele>
        <time>2024-04-05T11:07:21+02:00</time>
      </trkpt>
      <trkpt lat="43.38162" lon="5.91133">
        <ele>444</ele>
        <time>2024-04-05T11:07:36+02:00</time>
      </trkpt>
      <trkpt lat="43.38159" lon="5.91133">
        <ele>444</ele>
        <time>2024-04-05T11:07:39+02:00</time>
      </trkpt>
      <trkpt lat="43.38154" lon="5.91134">
        <ele>443</ele>
        <time>2024-04-05T11:07:43+02:00</time>
      </trkpt>
      <trkpt lat="43.38151" lon="5.91137">
        <ele>443</ele>
        <time>2024-04-05T11:07:47+02:00</time>
      </trkpt>
      <trkpt lat="43.3814" lon="5.91163">
        <ele>441</ele>
        <time>2024-04-05T11:08:06+02:00</time>
      </trkpt>
      <trkpt lat="43.3813" lon="5.91162">
        <ele>439</ele>
        <time>2024-04-05T11:08:15+02:00</time>
      </trkpt>
      <trkpt lat="43.38116" lon="5.9115">
        <ele>436</ele>
        <time>2024-04-05T11:08:30+02:00</time>
      </trkpt>
      <trkpt lat="43.38103" lon="5.91121">
        <ele>433</ele>
        <time>2024-04-05T11:08:48+02:00</time>
      </trkpt>
      <trkpt lat="43.38094" lon="5.91101">
        <ele>432</ele>
        <time>2024-04-05T11:09:03+02:00</time>
      </trkpt>
      <trkpt lat="43.38091" lon="5.91092">
        <ele>432</ele>
        <time>2024-04-05T11:09:08+02:00</time>
      </trkpt>
      <trkpt lat="43.38081" lon="5.91063">
        <ele>430</ele>
        <time>2024-04-05T11:09:25+02:00</time>
      </trkpt>
      <trkpt lat="43.38077" lon="5.91045">
        <ele>429</ele>
        <time>2024-04-05T11:09:44+02:00</time>
      </trkpt>
      <trkpt lat="43.38076" lon="5.91041">
        <ele>429</ele>
        <time>2024-04-05T11:09:57+02:00</time>
      </trkpt>
      <trkpt lat="43.38075" lon="5.91043">
        <ele>429</ele>
        <time>2024-04-05T11:10:17+02:00</time>
      </trkpt>
      <trkpt lat="43.38074" lon="5.91043">
        <ele>429</ele>
        <time>2024-04-05T11:10:21+02:00</time>
      </trkpt>
      <trkpt lat="43.38063" lon="5.91038">
        <ele>427</ele>
        <time>2024-04-05T11:10:38+02:00</time>
      </trkpt>
      <trkpt lat="43.38054" lon="5.91033">
        <ele>426</ele>
        <time>2024-04-05T11:10:47+02:00</time>
      </trkpt>
      <trkpt lat="43.38047" lon="5.91033">
        <ele>426</ele>
        <time>2024-04-05T11:10:52+02:00</time>
      </trkpt>
      <trkpt lat="43.38044" lon="5.91033">
        <ele>425</ele>
        <time>2024-04-05T11:10:54+02:00</time>
      </trkpt>
      <trkpt lat="43.38038" lon="5.91033">
        <ele>425</ele>
        <time>2024-04-05T11:10:58+02:00</time>
      </trkpt>
      <trkpt lat="43.38035" lon="5.91032">
        <ele>424</ele>
        <time>2024-04-05T11:11:01+02:00</time>
      </trkpt>
      <trkpt lat="43.38032" lon="5.91029">
        <ele>424</ele>
        <time>2024-04-05T11:11:04+02:00</time>
      </trkpt>
      <trkpt lat="43.38017" lon="5.91021">
        <ele>423</ele>
        <time>2024-04-05T11:11:18+02:00</time>
      </trkpt>
      <trkpt lat="43.38002" lon="5.9102">
        <ele>421</ele>
        <time>2024-04-05T11:11:33+02:00</time>
      </trkpt>
      <trkpt lat="43.37987" lon="5.91019">
        <ele>419</ele>
        <time>2024-04-05T11:11:50+02:00</time>
      </trkpt>
      <trkpt lat="43.37969" lon="5.90999">
        <ele>418</ele>
        <time>2024-04-05T11:12:07+02:00</time>
      </trkpt>
      <trkpt lat="43.37963" lon="5.90991">
        <ele>417</ele>
        <time>2024-04-05T11:12:13+02:00</time>
      </trkpt>
      <trkpt lat="43.37958" lon="5.90985">
        <ele>416</ele>
        <time>2024-04-05T11:12:18+02:00</time>
      </trkpt>
      <trkpt lat="43.37939" lon="5.90961">
        <ele>415</ele>
        <time>2024-04-05T11:12:39+02:00</time>
      </trkpt>
      <trkpt lat="43.37932" lon="5.90934">
        <ele>416</ele>
        <time>2024-04-05T11:12:55+02:00</time>
      </trkpt>
      <trkpt lat="43.37932" lon="5.90932">
        <ele>416</ele>
        <time>2024-04-05T11:12:56+02:00</time>
      </trkpt>
      <trkpt lat="43.37924" lon="5.90916">
        <ele>415</ele>
        <time>2024-04-05T11:13:12+02:00</time>
      </trkpt>
      <trkpt lat="43.37922" lon="5.90913">
        <ele>415</ele>
        <time>2024-04-05T11:13:25+02:00</time>
      </trkpt>
      <trkpt lat="43.37923" lon="5.90915">
        <ele>415</ele>
        <time>2024-04-05T11:13:43+02:00</time>
      </trkpt>
      <trkpt lat="43.37921" lon="5.90924">
        <ele>414</ele>
        <time>2024-04-05T11:13:57+02:00</time>
      </trkpt>
      <trkpt lat="43.37919" lon="5.90952">
        <ele>413</ele>
        <time>2024-04-05T11:14:16+02:00</time>
      </trkpt>
      <trkpt lat="43.37918" lon="5.90954">
        <ele>412</ele>
        <time>2024-04-05T11:14:37+02:00</time>
      </trkpt>
      <trkpt lat="43.3792" lon="5.90964">
        <ele>412</ele>
        <time>2024-04-05T11:14:54+02:00</time>
      </trkpt>
      <trkpt lat="43.37929" lon="5.90994">
        <ele>411</ele>
        <time>2024-04-05T11:15:13+02:00</time>
      </trkpt>
      <trkpt lat="43.3793" lon="5.90997">
        <ele>411</ele>
        <time>2024-04-05T11:15:15+02:00</time>
      </trkpt>
      <trkpt lat="43.37933" lon="5.91015">
        <ele>410</ele>
        <time>2024-04-05T11:15:30+02:00</time>
      </trkpt>
      <trkpt lat="43.37938" lon="5.91031">
        <ele>410</ele>
        <time>2024-04-05T11:15:46+02:00</time>
      </trkpt>
      <trkpt lat="43.37944" lon="5.9106">
        <ele>408</ele>
        <time>2024-04-05T11:16:03+02:00</time>
      </trkpt>
      <trkpt lat="43.37947" lon="5.9107">
        <ele>407</ele>
        <time>2024-04-05T11:16:09+02:00</time>
      </trkpt>
      <trkpt lat="43.37954" lon="5.91101">
        <ele>405</ele>
        <time>2024-04-05T11:16:25+02:00</time>
      </trkpt>
      <trkpt lat="43.37956" lon="5.91116">
        <ele>404</ele>
        <time>2024-04-05T11:16:40+02:00</time>
      </trkpt>
      <trkpt lat="43.37962" lon="5.91142">
        <ele>403</ele>
        <time>2024-04-05T11:16:57+02:00</time>
      </trkpt>
      <trkpt lat="43.37963" lon="5.91154">
        <ele>402</ele>
        <time>2024-04-05T11:17:12+02:00</time>
      </trkpt>
      <trkpt lat="43.37955" lon="5.91168">
        <ele>399</ele>
        <time>2024-04-05T11:17:29+02:00</time>
      </trkpt>
      <trkpt lat="43.37952" lon="5.91188">
        <ele>398</ele>
        <time>2024-04-05T11:17:45+02:00</time>
      </trkpt>
      <trkpt lat="43.37952" lon="5.91212">
        <ele>396</ele>
        <time>2024-04-05T11:18:02+02:00</time>
      </trkpt>
      <trkpt lat="43.37949" lon="5.9123">
        <ele>394</ele>
        <time>2024-04-05T11:18:15+02:00</time>
      </trkpt>
      <trkpt lat="43.37942" lon="5.91255">
        <ele>391</ele>
        <time>2024-04-05T11:18:30+02:00</time>
      </trkpt>
      <trkpt lat="43.3793" lon="5.91266">
        <ele>389</ele>
        <time>2024-04-05T11:18:45+02:00</time>
      </trkpt>
      <trkpt lat="43.37921" lon="5.9128">
        <ele>386</ele>
        <time>2024-04-05T11:19:03+02:00</time>
      </trkpt>
      <trkpt lat="43.3792" lon="5.91297">
        <ele>385</ele>
        <time>2024-04-05T11:19:18+02:00</time>
      </trkpt>
      <trkpt lat="43.3792" lon="5.913">
        <ele>384</ele>
        <time>2024-04-05T11:19:20+02:00</time>
      </trkpt>
      <trkpt lat="43.37917" lon="5.91323">
        <ele>381</ele>
        <time>2024-04-05T11:19:37+02:00</time>
      </trkpt>
      <trkpt lat="43.37918" lon="5.91334">
        <ele>380</ele>
        <time>2024-04-05T11:19:44+02:00</time>
      </trkpt>
      <trkpt lat="43.37919" lon="5.91357">
        <ele>379</ele>
        <time>2024-04-05T11:19:58+02:00</time>
      </trkpt>
      <trkpt lat="43.37917" lon="5.91384">
        <ele>375</ele>
        <time>2024-04-05T11:20:14+02:00</time>
      </trkpt>
      <trkpt lat="43.37916" lon="5.91397">
        <ele>373</ele>
        <time>2024-04-05T11:20:30+02:00</time>
      </trkpt>
      <trkpt lat="43.37917" lon="5.91412">
        <ele>370</ele>
        <time>2024-04-05T11:20:44+02:00</time>
      </trkpt>
      <trkpt lat="43.37913" lon="5.91429">
        <ele>367</ele>
        <time>2024-04-05T11:20:59+02:00</time>
      </trkpt>
      <trkpt lat="43.37906" lon="5.91442">
        <ele>365</ele>
        <time>2024-04-05T11:21:13+02:00</time>
      </trkpt>
      <trkpt lat="43.37904" lon="5.91454">
        <ele>362</ele>
        <time>2024-04-05T11:21:29+02:00</time>
      </trkpt>
      <trkpt lat="43.37892" lon="5.91463">
        <ele>363</ele>
        <time>2024-04-05T11:21:45+02:00</time>
      </trkpt>
      <trkpt lat="43.37883" lon="5.91463">
        <ele>362</ele>
        <time>2024-04-05T11:21:58+02:00</time>
      </trkpt>
      <trkpt lat="43.37874" lon="5.91461">
        <ele>360</ele>
        <time>2024-04-05T11:22:13+02:00</time>
      </trkpt>
      <trkpt lat="43.3786" lon="5.91455">
        <ele>359</ele>
        <time>2024-04-05T11:22:27+02:00</time>
      </trkpt>
      <trkpt lat="43.37849" lon="5.91448">
        <ele>356</ele>
        <time>2024-04-05T11:22:45+02:00</time>
      </trkpt>
      <trkpt lat="43.37835" lon="5.91435">
        <ele>354</ele>
        <time>2024-04-05T11:23:02+02:00</time>
      </trkpt>
      <trkpt lat="43.37827" lon="5.9143">
        <ele>351</ele>
        <time>2024-04-05T11:23:14+02:00</time>
      </trkpt>
      <trkpt lat="43.37814" lon="5.91417">
        <ele>349</ele>
        <time>2024-04-05T11:23:28+02:00</time>
      </trkpt>
      <trkpt lat="43.37803" lon="5.91409">
        <ele>347</ele>
        <time>2024-04-05T11:23:43+02:00</time>
      </trkpt>
      <trkpt lat="43.37796" lon="5.914">
        <ele>346</ele>
        <time>2024-04-05T11:24:02+02:00</time>
      </trkpt>
      <trkpt lat="43.37777" lon="5.91378">
        <ele>345</ele>
        <time>2024-04-05T11:24:18+02:00</time>
      </trkpt>
      <trkpt lat="43.37766" lon="5.91371">
        <ele>343</ele>
        <time>2024-04-05T11:24:31+02:00</time>
      </trkpt>
      <trkpt lat="43.37766" lon="5.91382">
        <ele>337</ele>
        <time>2024-04-05T11:24:47+02:00</time>
      </trkpt>
      <trkpt lat="43.37772" lon="5.91392">
        <ele>336</ele>
        <time>2024-04-05T11:24:56+02:00</time>
      </trkpt>
      <trkpt lat="43.37778" lon="5.91404">
        <ele>334</ele>
        <time>2024-04-05T11:25:06+02:00</time>
      </trkpt>
      <trkpt lat="43.3778" lon="5.91406">
        <ele>334</ele>
        <time>2024-04-05T11:25:08+02:00</time>
      </trkpt>
      <trkpt lat="43.37782" lon="5.91425">
        <ele>328</ele>
        <time>2024-04-05T11:25:22+02:00</time>
      </trkpt>
      <trkpt lat="43.37787" lon="5.91439">
        <ele>325</ele>
        <time>2024-04-05T11:25:36+02:00</time>
      </trkpt>
      <trkpt lat="43.37795" lon="5.91457">
        <ele>323</ele>
        <time>2024-04-05T11:25:53+02:00</time>
      </trkpt>
      <trkpt lat="43.37798" lon="5.91472">
        <ele>318</ele>
        <time>2024-04-05T11:26:07+02:00</time>
      </trkpt>
      <trkpt lat="43.37801" lon="5.91483">
        <ele>316</ele>
        <time>2024-04-05T11:26:22+02:00</time>
      </trkpt>
      <trkpt lat="43.37806" lon="5.91505">
        <ele>311</ele>
        <time>2024-04-05T11:26:37+02:00</time>
      </trkpt>
      <trkpt lat="43.37814" lon="5.91523">
        <ele>311</ele>
        <time>2024-04-05T11:26:51+02:00</time>
      </trkpt>
      <trkpt lat="43.37823" lon="5.91536">
        <ele>312</ele>
        <time>2024-04-05T11:27:07+02:00</time>
      </trkpt>
      <trkpt lat="43.37825" lon="5.91539">
        <ele>312</ele>
        <time>2024-04-05T11:27:22+02:00</time>
      </trkpt>
      <trkpt lat="43.37828" lon="5.91556">
        <ele>308</ele>
        <time>2024-04-05T11:27:37+02:00</time>
      </trkpt>
      <trkpt lat="43.37839" lon="5.91575">
        <ele>306</ele>
        <time>2024-04-05T11:27:52+02:00</time>
      </trkpt>
      <trkpt lat="43.37854" lon="5.91605">
        <ele>304</ele>
        <time>2024-04-05T11:28:14+02:00</time>
      </trkpt>
      <trkpt lat="43.37866" lon="5.91626">
        <ele>304</ele>
        <time>2024-04-05T11:28:30+02:00</time>
      </trkpt>
      <trkpt lat="43.37876" lon="5.91639">
        <ele>308</ele>
        <time>2024-04-05T11:28:48+02:00</time>
      </trkpt>
      <trkpt lat="43.37875" lon="5.91671">
        <ele>303</ele>
        <time>2024-04-05T11:29:10+02:00</time>
      </trkpt>
      <trkpt lat="43.3787" lon="5.91685">
        <ele>301</ele>
        <time>2024-04-05T11:29:28+02:00</time>
      </trkpt>
      <trkpt lat="43.37865" lon="5.91679">
        <ele>301</ele>
        <time>2024-04-05T11:29:44+02:00</time>
      </trkpt>
      <trkpt lat="43.37869" lon="5.91674">
        <ele>302</ele>
        <time>2024-04-05T11:30:09+02:00</time>
      </trkpt>
      <trkpt lat="43.3787" lon="5.91675">
        <ele>302</ele>
        <time>2024-04-05T11:30:26+02:00</time>
      </trkpt>
      <trkpt lat="43.37868" lon="5.91678">
        <ele>301</ele>
        <time>2024-04-05T11:30:53+02:00</time>
      </trkpt>
      <trkpt lat="43.37869" lon="5.91677">
        <ele>302</ele>
        <time>2024-04-05T11:31:27+02:00</time>
      </trkpt>
      <trkpt lat="43.37865" lon="5.9168">
        <ele>301</ele>
        <time>2024-04-05T11:32:01+02:00</time>
      </trkpt>
      <trkpt lat="43.37863" lon="5.9168">
        <ele>301</ele>
        <time>2024-04-05T11:32:30+02:00</time>
      </trkpt>
      <trkpt lat="43.3786" lon="5.91683">
        <ele>301</ele>
        <time>2024-04-05T11:33:04+02:00</time>
      </trkpt>
      <trkpt lat="43.3786" lon="5.91686">
        <ele>301</ele>
        <time>2024-04-05T11:33:31+02:00</time>
      </trkpt>
      <trkpt lat="43.37864" lon="5.91684">
        <ele>301</ele>
        <time>2024-04-05T11:34:03+02:00</time>
      </trkpt>
      <trkpt lat="43.37868" lon="5.91678">
        <ele>302</ele>
        <time>2024-04-05T11:34:24+02:00</time>
      </trkpt>
      <trkpt lat="43.37865" lon="5.91666">
        <ele>301</ele>
        <time>2024-04-05T11:34:41+02:00</time>
      </trkpt>
      <trkpt lat="43.37859" lon="5.91639">
        <ele>300</ele>
        <time>2024-04-05T11:35:01+02:00</time>
      </trkpt>
      <trkpt lat="43.37855" lon="5.91637">
        <ele>300</ele>
        <time>2024-04-05T11:35:17+02:00</time>
      </trkpt>
      <trkpt lat="43.37851" lon="5.9164">
        <ele>300</ele>
        <time>2024-04-05T11:35:35+02:00</time>
      </trkpt>
      <trkpt lat="43.37853" lon="5.91632">
        <ele>301</ele>
        <time>2024-04-05T11:35:55+02:00</time>
      </trkpt>
      <trkpt lat="43.37847" lon="5.91619">
        <ele>301</ele>
        <time>2024-04-05T11:36:08+02:00</time>
      </trkpt>
      <trkpt lat="43.37841" lon="5.91603">
        <ele>302</ele>
        <time>2024-04-05T11:36:23+02:00</time>
      </trkpt>
      <trkpt lat="43.37831" lon="5.91585">
        <ele>302</ele>
        <time>2024-04-05T11:36:42+02:00</time>
      </trkpt>
      <trkpt lat="43.37822" lon="5.91567">
        <ele>304</ele>
        <time>2024-04-05T11:36:59+02:00</time>
      </trkpt>
      <trkpt lat="43.37809" lon="5.91554">
        <ele>302</ele>
        <time>2024-04-05T11:37:17+02:00</time>
      </trkpt>
      <trkpt lat="43.37807" lon="5.9155">
        <ele>302</ele>
        <time>2024-04-05T11:37:38+02:00</time>
      </trkpt>
      <trkpt lat="43.37803" lon="5.91531">
        <ele>304</ele>
        <time>2024-04-05T11:37:58+02:00</time>
      </trkpt>
      <trkpt lat="43.37792" lon="5.91505">
        <ele>306</ele>
        <time>2024-04-05T11:38:16+02:00</time>
      </trkpt>
      <trkpt lat="43.3779" lon="5.91504">
        <ele>306</ele>
        <time>2024-04-05T11:38:21+02:00</time>
      </trkpt>
      <trkpt lat="43.37781" lon="5.91484">
        <ele>306</ele>
        <time>2024-04-05T11:38:39+02:00</time>
      </trkpt>
      <trkpt lat="43.37781" lon="5.91482">
        <ele>307</ele>
        <time>2024-04-05T11:38:58+02:00</time>
      </trkpt>
      <trkpt lat="43.37776" lon="5.91473">
        <ele>306</ele>
        <time>2024-04-05T11:39:15+02:00</time>
      </trkpt>
      <trkpt lat="43.37771" lon="5.91472">
        <ele>306</ele>
        <time>2024-04-05T11:39:21+02:00</time>
      </trkpt>
      <trkpt lat="43.37759" lon="5.91459">
        <ele>306</ele>
        <time>2024-04-05T11:39:39+02:00</time>
      </trkpt>
      <trkpt lat="43.37749" lon="5.91444">
        <ele>306</ele>
        <time>2024-04-05T11:39:56+02:00</time>
      </trkpt>
      <trkpt lat="43.37749" lon="5.91446">
        <ele>306</ele>
        <time>2024-04-05T11:40:16+02:00</time>
      </trkpt>
      <trkpt lat="43.37749" lon="5.91444">
        <ele>306</ele>
        <time>2024-04-05T11:40:37+02:00</time>
      </trkpt>
      <trkpt lat="43.3775" lon="5.91444">
        <ele>306</ele>
        <time>2024-04-05T11:40:38+02:00</time>
      </trkpt>
      <trkpt lat="43.37748" lon="5.91439">
        <ele>308</ele>
        <time>2024-04-05T11:40:57+02:00</time>
      </trkpt>
      <trkpt lat="43.37742" lon="5.91434">
        <ele>308</ele>
        <time>2024-04-05T11:41:16+02:00</time>
      </trkpt>
      <trkpt lat="43.37737" lon="5.91437">
        <ele>306</ele>
        <time>2024-04-05T11:41:35+02:00</time>
      </trkpt>
      <trkpt lat="43.37736" lon="5.91437">
        <ele>306</ele>
        <time>2024-04-05T11:41:39+02:00</time>
      </trkpt>
      <trkpt lat="43.37723" lon="5.9144">
        <ele>302</ele>
        <time>2024-04-05T11:41:57+02:00</time>
      </trkpt>
      <trkpt lat="43.37707" lon="5.91443">
        <ele>301</ele>
        <time>2024-04-05T11:42:15+02:00</time>
      </trkpt>
      <trkpt lat="43.37692" lon="5.91446">
        <ele>300</ele>
        <time>2024-04-05T11:42:32+02:00</time>
      </trkpt>
      <trkpt lat="43.37677" lon="5.91452">
        <ele>302</ele>
        <time>2024-04-05T11:42:52+02:00</time>
      </trkpt>
      <trkpt lat="43.37667" lon="5.91458">
        <ele>302</ele>
        <time>2024-04-05T11:43:09+02:00</time>
      </trkpt>
      <trkpt lat="43.37659" lon="5.91461">
        <ele>302</ele>
        <time>2024-04-05T11:43:29+02:00</time>
      </trkpt>
      <trkpt lat="43.37653" lon="5.91463">
        <ele>302</ele>
        <time>2024-04-05T11:43:50+02:00</time>
      </trkpt>
      <trkpt lat="43.37649" lon="5.91468">
        <ele>301</ele>
        <time>2024-04-05T11:44:16+02:00</time>
      </trkpt>
      <trkpt lat="43.37652" lon="5.91464">
        <ele>302</ele>
        <time>2024-04-05T11:44:40+02:00</time>
      </trkpt>
      <trkpt lat="43.37656" lon="5.91468">
        <ele>302</ele>
        <time>2024-04-05T11:45:02+02:00</time>
      </trkpt>
      <trkpt lat="43.37657" lon="5.9147">
        <ele>301</ele>
        <time>2024-04-05T11:45:21+02:00</time>
      </trkpt>
      <trkpt lat="43.37653" lon="5.91474">
        <ele>302</ele>
        <time>2024-04-05T11:45:38+02:00</time>
      </trkpt>
      <trkpt lat="43.37654" lon="5.91468">
        <ele>301</ele>
        <time>2024-04-05T11:45:59+02:00</time>
      </trkpt>
      <trkpt lat="43.37655" lon="5.91468">
        <ele>302</ele>
        <time>2024-04-05T11:46:25+02:00</time>
      </trkpt>
      <trkpt lat="43.37655" lon="5.91468">
        <ele>301</ele>
        <time>2024-04-05T11:46:49+02:00</time>
      </trkpt>
      <trkpt lat="43.37655" lon="5.91469">
        <ele>302</ele>
        <time>2024-04-05T11:47:06+02:00</time>
      </trkpt>
      <trkpt lat="43.3765" lon="5.9147">
        <ele>301</ele>
        <time>2024-04-05T11:47:29+02:00</time>
      </trkpt>
      <trkpt lat="43.37644" lon="5.91462">
        <ele>302</ele>
        <time>2024-04-05T11:47:53+02:00</time>
      </trkpt>
      <trkpt lat="43.37645" lon="5.91466">
        <ele>302</ele>
        <time>2024-04-05T11:48:12+02:00</time>
      </trkpt>
      <trkpt lat="43.37636" lon="5.91474">
        <ele>301</ele>
        <time>2024-04-05T11:48:28+02:00</time>
      </trkpt>
      <trkpt lat="43.37632" lon="5.91483">
        <ele>302</ele>
        <time>2024-04-05T11:48:44+02:00</time>
      </trkpt>
      <trkpt lat="43.37635" lon="5.91488">
        <ele>304</ele>
        <time>2024-04-05T11:49:07+02:00</time>
      </trkpt>
      <trkpt lat="43.37624" lon="5.91485">
        <ele>302</ele>
        <time>2024-04-05T11:49:24+02:00</time>
      </trkpt>
      <trkpt lat="43.37618" lon="5.91485">
        <ele>302</ele>
        <time>2024-04-05T11:49:42+02:00</time>
      </trkpt>
      <trkpt lat="43.37618" lon="5.9148">
        <ele>302</ele>
        <time>2024-04-05T11:50:01+02:00</time>
      </trkpt>
      <trkpt lat="43.37616" lon="5.91483">
        <ele>302</ele>
        <time>2024-04-05T11:50:05+02:00</time>
      </trkpt>
      <trkpt lat="43.37611" lon="5.91485">
        <ele>302</ele>
        <time>2024-04-05T11:50:12+02:00</time>
      </trkpt>
      <trkpt lat="43.37608" lon="5.91487">
        <ele>302</ele>
        <time>2024-04-05T11:50:28+02:00</time>
      </trkpt>
      <trkpt lat="43.37606" lon="5.91488">
        <ele>302</ele>
        <time>2024-04-05T11:50:34+02:00</time>
      </trkpt>
      <trkpt lat="43.37604" lon="5.91491">
        <ele>302</ele>
        <time>2024-04-05T11:50:51+02:00</time>
      </trkpt>
      <trkpt lat="43.37612" lon="5.915">
        <ele>301</ele>
        <time>2024-04-05T11:51:12+02:00</time>
      </trkpt>
      <trkpt lat="43.37609" lon="5.91489">
        <ele>302</ele>
        <time>2024-04-05T11:51:30+02:00</time>
      </trkpt>
      <trkpt lat="43.37609" lon="5.91483">
        <ele>302</ele>
        <time>2024-04-05T11:51:45+02:00</time>
      </trkpt>
      <trkpt lat="43.37601" lon="5.91488">
        <ele>302</ele>
        <time>2024-04-05T11:52:03+02:00</time>
      </trkpt>
      <trkpt lat="43.37605" lon="5.91493">
        <ele>301</ele>
        <time>2024-04-05T11:52:21+02:00</time>
      </trkpt>
      <trkpt lat="43.37602" lon="5.91489">
        <ele>302</ele>
        <time>2024-04-05T11:52:40+02:00</time>
      </trkpt>
      <trkpt lat="43.37598" lon="5.91492">
        <ele>302</ele>
        <time>2024-04-05T11:53:02+02:00</time>
      </trkpt>
      <trkpt lat="43.37595" lon="5.91496">
        <ele>301</ele>
        <time>2024-04-05T11:53:17+02:00</time>
      </trkpt>
      <trkpt lat="43.37596" lon="5.91503">
        <ele>301</ele>
        <time>2024-04-05T11:53:40+02:00</time>
      </trkpt>
      <trkpt lat="43.37592" lon="5.91505">
        <ele>302</ele>
        <time>2024-04-05T11:54:06+02:00</time>
      </trkpt>
      <trkpt lat="43.37585" lon="5.91514">
        <ele>302</ele>
        <time>2024-04-05T11:54:27+02:00</time>
      </trkpt>
      <trkpt lat="43.37576" lon="5.91511">
        <ele>301</ele>
        <time>2024-04-05T11:54:46+02:00</time>
      </trkpt>
      <trkpt lat="43.37568" lon="5.91516">
        <ele>302</ele>
        <time>2024-04-05T11:55:05+02:00</time>
      </trkpt>
      <trkpt lat="43.37562" lon="5.9151">
        <ele>301</ele>
        <time>2024-04-05T11:55:30+02:00</time>
      </trkpt>
      <trkpt lat="43.37551" lon="5.91503">
        <ele>301</ele>
        <time>2024-04-05T11:55:48+02:00</time>
      </trkpt>
      <trkpt lat="43.37543" lon="5.91501">
        <ele>301</ele>
        <time>2024-04-05T11:56:08+02:00</time>
      </trkpt>
      <trkpt lat="43.37541" lon="5.91502">
        <ele>301</ele>
        <time>2024-04-05T11:56:23+02:00</time>
      </trkpt>
      <trkpt lat="43.37538" lon="5.91503">
        <ele>301</ele>
        <time>2024-04-05T11:56:42+02:00</time>
      </trkpt>
      <trkpt lat="43.37532" lon="5.91501">
        <ele>300</ele>
        <time>2024-04-05T11:56:58+02:00</time>
      </trkpt>
      <trkpt lat="43.37527" lon="5.91497">
        <ele>301</ele>
        <time>2024-04-05T11:57:04+02:00</time>
      </trkpt>
      <trkpt lat="43.37517" lon="5.91495">
        <ele>302</ele>
        <time>2024-04-05T11:57:21+02:00</time>
      </trkpt>
      <trkpt lat="43.37513" lon="5.91489">
        <ele>303</ele>
        <time>2024-04-05T11:57:40+02:00</time>
      </trkpt>
      <trkpt lat="43.37512" lon="5.91481">
        <ele>305</ele>
        <time>2024-04-05T11:57:53+02:00</time>
      </trkpt>
      <trkpt lat="43.37505" lon="5.91476">
        <ele>305</ele>
        <time>2024-04-05T11:58:11+02:00</time>
      </trkpt>
      <trkpt lat="43.37504" lon="5.91473">
        <ele>305</ele>
        <time>2024-04-05T11:58:30+02:00</time>
      </trkpt>
      <trkpt lat="43.37503" lon="5.91474">
        <ele>304</ele>
        <time>2024-04-05T11:58:48+02:00</time>
      </trkpt>
      <trkpt lat="43.37501" lon="5.91476">
        <ele>304</ele>
        <time>2024-04-05T11:59:08+02:00</time>
      </trkpt>
      <trkpt lat="43.37499" lon="5.91474">
        <ele>304</ele>
        <time>2024-04-05T11:59:28+02:00</time>
      </trkpt>
      <trkpt lat="43.37501" lon="5.9147">
        <ele>305</ele>
        <time>2024-04-05T11:59:33+02:00</time>
      </trkpt>
      <trkpt lat="43.37494" lon="5.91466">
        <ele>307</ele>
        <time>2024-04-05T11:59:47+02:00</time>
      </trkpt>
      <trkpt lat="43.37494" lon="5.91466">
        <ele>307</ele>
        <time>2024-04-05T11:59:48+02:00</time>
      </trkpt>
      <trkpt lat="43.37494" lon="5.91465">
        <ele>307</ele>
        <time>2024-04-05T11:59:49+02:00</time>
      </trkpt>
      <trkpt lat="43.37494" lon="5.91465">
        <ele>307</ele>
        <time>2024-04-05T11:59:51+02:00</time>
      </trkpt>
      <trkpt lat="43.37482" lon="5.91462">
        <ele>307</ele>
        <time>2024-04-05T12:00:11+02:00</time>
      </trkpt>
      <trkpt lat="43.3747" lon="5.91462">
        <ele>306</ele>
        <time>2024-04-05T12:00:28+02:00</time>
      </trkpt>
      <trkpt lat="43.37468" lon="5.91459">
        <ele>307</ele>
        <time>2024-04-05T12:00:33+02:00</time>
      </trkpt>
      <trkpt lat="43.3746" lon="5.91469">
        <ele>304</ele>
        <time>2024-04-05T12:00:52+02:00</time>
      </trkpt>
      <trkpt lat="43.37457" lon="5.91472">
        <ele>303</ele>
        <time>2024-04-05T12:01:14+02:00</time>
      </trkpt>
      <trkpt lat="43.37448" lon="5.91479">
        <ele>304</ele>
        <time>2024-04-05T12:01:33+02:00</time>
      </trkpt>
      <trkpt lat="43.37447" lon="5.9148">
        <ele>304</ele>
        <time>2024-04-05T12:01:35+02:00</time>
      </trkpt>
      <trkpt lat="43.37447" lon="5.91488">
        <ele>303</ele>
        <time>2024-04-05T12:01:51+02:00</time>
      </trkpt>
      <trkpt lat="43.37443" lon="5.91491">
        <ele>303</ele>
        <time>2024-04-05T12:02:05+02:00</time>
      </trkpt>
      <trkpt lat="43.37437" lon="5.91508">
        <ele>304</ele>
        <time>2024-04-05T12:02:24+02:00</time>
      </trkpt>
      <trkpt lat="43.37432" lon="5.91524">
        <ele>305</ele>
        <time>2024-04-05T12:02:39+02:00</time>
      </trkpt>
      <trkpt lat="43.3743" lon="5.91535">
        <ele>305</ele>
        <time>2024-04-05T12:02:55+02:00</time>
      </trkpt>
      <trkpt lat="43.37428" lon="5.91541">
        <ele>305</ele>
        <time>2024-04-05T12:03:06+02:00</time>
      </trkpt>
      <trkpt lat="43.37425" lon="5.91551">
        <ele>305</ele>
        <time>2024-04-05T12:03:20+02:00</time>
      </trkpt>
      <trkpt lat="43.37421" lon="5.91562">
        <ele>304</ele>
        <time>2024-04-05T12:03:36+02:00</time>
      </trkpt>
      <trkpt lat="43.37417" lon="5.91572">
        <ele>303</ele>
        <time>2024-04-05T12:03:52+02:00</time>
      </trkpt>
      <trkpt lat="43.37412" lon="5.9158">
        <ele>305</ele>
        <time>2024-04-05T12:04:15+02:00</time>
      </trkpt>
      <trkpt lat="43.37407" lon="5.91589">
        <ele>306</ele>
        <time>2024-04-05T12:04:33+02:00</time>
      </trkpt>
      <trkpt lat="43.37403" lon="5.91604">
        <ele>307</ele>
        <time>2024-04-05T12:04:52+02:00</time>
      </trkpt>
      <trkpt lat="43.37399" lon="5.91615">
        <ele>306</ele>
        <time>2024-04-05T12:05:09+02:00</time>
      </trkpt>
      <trkpt lat="43.37393" lon="5.91628">
        <ele>303</ele>
        <time>2024-04-05T12:05:25+02:00</time>
      </trkpt>
      <trkpt lat="43.37387" lon="5.91648">
        <ele>302</ele>
        <time>2024-04-05T12:05:43+02:00</time>
      </trkpt>
      <trkpt lat="43.37378" lon="5.91667">
        <ele>307</ele>
        <time>2024-04-05T12:06:02+02:00</time>
      </trkpt>
      <trkpt lat="43.37374" lon="5.91685">
        <ele>307</ele>
        <time>2024-04-05T12:06:19+02:00</time>
      </trkpt>
      <trkpt lat="43.3737" lon="5.91705">
        <ele>306</ele>
        <time>2024-04-05T12:06:37+02:00</time>
      </trkpt>
      <trkpt lat="43.37372" lon="5.91716">
        <ele>306</ele>
        <time>2024-04-05T12:06:55+02:00</time>
      </trkpt>
      <trkpt lat="43.3737" lon="5.91727">
        <ele>306</ele>
        <time>2024-04-05T12:07:12+02:00</time>
      </trkpt>
      <trkpt lat="43.37368" lon="5.91741">
        <ele>305</ele>
        <time>2024-04-05T12:07:30+02:00</time>
      </trkpt>
      <trkpt lat="43.37363" lon="5.91751">
        <ele>303</ele>
        <time>2024-04-05T12:07:47+02:00</time>
      </trkpt>
      <trkpt lat="43.37357" lon="5.91774">
        <ele>305</ele>
        <time>2024-04-05T12:08:05+02:00</time>
      </trkpt>
      <trkpt lat="43.37353" lon="5.91794">
        <ele>307</ele>
        <time>2024-04-05T12:08:21+02:00</time>
      </trkpt>
      <trkpt lat="43.3735" lon="5.91811">
        <ele>308</ele>
        <time>2024-04-05T12:08:37+02:00</time>
      </trkpt>
      <trkpt lat="43.37338" lon="5.91832">
        <ele>308</ele>
        <time>2024-04-05T12:08:56+02:00</time>
      </trkpt>
      <trkpt lat="43.37339" lon="5.91846">
        <ele>309</ele>
        <time>2024-04-05T12:09:11+02:00</time>
      </trkpt>
      <trkpt lat="43.37337" lon="5.91851">
        <ele>309</ele>
        <time>2024-04-05T12:09:26+02:00</time>
      </trkpt>
      <trkpt lat="43.37329" lon="5.91858">
        <ele>309</ele>
        <time>2024-04-05T12:09:45+02:00</time>
      </trkpt>
      <trkpt lat="43.37317" lon="5.91874">
        <ele>311</ele>
        <time>2024-04-05T12:10:04+02:00</time>
      </trkpt>
      <trkpt lat="43.37304" lon="5.91884">
        <ele>310</ele>
        <time>2024-04-05T12:10:21+02:00</time>
      </trkpt>
      <trkpt lat="43.37293" lon="5.91891">
        <ele>310</ele>
        <time>2024-04-05T12:10:39+02:00</time>
      </trkpt>
      <trkpt lat="43.37287" lon="5.91893">
        <ele>310</ele>
        <time>2024-04-05T12:10:55+02:00</time>
      </trkpt>
      <trkpt lat="43.37278" lon="5.91896">
        <ele>310</ele>
        <time>2024-04-05T12:11:11+02:00</time>
      </trkpt>
      <trkpt lat="43.3727" lon="5.91898">
        <ele>311</ele>
        <time>2024-04-05T12:11:32+02:00</time>
      </trkpt>
      <trkpt lat="43.37264" lon="5.91901">
        <ele>311</ele>
        <time>2024-04-05T12:11:51+02:00</time>
      </trkpt>
      <trkpt lat="43.37264" lon="5.919">
        <ele>311</ele>
        <time>2024-04-05T12:11:53+02:00</time>
      </trkpt>
      <trkpt lat="43.37262" lon="5.91898">
        <ele>311</ele>
        <time>2024-04-05T12:12:04+02:00</time>
      </trkpt>
      <trkpt lat="43.37262" lon="5.91898">
        <ele>311</ele>
        <time>2024-04-05T12:12:05+02:00</time>
      </trkpt>
      <trkpt lat="43.37263" lon="5.91898">
        <ele>311</ele>
        <time>2024-04-05T12:12:06+02:00</time>
      </trkpt>
      <trkpt lat="43.37267" lon="5.9191">
        <ele>310</ele>
        <time>2024-04-05T12:12:24+02:00</time>
      </trkpt>
      <trkpt lat="43.3726" lon="5.91915">
        <ele>310</ele>
        <time>2024-04-05T12:12:50+02:00</time>
      </trkpt>
      <trkpt lat="43.37255" lon="5.91912">
        <ele>310</ele>
        <time>2024-04-05T12:13:06+02:00</time>
      </trkpt>
      <trkpt lat="43.37248" lon="5.9191">
        <ele>311</ele>
        <time>2024-04-05T12:13:22+02:00</time>
      </trkpt>
      <trkpt lat="43.37244" lon="5.91909">
        <ele>311</ele>
        <time>2024-04-05T12:13:40+02:00</time>
      </trkpt>
      <trkpt lat="43.37237" lon="5.91906">
        <ele>312</ele>
        <time>2024-04-05T12:13:56+02:00</time>
      </trkpt>
      <trkpt lat="43.37235" lon="5.91905">
        <ele>312</ele>
        <time>2024-04-05T12:13:59+02:00</time>
      </trkpt>
      <trkpt lat="43.37226" lon="5.91906">
        <ele>312</ele>
        <time>2024-04-05T12:14:14+02:00</time>
      </trkpt>
      <trkpt lat="43.37216" lon="5.91909">
        <ele>312</ele>
        <time>2024-04-05T12:14:31+02:00</time>
      </trkpt>
      <trkpt lat="43.37209" lon="5.91906">
        <ele>313</ele>
        <time>2024-04-05T12:14:47+02:00</time>
      </trkpt>
      <trkpt lat="43.372" lon="5.91907">
        <ele>313</ele>
        <time>2024-04-05T12:15:09+02:00</time>
      </trkpt>
      <trkpt lat="43.37203" lon="5.91911">
        <ele>312</ele>
        <time>2024-04-05T12:15:29+02:00</time>
      </trkpt>
      <trkpt lat="43.37206" lon="5.9191">
        <ele>312</ele>
        <time>2024-04-05T12:15:51+02:00</time>
      </trkpt>
      <trkpt lat="43.37198" lon="5.91911">
        <ele>312</ele>
        <time>2024-04-05T12:16:12+02:00</time>
      </trkpt>
      <trkpt lat="43.37196" lon="5.91918">
        <ele>310</ele>
        <time>2024-04-05T12:16:36+02:00</time>
      </trkpt>
      <trkpt lat="43.37195" lon="5.91918">
        <ele>310</ele>
        <time>2024-04-05T12:16:57+02:00</time>
      </trkpt>
      <trkpt lat="43.37198" lon="5.91918">
        <ele>310</ele>
        <time>2024-04-05T12:17:16+02:00</time>
      </trkpt>
      <trkpt lat="43.372" lon="5.91917">
        <ele>310</ele>
        <time>2024-04-05T12:17:40+02:00</time>
      </trkpt>
      <trkpt lat="43.37201" lon="5.91918">
        <ele>310</ele>
        <time>2024-04-05T12:18:02+02:00</time>
      </trkpt>
      <trkpt lat="43.37202" lon="5.91917">
        <ele>310</ele>
        <time>2024-04-05T12:18:33+02:00</time>
      </trkpt>
      <trkpt lat="43.37204" lon="5.91909">
        <ele>313</ele>
        <time>2024-04-05T12:19:07+02:00</time>
      </trkpt>
      <trkpt lat="43.37203" lon="5.91913">
        <ele>311</ele>
        <time>2024-04-05T12:19:37+02:00</time>
      </trkpt>
      <trkpt lat="43.37205" lon="5.91916">
        <ele>310</ele>
        <time>2024-04-05T12:19:55+02:00</time>
      </trkpt>
      <trkpt lat="43.37202" lon="5.91916">
        <ele>310</ele>
        <time>2024-04-05T12:20:15+02:00</time>
      </trkpt>
      <trkpt lat="43.37196" lon="5.9192">
        <ele>310</ele>
        <time>2024-04-05T12:20:33+02:00</time>
      </trkpt>
      <trkpt lat="43.37192" lon="5.91922">
        <ele>310</ele>
        <time>2024-04-05T12:20:50+02:00</time>
      </trkpt>
      <trkpt lat="43.37188" lon="5.9192">
        <ele>311</ele>
        <time>2024-04-05T12:21:10+02:00</time>
      </trkpt>
      <trkpt lat="43.37184" lon="5.91921">
        <ele>311</ele>
        <time>2024-04-05T12:21:26+02:00</time>
      </trkpt>
      <trkpt lat="43.37193" lon="5.9192">
        <ele>310</ele>
        <time>2024-04-05T12:21:55+02:00</time>
      </trkpt>
      <trkpt lat="43.37199" lon="5.91925">
        <ele>311</ele>
        <time>2024-04-05T12:22:28+02:00</time>
      </trkpt>
      <trkpt lat="43.37192" lon="5.91928">
        <ele>311</ele>
        <time>2024-04-05T12:22:51+02:00</time>
      </trkpt>
      <trkpt lat="43.37188" lon="5.91921">
        <ele>311</ele>
        <time>2024-04-05T12:23:16+02:00</time>
      </trkpt>
      <trkpt lat="43.37185" lon="5.91911">
        <ele>313</ele>
        <time>2024-04-05T12:23:51+02:00</time>
      </trkpt>
      <trkpt lat="43.37186" lon="5.91918">
        <ele>311</ele>
        <time>2024-04-05T12:24:29+02:00</time>
      </trkpt>
      <trkpt lat="43.37186" lon="5.91914">
        <ele>312</ele>
        <time>2024-04-05T12:25:01+02:00</time>
      </trkpt>
      <trkpt lat="43.37185" lon="5.9192">
        <ele>311</ele>
        <time>2024-04-05T12:25:31+02:00</time>
      </trkpt>
      <trkpt lat="43.37183" lon="5.91923">
        <ele>311</ele>
        <time>2024-04-05T12:25:53+02:00</time>
      </trkpt>
      <trkpt lat="43.3718" lon="5.91925">
        <ele>311</ele>
        <time>2024-04-05T12:26:12+02:00</time>
      </trkpt>
      <trkpt lat="43.37177" lon="5.91925">
        <ele>311</ele>
        <time>2024-04-05T12:26:39+02:00</time>
      </trkpt>
      <trkpt lat="43.37173" lon="5.91929">
        <ele>311</ele>
        <time>2024-04-05T12:26:56+02:00</time>
      </trkpt>
      <trkpt lat="43.37163" lon="5.91932">
        <ele>311</ele>
        <time>2024-04-05T12:27:17+02:00</time>
      </trkpt>
      <trkpt lat="43.37155" lon="5.91941">
        <ele>311</ele>
        <time>2024-04-05T12:27:35+02:00</time>
      </trkpt>
      <trkpt lat="43.37146" lon="5.9195">
        <ele>311</ele>
        <time>2024-04-05T12:27:52+02:00</time>
      </trkpt>
      <trkpt lat="43.37134" lon="5.91954">
        <ele>312</ele>
        <time>2024-04-05T12:28:09+02:00</time>
      </trkpt>
      <trkpt lat="43.37124" lon="5.91958">
        <ele>312</ele>
        <time>2024-04-05T12:28:26+02:00</time>
      </trkpt>
      <trkpt lat="43.37113" lon="5.91972">
        <ele>310</ele>
        <time>2024-04-05T12:28:43+02:00</time>
      </trkpt>
      <trkpt lat="43.37098" lon="5.91983">
        <ele>313</ele>
        <time>2024-04-05T12:29:03+02:00</time>
      </trkpt>
      <trkpt lat="43.37091" lon="5.91984">
        <ele>314</ele>
        <time>2024-04-05T12:29:17+02:00</time>
      </trkpt>
      <trkpt lat="43.37081" lon="5.91994">
        <ele>313</ele>
        <time>2024-04-05T12:29:37+02:00</time>
      </trkpt>
      <trkpt lat="43.37075" lon="5.91994">
        <ele>316</ele>
        <time>2024-04-05T12:29:57+02:00</time>
      </trkpt>
      <trkpt lat="43.3707" lon="5.91993">
        <ele>319</ele>
        <time>2024-04-05T12:30:19+02:00</time>
      </trkpt>
      <trkpt lat="43.37068" lon="5.91992">
        <ele>321</ele>
        <time>2024-04-05T12:30:39+02:00</time>
      </trkpt>
      <trkpt lat="43.37062" lon="5.91989">
        <ele>326</ele>
        <time>2024-04-05T12:31:00+02:00</time>
      </trkpt>
      <trkpt lat="43.37055" lon="5.91988">
        <ele>330</ele>
        <time>2024-04-05T12:31:22+02:00</time>
      </trkpt>
      <trkpt lat="43.37043" lon="5.91995">
        <ele>332</ele>
        <time>2024-04-05T12:31:38+02:00</time>
      </trkpt>
      <trkpt lat="43.3704" lon="5.92">
        <ele>332</ele>
        <time>2024-04-05T12:31:52+02:00</time>
      </trkpt>
      <trkpt lat="43.37042" lon="5.91999">
        <ele>332</ele>
        <time>2024-04-05T12:32:08+02:00</time>
      </trkpt>
      <trkpt lat="43.37026" lon="5.92017">
        <ele>331</ele>
        <time>2024-04-05T12:32:28+02:00</time>
      </trkpt>
      <trkpt lat="43.3702" lon="5.92026">
        <ele>330</ele>
        <time>2024-04-05T12:32:43+02:00</time>
      </trkpt>
      <trkpt lat="43.37003" lon="5.9204">
        <ele>332</ele>
        <time>2024-04-05T12:33:01+02:00</time>
      </trkpt>
      <trkpt lat="43.36998" lon="5.9205">
        <ele>330</ele>
        <time>2024-04-05T12:33:15+02:00</time>
      </trkpt>
      <trkpt lat="43.36978" lon="5.92063">
        <ele>335</ele>
        <time>2024-04-05T12:33:34+02:00</time>
      </trkpt>
      <trkpt lat="43.36971" lon="5.92074">
        <ele>334</ele>
        <time>2024-04-05T12:33:50+02:00</time>
      </trkpt>
      <trkpt lat="43.36953" lon="5.92092">
        <ele>335</ele>
        <time>2024-04-05T12:34:10+02:00</time>
      </trkpt>
      <trkpt lat="43.36943" lon="5.921">
        <ele>337</ele>
        <time>2024-04-05T12:34:21+02:00</time>
      </trkpt>
      <trkpt lat="43.36924" lon="5.92117">
        <ele>340</ele>
        <time>2024-04-05T12:34:40+02:00</time>
      </trkpt>
      <trkpt lat="43.36919" lon="5.92127">
        <ele>339</ele>
        <time>2024-04-05T12:34:54+02:00</time>
      </trkpt>
      <trkpt lat="43.36913" lon="5.92131">
        <ele>341</ele>
        <time>2024-04-05T12:35:11+02:00</time>
      </trkpt>
      <trkpt lat="43.36907" lon="5.92125">
        <ele>346</ele>
        <time>2024-04-05T12:35:25+02:00</time>
      </trkpt>
      <trkpt lat="43.36916" lon="5.92111">
        <ele>346</ele>
        <time>2024-04-05T12:35:43+02:00</time>
      </trkpt>
      <trkpt lat="43.36924" lon="5.92094">
        <ele>348</ele>
        <time>2024-04-05T12:36:00+02:00</time>
      </trkpt>
      <trkpt lat="43.36936" lon="5.92076">
        <ele>349</ele>
        <time>2024-04-05T12:36:18+02:00</time>
      </trkpt>
      <trkpt lat="43.36948" lon="5.92059">
        <ele>350</ele>
        <time>2024-04-05T12:36:34+02:00</time>
      </trkpt>
      <trkpt lat="43.3695" lon="5.92055">
        <ele>350</ele>
        <time>2024-04-05T12:36:37+02:00</time>
      </trkpt>
      <trkpt lat="43.36962" lon="5.92039">
        <ele>353</ele>
        <time>2024-04-05T12:36:53+02:00</time>
      </trkpt>
      <trkpt lat="43.36975" lon="5.9202">
        <ele>355</ele>
        <time>2024-04-05T12:37:10+02:00</time>
      </trkpt>
      <trkpt lat="43.36992" lon="5.92001">
        <ele>356</ele>
        <time>2024-04-05T12:37:29+02:00</time>
      </trkpt>
      <trkpt lat="43.37002" lon="5.91983">
        <ele>358</ele>
        <time>2024-04-05T12:37:45+02:00</time>
      </trkpt>
      <trkpt lat="43.3701" lon="5.91966">
        <ele>360</ele>
        <time>2024-04-05T12:38:03+02:00</time>
      </trkpt>
      <trkpt lat="43.37012" lon="5.9196">
        <ele>361</ele>
        <time>2024-04-05T12:38:17+02:00</time>
      </trkpt>
      <trkpt lat="43.37019" lon="5.91942">
        <ele>363</ele>
        <time>2024-04-05T12:38:35+02:00</time>
      </trkpt>
      <trkpt lat="43.37025" lon="5.91929">
        <ele>363</ele>
        <time>2024-04-05T12:38:52+02:00</time>
      </trkpt>
      <trkpt lat="43.37027" lon="5.91933">
        <ele>362</ele>
        <time>2024-04-05T12:39:04+02:00</time>
      </trkpt>
      <trkpt lat="43.37028" lon="5.9194">
        <ele>360</ele>
        <time>2024-04-05T12:39:20+02:00</time>
      </trkpt>
      <trkpt lat="43.37034" lon="5.91943">
        <ele>357</ele>
        <time>2024-04-05T12:39:36+02:00</time>
      </trkpt>
      <trkpt lat="43.37037" lon="5.91946">
        <ele>355</ele>
        <time>2024-04-05T12:39:52+02:00</time>
      </trkpt>
      <trkpt lat="43.37039" lon="5.91952">
        <ele>352</ele>
        <time>2024-04-05T12:40:11+02:00</time>
      </trkpt>
      <trkpt lat="43.37045" lon="5.91955">
        <ele>348</ele>
        <time>2024-04-05T12:40:29+02:00</time>
      </trkpt>
      <trkpt lat="43.37044" lon="5.91958">
        <ele>348</ele>
        <time>2024-04-05T12:40:43+02:00</time>
      </trkpt>
      <trkpt lat="43.37043" lon="5.91953">
        <ele>350</ele>
        <time>2024-04-05T12:40:59+02:00</time>
      </trkpt>
      <trkpt lat="43.37045" lon="5.91951">
        <ele>350</ele>
        <time>2024-04-05T12:41:18+02:00</time>
      </trkpt>
      <trkpt lat="43.37046" lon="5.91952">
        <ele>349</ele>
        <time>2024-04-05T12:41:31+02:00</time>
      </trkpt>
      <trkpt lat="43.37047" lon="5.91952">
        <ele>348</ele>
        <time>2024-04-05T12:41:54+02:00</time>
      </trkpt>
      <trkpt lat="43.37047" lon="5.91952">
        <ele>348</ele>
        <time>2024-04-05T12:42:16+02:00</time>
      </trkpt>
      <trkpt lat="43.37048" lon="5.9195">
        <ele>349</ele>
        <time>2024-04-05T12:42:35+02:00</time>
      </trkpt>
      <trkpt lat="43.37045" lon="5.91946">
        <ele>351</ele>
        <time>2024-04-05T12:42:49+02:00</time>
      </trkpt>
      <trkpt lat="43.37045" lon="5.91949">
        <ele>350</ele>
        <time>2024-04-05T12:43:06+02:00</time>
      </trkpt>
      <trkpt lat="43.37044" lon="5.91951">
        <ele>350</ele>
        <time>2024-04-05T12:43:26+02:00</time>
      </trkpt>
      <trkpt lat="43.37042" lon="5.9195">
        <ele>351</ele>
        <time>2024-04-05T12:43:46+02:00</time>
      </trkpt>
      <trkpt lat="43.37039" lon="5.91948">
        <ele>353</ele>
        <time>2024-04-05T12:44:06+02:00</time>
      </trkpt>
      <trkpt lat="43.37038" lon="5.91945">
        <ele>354</ele>
        <time>2024-04-05T12:44:21+02:00</time>
      </trkpt>
      <trkpt lat="43.37031" lon="5.91941">
        <ele>358</ele>
        <time>2024-04-05T12:44:34+02:00</time>
      </trkpt>
      <trkpt lat="43.37028" lon="5.91932">
        <ele>361</ele>
        <time>2024-04-05T12:44:48+02:00</time>
      </trkpt>
      <trkpt lat="43.37027" lon="5.91914">
        <ele>365</ele>
        <time>2024-04-05T12:45:02+02:00</time>
      </trkpt>
      <trkpt lat="43.37027" lon="5.91891">
        <ele>367</ele>
        <time>2024-04-05T12:45:21+02:00</time>
      </trkpt>
      <trkpt lat="43.37033" lon="5.91883">
        <ele>366</ele>
        <time>2024-04-05T12:45:35+02:00</time>
      </trkpt>
      <trkpt lat="43.37038" lon="5.91883">
        <ele>364</ele>
        <time>2024-04-05T12:45:57+02:00</time>
      </trkpt>
      <trkpt lat="43.37047" lon="5.91884">
        <ele>361</ele>
        <time>2024-04-05T12:46:13+02:00</time>
      </trkpt>
      <trkpt lat="43.37053" lon="5.91882">
        <ele>360</ele>
        <time>2024-04-05T12:46:33+02:00</time>
      </trkpt>
      <trkpt lat="43.37069" lon="5.91888">
        <ele>355</ele>
        <time>2024-04-05T12:46:52+02:00</time>
      </trkpt>
      <trkpt lat="43.3708" lon="5.91881">
        <ele>356</ele>
        <time>2024-04-05T12:47:07+02:00</time>
      </trkpt>
      <trkpt lat="43.37087" lon="5.91877">
        <ele>357</ele>
        <time>2024-04-05T12:47:25+02:00</time>
      </trkpt>
      <trkpt lat="43.37088" lon="5.9188">
        <ele>355</ele>
        <time>2024-04-05T12:47:41+02:00</time>
      </trkpt>
      <trkpt lat="43.37091" lon="5.91885">
        <ele>352</ele>
        <time>2024-04-05T12:47:58+02:00</time>
      </trkpt>
      <trkpt lat="43.37093" lon="5.9189">
        <ele>350</ele>
        <time>2024-04-05T12:48:14+02:00</time>
      </trkpt>
      <trkpt lat="43.37094" lon="5.91896">
        <ele>347</ele>
        <time>2024-04-05T12:48:30+02:00</time>
      </trkpt>
      <trkpt lat="43.37084" lon="5.91893">
        <ele>352</ele>
        <time>2024-04-05T12:48:48+02:00</time>
      </trkpt>
      <trkpt lat="43.37079" lon="5.919">
        <ele>350</ele>
        <time>2024-04-05T12:49:08+02:00</time>
      </trkpt>
      <trkpt lat="43.37079" lon="5.91905">
        <ele>349</ele>
        <time>2024-04-05T12:49:27+02:00</time>
      </trkpt>
      <trkpt lat="43.37076" lon="5.91913">
        <ele>347</ele>
        <time>2024-04-05T12:49:45+02:00</time>
      </trkpt>
      <trkpt lat="43.3707" lon="5.91913">
        <ele>349</ele>
        <time>2024-04-05T12:50:05+02:00</time>
      </trkpt>
      <trkpt lat="43.37068" lon="5.91913">
        <ele>349</ele>
        <time>2024-04-05T12:50:14+02:00</time>
      </trkpt>
      <trkpt lat="43.37072" lon="5.91924">
        <ele>345</ele>
        <time>2024-04-05T12:50:35+02:00</time>
      </trkpt>
      <trkpt lat="43.37069" lon="5.91932">
        <ele>344</ele>
        <time>2024-04-05T12:50:50+02:00</time>
      </trkpt>
      <trkpt lat="43.37062" lon="5.9194">
        <ele>345</ele>
        <time>2024-04-05T12:51:07+02:00</time>
      </trkpt>
      <trkpt lat="43.3706" lon="5.91962">
        <ele>339</ele>
        <time>2024-04-05T12:51:24+02:00</time>
      </trkpt>
      <trkpt lat="43.37055" lon="5.91962">
        <ele>342</ele>
        <time>2024-04-05T12:51:40+02:00</time>
      </trkpt>
      <trkpt lat="43.37053" lon="5.91953">
        <ele>346</ele>
        <time>2024-04-05T12:52:02+02:00</time>
      </trkpt>
      <trkpt lat="43.37054" lon="5.9196">
        <ele>343</ele>
        <time>2024-04-05T12:52:21+02:00</time>
      </trkpt>
      <trkpt lat="43.37057" lon="5.91964">
        <ele>340</ele>
        <time>2024-04-05T12:52:25+02:00</time>
      </trkpt>
      <trkpt lat="43.37062" lon="5.9196">
        <ele>338</ele>
        <time>2024-04-05T12:52:35+02:00</time>
      </trkpt>
      <trkpt lat="43.37063" lon="5.91946">
        <ele>343</ele>
        <time>2024-04-05T12:52:50+02:00</time>
      </trkpt>
      <trkpt lat="43.37068" lon="5.91938">
        <ele>343</ele>
        <time>2024-04-05T12:53:08+02:00</time>
      </trkpt>
      <trkpt lat="43.37069" lon="5.91934">
        <ele>343</ele>
        <time>2024-04-05T12:53:29+02:00</time>
      </trkpt>
      <trkpt lat="43.37066" lon="5.91932">
        <ele>345</ele>
        <time>2024-04-05T12:53:49+02:00</time>
      </trkpt>
      <trkpt lat="43.37069" lon="5.9192">
        <ele>347</ele>
        <time>2024-04-05T12:54:07+02:00</time>
      </trkpt>
      <trkpt lat="43.37069" lon="5.91915">
        <ele>349</ele>
        <time>2024-04-05T12:54:32+02:00</time>
      </trkpt>
      <trkpt lat="43.37068" lon="5.9191">
        <ele>350</ele>
        <time>2024-04-05T12:54:39+02:00</time>
      </trkpt>
      <trkpt lat="43.37072" lon="5.91903">
        <ele>351</ele>
        <time>2024-04-05T12:54:58+02:00</time>
      </trkpt>
      <trkpt lat="43.37081" lon="5.91897">
        <ele>351</ele>
        <time>2024-04-05T12:55:21+02:00</time>
      </trkpt>
      <trkpt lat="43.37082" lon="5.91891">
        <ele>353</ele>
        <time>2024-04-05T12:55:46+02:00</time>
      </trkpt>
      <trkpt lat="43.37086" lon="5.91896">
        <ele>350</ele>
        <time>2024-04-05T12:56:07+02:00</time>
      </trkpt>
      <trkpt lat="43.37095" lon="5.91893">
        <ele>348</ele>
        <time>2024-04-05T12:56:27+02:00</time>
      </trkpt>
      <trkpt lat="43.37091" lon="5.91884">
        <ele>353</ele>
        <time>2024-04-05T12:56:46+02:00</time>
      </trkpt>
      <trkpt lat="43.37089" lon="5.91881">
        <ele>355</ele>
        <time>2024-04-05T12:57:08+02:00</time>
      </trkpt>
      <trkpt lat="43.37088" lon="5.91876">
        <ele>357</ele>
        <time>2024-04-05T12:57:29+02:00</time>
      </trkpt>
      <trkpt lat="43.3708" lon="5.9188">
        <ele>357</ele>
        <time>2024-04-05T12:57:46+02:00</time>
      </trkpt>
      <trkpt lat="43.37066" lon="5.91882">
        <ele>358</ele>
        <time>2024-04-05T12:58:03+02:00</time>
      </trkpt>
      <trkpt lat="43.37056" lon="5.91879">
        <ele>360</ele>
        <time>2024-04-05T12:58:20+02:00</time>
      </trkpt>
      <trkpt lat="43.3705" lon="5.91879">
        <ele>361</ele>
        <time>2024-04-05T12:58:36+02:00</time>
      </trkpt>
      <trkpt lat="43.3704" lon="5.91877">
        <ele>365</ele>
        <time>2024-04-05T12:58:55+02:00</time>
      </trkpt>
      <trkpt lat="43.37032" lon="5.91881">
        <ele>366</ele>
        <time>2024-04-05T12:59:08+02:00</time>
      </trkpt>
      <trkpt lat="43.37023" lon="5.91892">
        <ele>368</ele>
        <time>2024-04-05T12:59:24+02:00</time>
      </trkpt>
      <trkpt lat="43.37026" lon="5.91896">
        <ele>367</ele>
        <time>2024-04-05T12:59:41+02:00</time>
      </trkpt>
      <trkpt lat="43.37028" lon="5.91902">
        <ele>366</ele>
        <time>2024-04-05T13:00:03+02:00</time>
      </trkpt>
      <trkpt lat="43.37027" lon="5.91904">
        <ele>366</ele>
        <time>2024-04-05T13:00:16+02:00</time>
      </trkpt>
      <trkpt lat="43.37027" lon="5.91907">
        <ele>365</ele>
        <time>2024-04-05T13:00:19+02:00</time>
      </trkpt>
      <trkpt lat="43.37027" lon="5.91908">
        <ele>365</ele>
        <time>2024-04-05T13:00:20+02:00</time>
      </trkpt>
      <trkpt lat="43.37027" lon="5.91922">
        <ele>363</ele>
        <time>2024-04-05T13:00:31+02:00</time>
      </trkpt>
      <trkpt lat="43.3702" lon="5.91941">
        <ele>363</ele>
        <time>2024-04-05T13:00:45+02:00</time>
      </trkpt>
      <trkpt lat="43.37017" lon="5.91948">
        <ele>362</ele>
        <time>2024-04-05T13:00:50+02:00</time>
      </trkpt>
      <trkpt lat="43.37013" lon="5.91964">
        <ele>360</ele>
        <time>2024-04-05T13:01:01+02:00</time>
      </trkpt>
      <trkpt lat="43.37003" lon="5.91978">
        <ele>360</ele>
        <time>2024-04-05T13:01:15+02:00</time>
      </trkpt>
      <trkpt lat="43.37001" lon="5.91981">
        <ele>359</ele>
        <time>2024-04-05T13:01:18+02:00</time>
      </trkpt>
      <trkpt lat="43.36986" lon="5.92003">
        <ele>358</ele>
        <time>2024-04-05T13:01:36+02:00</time>
      </trkpt>
      <trkpt lat="43.3697" lon="5.92024">
        <ele>356</ele>
        <time>2024-04-05T13:01:55+02:00</time>
      </trkpt>
      <trkpt lat="43.36955" lon="5.92045">
        <ele>353</ele>
        <time>2024-04-05T13:02:13+02:00</time>
      </trkpt>
      <trkpt lat="43.36939" lon="5.92066">
        <ele>351</ele>
        <time>2024-04-05T13:02:30+02:00</time>
      </trkpt>
      <trkpt lat="43.36924" lon="5.9209">
        <ele>349</ele>
        <time>2024-04-05T13:02:49+02:00</time>
      </trkpt>
      <trkpt lat="43.3691" lon="5.92114">
        <ele>348</ele>
        <time>2024-04-05T13:03:08+02:00</time>
      </trkpt>
      <trkpt lat="43.36903" lon="5.92129">
        <ele>346</ele>
        <time>2024-04-05T13:03:21+02:00</time>
      </trkpt>
      <trkpt lat="43.3691" lon="5.92149">
        <ele>334</ele>
        <time>2024-04-05T13:03:36+02:00</time>
      </trkpt>
      <trkpt lat="43.36912" lon="5.92153">
        <ele>331</ele>
        <time>2024-04-05T13:03:50+02:00</time>
      </trkpt>
      <trkpt lat="43.36907" lon="5.92148">
        <ele>336</ele>
        <time>2024-04-05T13:04:05+02:00</time>
      </trkpt>
      <trkpt lat="43.36906" lon="5.92145">
        <ele>338</ele>
        <time>2024-04-05T13:04:08+02:00</time>
      </trkpt>
      <trkpt lat="43.36913" lon="5.92133">
        <ele>340</ele>
        <time>2024-04-05T13:04:22+02:00</time>
      </trkpt>
      <trkpt lat="43.36923" lon="5.92121">
        <ele>339</ele>
        <time>2024-04-05T13:04:34+02:00</time>
      </trkpt>
      <trkpt lat="43.36939" lon="5.92103">
        <ele>338</ele>
        <time>2024-04-05T13:04:51+02:00</time>
      </trkpt>
      <trkpt lat="43.36958" lon="5.92084">
        <ele>336</ele>
        <time>2024-04-05T13:05:09+02:00</time>
      </trkpt>
      <trkpt lat="43.3698" lon="5.92064">
        <ele>333</ele>
        <time>2024-04-05T13:05:28+02:00</time>
      </trkpt>
      <trkpt lat="43.37" lon="5.9205">
        <ele>328</ele>
        <time>2024-04-05T13:05:45+02:00</time>
      </trkpt>
      <trkpt lat="43.37014" lon="5.92036">
        <ele>328</ele>
        <time>2024-04-05T13:06:00+02:00</time>
      </trkpt>
      <trkpt lat="43.37026" lon="5.92018">
        <ele>330</ele>
        <time>2024-04-05T13:06:15+02:00</time>
      </trkpt>
      <trkpt lat="43.37044" lon="5.92004">
        <ele>328</ele>
        <time>2024-04-05T13:06:31+02:00</time>
      </trkpt>
      <trkpt lat="43.37054" lon="5.91994">
        <ele>327</ele>
        <time>2024-04-05T13:06:47+02:00</time>
      </trkpt>
      <trkpt lat="43.37061" lon="5.91993">
        <ele>324</ele>
        <time>2024-04-05T13:07:04+02:00</time>
      </trkpt>
      <trkpt lat="43.37072" lon="5.91997">
        <ele>317</ele>
        <time>2024-04-05T13:07:21+02:00</time>
      </trkpt>
      <trkpt lat="43.37077" lon="5.92">
        <ele>313</ele>
        <time>2024-04-05T13:07:41+02:00</time>
      </trkpt>
      <trkpt lat="43.37087" lon="5.91997">
        <ele>311</ele>
        <time>2024-04-05T13:07:58+02:00</time>
      </trkpt>
      <trkpt lat="43.37092" lon="5.91986">
        <ele>313</ele>
        <time>2024-04-05T13:08:15+02:00</time>
      </trkpt>
      <trkpt lat="43.37096" lon="5.91984">
        <ele>313</ele>
        <time>2024-04-05T13:08:33+02:00</time>
      </trkpt>
      <trkpt lat="43.37099" lon="5.91988">
        <ele>312</ele>
        <time>2024-04-05T13:08:51+02:00</time>
      </trkpt>
      <trkpt lat="43.37096" lon="5.91993">
        <ele>312</ele>
        <time>2024-04-05T13:09:06+02:00</time>
      </trkpt>
      <trkpt lat="43.37097" lon="5.91992">
        <ele>312</ele>
        <time>2024-04-05T13:09:20+02:00</time>
      </trkpt>
      <trkpt lat="43.37095" lon="5.91997">
        <ele>311</ele>
        <time>2024-04-05T13:09:38+02:00</time>
      </trkpt>
      <trkpt lat="43.37083" lon="5.92006">
        <ele>310</ele>
        <time>2024-04-05T13:09:54+02:00</time>
      </trkpt>
      <trkpt lat="43.37077" lon="5.92023">
        <ele>312</ele>
        <time>2024-04-05T13:10:13+02:00</time>
      </trkpt>
      <trkpt lat="43.37068" lon="5.92027">
        <ele>312</ele>
        <time>2024-04-05T13:10:32+02:00</time>
      </trkpt>
      <trkpt lat="43.37061" lon="5.92034">
        <ele>312</ele>
        <time>2024-04-05T13:10:50+02:00</time>
      </trkpt>
      <trkpt lat="43.37059" lon="5.92039">
        <ele>312</ele>
        <time>2024-04-05T13:10:59+02:00</time>
      </trkpt>
      <trkpt lat="43.37057" lon="5.92039">
        <ele>311</ele>
        <time>2024-04-05T13:11:23+02:00</time>
      </trkpt>
      <trkpt lat="43.37056" lon="5.92038">
        <ele>311</ele>
        <time>2024-04-05T13:11:33+02:00</time>
      </trkpt>
      <trkpt lat="43.37055" lon="5.92037">
        <ele>311</ele>
        <time>2024-04-05T13:11:43+02:00</time>
      </trkpt>
      <trkpt lat="43.3706" lon="5.92023">
        <ele>313</ele>
        <time>2024-04-05T13:33:18+02:00</time>
      </trkpt>
      <trkpt lat="43.37057" lon="5.92047">
        <ele>311</ele>
        <time>2024-04-05T13:33:36+02:00</time>
      </trkpt>
      <trkpt lat="43.37056" lon="5.92047">
        <ele>311</ele>
        <time>2024-04-05T13:33:53+02:00</time>
      </trkpt>
      <trkpt lat="43.37056" lon="5.92047">
        <ele>311</ele>
        <time>2024-04-05T13:33:58+02:00</time>
      </trkpt>
      <trkpt lat="43.37055" lon="5.92048">
        <ele>311</ele>
        <time>2024-04-05T13:34:06+02:00</time>
      </trkpt>
      <trkpt lat="43.37055" lon="5.92052">
        <ele>311</ele>
        <time>2024-04-05T13:34:22+02:00</time>
      </trkpt>
      <trkpt lat="43.37056" lon="5.92052">
        <ele>311</ele>
        <time>2024-04-05T13:34:42+02:00</time>
      </trkpt>
      <trkpt lat="43.37052" lon="5.92053">
        <ele>311</ele>
        <time>2024-04-05T13:35:02+02:00</time>
      </trkpt>
      <trkpt lat="43.37051" lon="5.9206">
        <ele>312</ele>
        <time>2024-04-05T13:35:29+02:00</time>
      </trkpt>
      <trkpt lat="43.37054" lon="5.92059">
        <ele>312</ele>
        <time>2024-04-05T13:35:56+02:00</time>
      </trkpt>
      <trkpt lat="43.37054" lon="5.92051">
        <ele>311</ele>
        <time>2024-04-05T13:36:14+02:00</time>
      </trkpt>
      <trkpt lat="43.37055" lon="5.92047">
        <ele>311</ele>
        <time>2024-04-05T13:36:39+02:00</time>
      </trkpt>
      <trkpt lat="43.37056" lon="5.92049">
        <ele>311</ele>
        <time>2024-04-05T13:37:07+02:00</time>
      </trkpt>
      <trkpt lat="43.37056" lon="5.92051">
        <ele>311</ele>
        <time>2024-04-05T13:37:34+02:00</time>
      </trkpt>
      <trkpt lat="43.37053" lon="5.92051">
        <ele>311</ele>
        <time>2024-04-05T13:37:59+02:00</time>
      </trkpt>
      <trkpt lat="43.37044" lon="5.9206">
        <ele>312</ele>
        <time>2024-04-05T13:38:19+02:00</time>
      </trkpt>
      <trkpt lat="43.37038" lon="5.92066">
        <ele>312</ele>
        <time>2024-04-05T13:38:35+02:00</time>
      </trkpt>
      <trkpt lat="43.37027" lon="5.92069">
        <ele>311</ele>
        <time>2024-04-05T13:38:54+02:00</time>
      </trkpt>
      <trkpt lat="43.37019" lon="5.92085">
        <ele>311</ele>
        <time>2024-04-05T13:39:15+02:00</time>
      </trkpt>
      <trkpt lat="43.37007" lon="5.92094">
        <ele>312</ele>
        <time>2024-04-05T13:39:35+02:00</time>
      </trkpt>
      <trkpt lat="43.36998" lon="5.92107">
        <ele>311</ele>
        <time>2024-04-05T13:39:54+02:00</time>
      </trkpt>
      <trkpt lat="43.36994" lon="5.92113">
        <ele>311</ele>
        <time>2024-04-05T13:40:14+02:00</time>
      </trkpt>
      <trkpt lat="43.36991" lon="5.92115">
        <ele>312</ele>
        <time>2024-04-05T13:40:33+02:00</time>
      </trkpt>
      <trkpt lat="43.36983" lon="5.9212">
        <ele>313</ele>
        <time>2024-04-05T13:40:54+02:00</time>
      </trkpt>
      <trkpt lat="43.36974" lon="5.92124">
        <ele>313</ele>
        <time>2024-04-05T13:41:11+02:00</time>
      </trkpt>
      <trkpt lat="43.3697" lon="5.92139">
        <ele>311</ele>
        <time>2024-04-05T13:41:31+02:00</time>
      </trkpt>
      <trkpt lat="43.36959" lon="5.9215">
        <ele>313</ele>
        <time>2024-04-05T13:41:52+02:00</time>
      </trkpt>
      <trkpt lat="43.3695" lon="5.92162">
        <ele>312</ele>
        <time>2024-04-05T13:42:13+02:00</time>
      </trkpt>
      <trkpt lat="43.36943" lon="5.92174">
        <ele>311</ele>
        <time>2024-04-05T13:42:35+02:00</time>
      </trkpt>
      <trkpt lat="43.36935" lon="5.92176">
        <ele>313</ele>
        <time>2024-04-05T13:42:52+02:00</time>
      </trkpt>
      <trkpt lat="43.36925" lon="5.92177">
        <ele>315</ele>
        <time>2024-04-05T13:43:13+02:00</time>
      </trkpt>
      <trkpt lat="43.36924" lon="5.92173">
        <ele>316</ele>
        <time>2024-04-05T13:43:35+02:00</time>
      </trkpt>
      <trkpt lat="43.36923" lon="5.92175">
        <ele>316</ele>
        <time>2024-04-05T13:43:57+02:00</time>
      </trkpt>
      <trkpt lat="43.36924" lon="5.92187">
        <ele>312</ele>
        <time>2024-04-05T13:44:20+02:00</time>
      </trkpt>
      <trkpt lat="43.3692" lon="5.92194">
        <ele>310</ele>
        <time>2024-04-05T13:44:39+02:00</time>
      </trkpt>
      <trkpt lat="43.36909" lon="5.92199">
        <ele>313</ele>
        <time>2024-04-05T13:45:00+02:00</time>
      </trkpt>
      <trkpt lat="43.36902" lon="5.92199">
        <ele>315</ele>
        <time>2024-04-05T13:45:21+02:00</time>
      </trkpt>
      <trkpt lat="43.36902" lon="5.92195">
        <ele>316</ele>
        <time>2024-04-05T13:45:47+02:00</time>
      </trkpt>
      <trkpt lat="43.36897" lon="5.922">
        <ele>317</ele>
        <time>2024-04-05T13:46:09+02:00</time>
      </trkpt>
      <trkpt lat="43.36895" lon="5.92195">
        <ele>319</ele>
        <time>2024-04-05T13:46:34+02:00</time>
      </trkpt>
      <trkpt lat="43.36903" lon="5.92193">
        <ele>317</ele>
        <time>2024-04-05T13:46:54+02:00</time>
      </trkpt>
      <trkpt lat="43.36913" lon="5.92193">
        <ele>312</ele>
        <time>2024-04-05T13:47:16+02:00</time>
      </trkpt>
      <trkpt lat="43.36912" lon="5.92207">
        <ele>312</ele>
        <time>2024-04-05T13:47:35+02:00</time>
      </trkpt>
      <trkpt lat="43.36901" lon="5.92221">
        <ele>312</ele>
        <time>2024-04-05T13:47:55+02:00</time>
      </trkpt>
      <trkpt lat="43.36896" lon="5.92221">
        <ele>312</ele>
        <time>2024-04-05T13:48:21+02:00</time>
      </trkpt>
      <trkpt lat="43.36897" lon="5.92224">
        <ele>311</ele>
        <time>2024-04-05T13:48:43+02:00</time>
      </trkpt>
      <trkpt lat="43.36885" lon="5.92233">
        <ele>312</ele>
        <time>2024-04-05T13:49:04+02:00</time>
      </trkpt>
      <trkpt lat="43.36885" lon="5.92232">
        <ele>312</ele>
        <time>2024-04-05T13:49:26+02:00</time>
      </trkpt>
      <trkpt lat="43.36883" lon="5.92242">
        <ele>312</ele>
        <time>2024-04-05T13:49:50+02:00</time>
      </trkpt>
      <trkpt lat="43.3688" lon="5.92241">
        <ele>312</ele>
        <time>2024-04-05T13:50:19+02:00</time>
      </trkpt>
      <trkpt lat="43.36878" lon="5.92242">
        <ele>312</ele>
        <time>2024-04-05T13:50:38+02:00</time>
      </trkpt>
      <trkpt lat="43.36872" lon="5.92239">
        <ele>314</ele>
        <time>2024-04-05T13:50:52+02:00</time>
      </trkpt>
      <trkpt lat="43.36869" lon="5.92239">
        <ele>315</ele>
        <time>2024-04-05T13:51:11+02:00</time>
      </trkpt>
      <trkpt lat="43.36871" lon="5.92238">
        <ele>315</ele>
        <time>2024-04-05T13:51:19+02:00</time>
      </trkpt>
      <trkpt lat="43.36878" lon="5.92231">
        <ele>314</ele>
        <time>2024-04-05T13:51:37+02:00</time>
      </trkpt>
      <trkpt lat="43.36874" lon="5.92236">
        <ele>315</ele>
        <time>2024-04-05T13:51:53+02:00</time>
      </trkpt>
      <trkpt lat="43.36878" lon="5.92241">
        <ele>313</ele>
        <time>2024-04-05T13:52:17+02:00</time>
      </trkpt>
      <trkpt lat="43.36882" lon="5.9224">
        <ele>312</ele>
        <time>2024-04-05T13:52:39+02:00</time>
      </trkpt>
      <trkpt lat="43.36879" lon="5.92238">
        <ele>313</ele>
        <time>2024-04-05T13:53:00+02:00</time>
      </trkpt>
      <trkpt lat="43.36876" lon="5.92244">
        <ele>312</ele>
        <time>2024-04-05T13:53:18+02:00</time>
      </trkpt>
      <trkpt lat="43.36865" lon="5.9225">
        <ele>311</ele>
        <time>2024-04-05T13:53:40+02:00</time>
      </trkpt>
      <trkpt lat="43.3686" lon="5.92248">
        <ele>312</ele>
        <time>2024-04-05T13:54:00+02:00</time>
      </trkpt>
      <trkpt lat="43.36851" lon="5.92251">
        <ele>314</ele>
        <time>2024-04-05T13:54:20+02:00</time>
      </trkpt>
      <trkpt lat="43.36851" lon="5.9225">
        <ele>315</ele>
        <time>2024-04-05T13:54:37+02:00</time>
      </trkpt>
      <trkpt lat="43.36853" lon="5.92252">
        <ele>314</ele>
        <time>2024-04-05T13:55:05+02:00</time>
      </trkpt>
      <trkpt lat="43.36843" lon="5.9226">
        <ele>315</ele>
        <time>2024-04-05T13:55:28+02:00</time>
      </trkpt>
      <trkpt lat="43.36843" lon="5.9226">
        <ele>315</ele>
        <time>2024-04-05T13:55:32+02:00</time>
      </trkpt>
      <trkpt lat="43.36843" lon="5.92276">
        <ele>311</ele>
        <time>2024-04-05T13:55:56+02:00</time>
      </trkpt>
      <trkpt lat="43.36839" lon="5.92272">
        <ele>312</ele>
        <time>2024-04-05T13:56:21+02:00</time>
      </trkpt>
      <trkpt lat="43.36842" lon="5.92266">
        <ele>314</ele>
        <time>2024-04-05T13:56:42+02:00</time>
      </trkpt>
      <trkpt lat="43.36843" lon="5.92265">
        <ele>314</ele>
        <time>2024-04-05T13:57:05+02:00</time>
      </trkpt>
      <trkpt lat="43.36841" lon="5.92271">
        <ele>312</ele>
        <time>2024-04-05T13:57:25+02:00</time>
      </trkpt>
      <trkpt lat="43.36837" lon="5.9226">
        <ele>316</ele>
        <time>2024-04-05T13:57:49+02:00</time>
      </trkpt>
      <trkpt lat="43.36829" lon="5.92268">
        <ele>315</ele>
        <time>2024-04-05T13:58:11+02:00</time>
      </trkpt>
      <trkpt lat="43.36825" lon="5.92284">
        <ele>312</ele>
        <time>2024-04-05T13:58:28+02:00</time>
      </trkpt>
      <trkpt lat="43.36826" lon="5.92282">
        <ele>312</ele>
        <time>2024-04-05T13:58:48+02:00</time>
      </trkpt>
      <trkpt lat="43.36824" lon="5.92283">
        <ele>312</ele>
        <time>2024-04-05T13:58:56+02:00</time>
      </trkpt>
      <trkpt lat="43.36814" lon="5.92287">
        <ele>314</ele>
        <time>2024-04-05T13:59:12+02:00</time>
      </trkpt>
      <trkpt lat="43.36813" lon="5.92284">
        <ele>314</ele>
        <time>2024-04-05T13:59:25+02:00</time>
      </trkpt>
      <trkpt lat="43.36813" lon="5.9229">
        <ele>313</ele>
        <time>2024-04-05T13:59:47+02:00</time>
      </trkpt>
      <trkpt lat="43.36813" lon="5.9229">
        <ele>313</ele>
        <time>2024-04-05T14:00:08+02:00</time>
      </trkpt>
      <trkpt lat="43.3681" lon="5.92297">
        <ele>313</ele>
        <time>2024-04-05T14:00:28+02:00</time>
      </trkpt>
      <trkpt lat="43.36808" lon="5.923">
        <ele>312</ele>
        <time>2024-04-05T14:00:44+02:00</time>
      </trkpt>
      <trkpt lat="43.36802" lon="5.92299">
        <ele>313</ele>
        <time>2024-04-05T14:01:01+02:00</time>
      </trkpt>
      <trkpt lat="43.368" lon="5.92302">
        <ele>313</ele>
        <time>2024-04-05T14:01:22+02:00</time>
      </trkpt>
      <trkpt lat="43.36802" lon="5.92293">
        <ele>314</ele>
        <time>2024-04-05T14:01:42+02:00</time>
      </trkpt>
      <trkpt lat="43.36802" lon="5.92288">
        <ele>315</ele>
        <time>2024-04-05T14:02:04+02:00</time>
      </trkpt>
      <trkpt lat="43.36799" lon="5.92287">
        <ele>316</ele>
        <time>2024-04-05T14:02:29+02:00</time>
      </trkpt>
      <trkpt lat="43.36797" lon="5.9229">
        <ele>316</ele>
        <time>2024-04-05T14:02:52+02:00</time>
      </trkpt>
      <trkpt lat="43.36793" lon="5.92303">
        <ele>315</ele>
        <time>2024-04-05T14:03:10+02:00</time>
      </trkpt>
      <trkpt lat="43.36793" lon="5.92303">
        <ele>315</ele>
        <time>2024-04-05T14:03:34+02:00</time>
      </trkpt>
      <trkpt lat="43.36789" lon="5.92304">
        <ele>316</ele>
        <time>2024-04-05T14:03:59+02:00</time>
      </trkpt>
      <trkpt lat="43.36782" lon="5.92311">
        <ele>318</ele>
        <time>2024-04-05T14:04:22+02:00</time>
      </trkpt>
      <trkpt lat="43.36785" lon="5.92296">
        <ele>318</ele>
        <time>2024-04-05T14:04:45+02:00</time>
      </trkpt>
      <trkpt lat="43.36783" lon="5.92302">
        <ele>318</ele>
        <time>2024-04-05T14:05:10+02:00</time>
      </trkpt>
      <trkpt lat="43.36783" lon="5.9229">
        <ele>320</ele>
        <time>2024-04-05T14:05:43+02:00</time>
      </trkpt>
      <trkpt lat="43.36789" lon="5.92293">
        <ele>318</ele>
        <time>2024-04-05T14:06:20+02:00</time>
      </trkpt>
      <trkpt lat="43.36789" lon="5.92292">
        <ele>318</ele>
        <time>2024-04-05T14:06:40+02:00</time>
      </trkpt>
      <trkpt lat="43.3678" lon="5.92299">
        <ele>319</ele>
        <time>2024-04-05T14:07:01+02:00</time>
      </trkpt>
      <trkpt lat="43.36774" lon="5.9231">
        <ele>319</ele>
        <time>2024-04-05T14:07:17+02:00</time>
      </trkpt>
      <trkpt lat="43.36769" lon="5.92315">
        <ele>320</ele>
        <time>2024-04-05T14:07:34+02:00</time>
      </trkpt>
      <trkpt lat="43.36775" lon="5.92303">
        <ele>319</ele>
        <time>2024-04-05T14:07:53+02:00</time>
      </trkpt>
      <trkpt lat="43.36777" lon="5.923">
        <ele>320</ele>
        <time>2024-04-05T14:08:17+02:00</time>
      </trkpt>
      <trkpt lat="43.36775" lon="5.92308">
        <ele>319</ele>
        <time>2024-04-05T14:08:40+02:00</time>
      </trkpt>
      <trkpt lat="43.3677" lon="5.92317">
        <ele>320</ele>
        <time>2024-04-05T14:08:58+02:00</time>
      </trkpt>
      <trkpt lat="43.36755" lon="5.92321">
        <ele>321</ele>
        <time>2024-04-05T14:09:20+02:00</time>
      </trkpt>
      <trkpt lat="43.3675" lon="5.92321">
        <ele>322</ele>
        <time>2024-04-05T14:09:43+02:00</time>
      </trkpt>
      <trkpt lat="43.36738" lon="5.92333">
        <ele>321</ele>
        <time>2024-04-05T14:10:00+02:00</time>
      </trkpt>
      <trkpt lat="43.3673" lon="5.92343">
        <ele>322</ele>
        <time>2024-04-05T14:10:15+02:00</time>
      </trkpt>
      <trkpt lat="43.36732" lon="5.92349">
        <ele>324</ele>
        <time>2024-04-05T14:10:29+02:00</time>
      </trkpt>
      <trkpt lat="43.36732" lon="5.92352">
        <ele>324</ele>
        <time>2024-04-05T14:10:50+02:00</time>
      </trkpt>
      <trkpt lat="43.36729" lon="5.92348">
        <ele>323</ele>
        <time>2024-04-05T14:11:16+02:00</time>
      </trkpt>
      <trkpt lat="43.36739" lon="5.92347">
        <ele>324</ele>
        <time>2024-04-05T14:11:34+02:00</time>
      </trkpt>
      <trkpt lat="43.36742" lon="5.92341">
        <ele>323</ele>
        <time>2024-04-05T14:11:48+02:00</time>
      </trkpt>
      <trkpt lat="43.36745" lon="5.92344">
        <ele>323</ele>
        <time>2024-04-05T14:12:02+02:00</time>
      </trkpt>
      <trkpt lat="43.36746" lon="5.92345">
        <ele>324</ele>
        <time>2024-04-05T14:12:22+02:00</time>
      </trkpt>
      <trkpt lat="43.36747" lon="5.92337">
        <ele>321</ele>
        <time>2024-04-05T14:12:45+02:00</time>
      </trkpt>
      <trkpt lat="43.36751" lon="5.92337">
        <ele>321</ele>
        <time>2024-04-05T14:13:10+02:00</time>
      </trkpt>
      <trkpt lat="43.36743" lon="5.92338">
        <ele>321</ele>
        <time>2024-04-05T14:13:32+02:00</time>
      </trkpt>
      <trkpt lat="43.36744" lon="5.92337">
        <ele>321</ele>
        <time>2024-04-05T14:13:49+02:00</time>
      </trkpt>
      <trkpt lat="43.36742" lon="5.92338">
        <ele>322</ele>
        <time>2024-04-05T14:14:12+02:00</time>
      </trkpt>
      <trkpt lat="43.36732" lon="5.92342">
        <ele>322</ele>
        <time>2024-04-05T14:14:31+02:00</time>
      </trkpt>
      <trkpt lat="43.3672" lon="5.92333">
        <ele>322</ele>
        <time>2024-04-05T14:14:47+02:00</time>
      </trkpt>
      <trkpt lat="43.36714" lon="5.92336">
        <ele>322</ele>
        <time>2024-04-05T14:15:10+02:00</time>
      </trkpt>
      <trkpt lat="43.36721" lon="5.92329">
        <ele>323</ele>
        <time>2024-04-05T14:15:33+02:00</time>
      </trkpt>
      <trkpt lat="43.36717" lon="5.92335">
        <ele>322</ele>
        <time>2024-04-05T14:16:00+02:00</time>
      </trkpt>
      <trkpt lat="43.36719" lon="5.92337">
        <ele>322</ele>
        <time>2024-04-05T14:16:28+02:00</time>
      </trkpt>
      <trkpt lat="43.36721" lon="5.92336">
        <ele>322</ele>
        <time>2024-04-05T14:16:30+02:00</time>
      </trkpt>
      <trkpt lat="43.36734" lon="5.92341">
        <ele>322</ele>
        <time>2024-04-05T14:16:47+02:00</time>
      </trkpt>
      <trkpt lat="43.36738" lon="5.92339">
        <ele>322</ele>
        <time>2024-04-05T14:17:02+02:00</time>
      </trkpt>
      <trkpt lat="43.36745" lon="5.9234">
        <ele>322</ele>
        <time>2024-04-05T14:17:18+02:00</time>
      </trkpt>
      <trkpt lat="43.36747" lon="5.92336">
        <ele>321</ele>
        <time>2024-04-05T14:17:33+02:00</time>
      </trkpt>
      <trkpt lat="43.36746" lon="5.92344">
        <ele>324</ele>
        <time>2024-04-05T14:18:01+02:00</time>
      </trkpt>
      <trkpt lat="43.36745" lon="5.92346">
        <ele>324</ele>
        <time>2024-04-05T14:18:23+02:00</time>
      </trkpt>
      <trkpt lat="43.36744" lon="5.92345">
        <ele>324</ele>
        <time>2024-04-05T14:18:40+02:00</time>
      </trkpt>
      <trkpt lat="43.36744" lon="5.9234">
        <ele>322</ele>
        <time>2024-04-05T14:19:03+02:00</time>
      </trkpt>
      <trkpt lat="43.36749" lon="5.92339">
        <ele>322</ele>
        <time>2024-04-05T14:19:29+02:00</time>
      </trkpt>
      <trkpt lat="43.36747" lon="5.92339">
        <ele>322</ele>
        <time>2024-04-05T14:19:55+02:00</time>
      </trkpt>
      <trkpt lat="43.36748" lon="5.92339">
        <ele>322</ele>
        <time>2024-04-05T14:20:26+02:00</time>
      </trkpt>
      <trkpt lat="43.36748" lon="5.92337">
        <ele>321</ele>
        <time>2024-04-05T14:20:49+02:00</time>
      </trkpt>
      <trkpt lat="43.36756" lon="5.92339">
        <ele>323</ele>
        <time>2024-04-05T14:21:09+02:00</time>
      </trkpt>
      <trkpt lat="43.36757" lon="5.92339">
        <ele>323</ele>
        <time>2024-04-05T14:21:24+02:00</time>
      </trkpt>
      <trkpt lat="43.36753" lon="5.92341">
        <ele>323</ele>
        <time>2024-04-05T14:21:41+02:00</time>
      </trkpt>
      <trkpt lat="43.36753" lon="5.92336">
        <ele>321</ele>
        <time>2024-04-05T14:22:00+02:00</time>
      </trkpt>
      <trkpt lat="43.36747" lon="5.92334">
        <ele>320</ele>
        <time>2024-04-05T14:22:32+02:00</time>
      </trkpt>
      <trkpt lat="43.36752" lon="5.92339">
        <ele>322</ele>
        <time>2024-04-05T14:22:58+02:00</time>
      </trkpt>
      <trkpt lat="43.36754" lon="5.92338">
        <ele>322</ele>
        <time>2024-04-05T14:23:19+02:00</time>
      </trkpt>
      <trkpt lat="43.36756" lon="5.92339">
        <ele>322</ele>
        <time>2024-04-05T14:23:48+02:00</time>
      </trkpt>
      <trkpt lat="43.36758" lon="5.92337">
        <ele>322</ele>
        <time>2024-04-05T14:24:18+02:00</time>
      </trkpt>
      <trkpt lat="43.36752" lon="5.92327">
        <ele>321</ele>
        <time>2024-04-05T14:24:47+02:00</time>
      </trkpt>
      <trkpt lat="43.36752" lon="5.9233">
        <ele>321</ele>
        <time>2024-04-05T14:25:18+02:00</time>
      </trkpt>
      <trkpt lat="43.36754" lon="5.92332">
        <ele>320</ele>
        <time>2024-04-05T14:25:46+02:00</time>
      </trkpt>
      <trkpt lat="43.36756" lon="5.92335">
        <ele>321</ele>
        <time>2024-04-05T14:26:12+02:00</time>
      </trkpt>
      <trkpt lat="43.36756" lon="5.92345">
        <ele>325</ele>
        <time>2024-04-05T14:26:40+02:00</time>
      </trkpt>
      <trkpt lat="43.3676" lon="5.92346">
        <ele>325</ele>
        <time>2024-04-05T14:27:07+02:00</time>
      </trkpt>
      <trkpt lat="43.36761" lon="5.92347">
        <ele>326</ele>
        <time>2024-04-05T14:27:25+02:00</time>
      </trkpt>
      <trkpt lat="43.36753" lon="5.92345">
        <ele>325</ele>
        <time>2024-04-05T14:27:57+02:00</time>
      </trkpt>
      <trkpt lat="43.36755" lon="5.92344">
        <ele>324</ele>
        <time>2024-04-05T14:28:16+02:00</time>
      </trkpt>
      <trkpt lat="43.36757" lon="5.92345">
        <ele>325</ele>
        <time>2024-04-05T14:28:42+02:00</time>
      </trkpt>
      <trkpt lat="43.36752" lon="5.92344">
        <ele>324</ele>
        <time>2024-04-05T14:29:00+02:00</time>
      </trkpt>
      <trkpt lat="43.3675" lon="5.9235">
        <ele>326</ele>
        <time>2024-04-05T14:29:18+02:00</time>
      </trkpt>
      <trkpt lat="43.36746" lon="5.92351">
        <ele>326</ele>
        <time>2024-04-05T14:29:34+02:00</time>
      </trkpt>
      <trkpt lat="43.36741" lon="5.92343">
        <ele>323</ele>
        <time>2024-04-05T14:29:49+02:00</time>
      </trkpt>
      <trkpt lat="43.36736" lon="5.92352">
        <ele>325</ele>
        <time>2024-04-05T14:30:05+02:00</time>
      </trkpt>
      <trkpt lat="43.36728" lon="5.92352">
        <ele>324</ele>
        <time>2024-04-05T14:30:23+02:00</time>
      </trkpt>
      <trkpt lat="43.3673" lon="5.92353">
        <ele>324</ele>
        <time>2024-04-05T14:30:27+02:00</time>
      </trkpt>
      <trkpt lat="43.36739" lon="5.9235">
        <ele>325</ele>
        <time>2024-04-05T14:30:45+02:00</time>
      </trkpt>
      <trkpt lat="43.36748" lon="5.92347">
        <ele>325</ele>
        <time>2024-04-05T14:31:06+02:00</time>
      </trkpt>
      <trkpt lat="43.3675" lon="5.92347">
        <ele>325</ele>
        <time>2024-04-05T14:31:26+02:00</time>
      </trkpt>
      <trkpt lat="43.36752" lon="5.92342">
        <ele>323</ele>
        <time>2024-04-05T14:31:51+02:00</time>
      </trkpt>
      <trkpt lat="43.36754" lon="5.92344">
        <ele>324</ele>
        <time>2024-04-05T14:32:11+02:00</time>
      </trkpt>
      <trkpt lat="43.36766" lon="5.92346">
        <ele>326</ele>
        <time>2024-04-05T14:32:29+02:00</time>
      </trkpt>
      <trkpt lat="43.36776" lon="5.92352">
        <ele>330</ele>
        <time>2024-04-05T14:32:49+02:00</time>
      </trkpt>
      <trkpt lat="43.36767" lon="5.92355">
        <ele>330</ele>
        <time>2024-04-05T14:33:05+02:00</time>
      </trkpt>
      <trkpt lat="43.36754" lon="5.92359">
        <ele>330</ele>
        <time>2024-04-05T14:33:23+02:00</time>
      </trkpt>
      <trkpt lat="43.36748" lon="5.9236">
        <ele>329</ele>
        <time>2024-04-05T14:33:40+02:00</time>
      </trkpt>
      <trkpt lat="43.36749" lon="5.92365">
        <ele>332</ele>
        <time>2024-04-05T14:34:07+02:00</time>
      </trkpt>
      <trkpt lat="43.36752" lon="5.92364">
        <ele>331</ele>
        <time>2024-04-05T14:34:25+02:00</time>
      </trkpt>
      <trkpt lat="43.36761" lon="5.92366">
        <ele>334</ele>
        <time>2024-04-05T14:34:46+02:00</time>
      </trkpt>
      <trkpt lat="43.36774" lon="5.92371">
        <ele>338</ele>
        <time>2024-04-05T14:35:00+02:00</time>
      </trkpt>
      <trkpt lat="43.36785" lon="5.92378">
        <ele>343</ele>
        <time>2024-04-05T14:35:16+02:00</time>
      </trkpt>
      <trkpt lat="43.36796" lon="5.92387">
        <ele>348</ele>
        <time>2024-04-05T14:35:34+02:00</time>
      </trkpt>
      <trkpt lat="43.36789" lon="5.92392">
        <ele>350</ele>
        <time>2024-04-05T14:35:52+02:00</time>
      </trkpt>
      <trkpt lat="43.36782" lon="5.92397">
        <ele>351</ele>
        <time>2024-04-05T14:36:10+02:00</time>
      </trkpt>
      <trkpt lat="43.36777" lon="5.92391">
        <ele>348</ele>
        <time>2024-04-05T14:36:30+02:00</time>
      </trkpt>
      <trkpt lat="43.36779" lon="5.92391">
        <ele>348</ele>
        <time>2024-04-05T14:36:58+02:00</time>
      </trkpt>
      <trkpt lat="43.36773" lon="5.92394">
        <ele>349</ele>
        <time>2024-04-05T14:37:15+02:00</time>
      </trkpt>
      <trkpt lat="43.36771" lon="5.92404">
        <ele>354</ele>
        <time>2024-04-05T14:37:31+02:00</time>
      </trkpt>
      <trkpt lat="43.36773" lon="5.92419">
        <ele>361</ele>
        <time>2024-04-05T14:37:47+02:00</time>
      </trkpt>
      <trkpt lat="43.36778" lon="5.92424">
        <ele>364</ele>
        <time>2024-04-05T14:37:53+02:00</time>
      </trkpt>
      <trkpt lat="43.36797" lon="5.9243">
        <ele>368</ele>
        <time>2024-04-05T14:38:09+02:00</time>
      </trkpt>
      <trkpt lat="43.3682" lon="5.92428">
        <ele>369</ele>
        <time>2024-04-05T14:38:28+02:00</time>
      </trkpt>
      <trkpt lat="43.36832" lon="5.92422">
        <ele>369</ele>
        <time>2024-04-05T14:38:45+02:00</time>
      </trkpt>
      <trkpt lat="43.3683" lon="5.92421">
        <ele>368</ele>
        <time>2024-04-05T14:39:11+02:00</time>
      </trkpt>
      <trkpt lat="43.36846" lon="5.92432">
        <ele>375</ele>
        <time>2024-04-05T14:39:29+02:00</time>
      </trkpt>
      <trkpt lat="43.36868" lon="5.92429">
        <ele>375</ele>
        <time>2024-04-05T14:39:51+02:00</time>
      </trkpt>
      <trkpt lat="43.36892" lon="5.92432">
        <ele>373</ele>
        <time>2024-04-05T14:40:12+02:00</time>
      </trkpt>
      <trkpt lat="43.36901" lon="5.92458">
        <ele>376</ele>
        <time>2024-04-05T14:40:30+02:00</time>
      </trkpt>
      <trkpt lat="43.36905" lon="5.92467">
        <ele>377</ele>
        <time>2024-04-05T14:40:44+02:00</time>
      </trkpt>
      <trkpt lat="43.36916" lon="5.92471">
        <ele>378</ele>
        <time>2024-04-05T14:41:01+02:00</time>
      </trkpt>
      <trkpt lat="43.36931" lon="5.92483">
        <ele>381</ele>
        <time>2024-04-05T14:41:17+02:00</time>
      </trkpt>
      <trkpt lat="43.36948" lon="5.92498">
        <ele>383</ele>
        <time>2024-04-05T14:41:34+02:00</time>
      </trkpt>
      <trkpt lat="43.36967" lon="5.92509">
        <ele>386</ele>
        <time>2024-04-05T14:41:54+02:00</time>
      </trkpt>
      <trkpt lat="43.36984" lon="5.92523">
        <ele>387</ele>
        <time>2024-04-05T14:42:12+02:00</time>
      </trkpt>
      <trkpt lat="43.36986" lon="5.92546">
        <ele>388</ele>
        <time>2024-04-05T14:42:31+02:00</time>
      </trkpt>
      <trkpt lat="43.36974" lon="5.9257">
        <ele>388</ele>
        <time>2024-04-05T14:42:49+02:00</time>
      </trkpt>
      <trkpt lat="43.36971" lon="5.9258">
        <ele>389</ele>
        <time>2024-04-05T14:42:59+02:00</time>
      </trkpt>
      <trkpt lat="43.36969" lon="5.92613">
        <ele>389</ele>
        <time>2024-04-05T14:43:18+02:00</time>
      </trkpt>
      <trkpt lat="43.36968" lon="5.92622">
        <ele>389</ele>
        <time>2024-04-05T14:43:23+02:00</time>
      </trkpt>
      <trkpt lat="43.36968" lon="5.92647">
        <ele>389</ele>
        <time>2024-04-05T14:43:40+02:00</time>
      </trkpt>
      <trkpt lat="43.36972" lon="5.92677">
        <ele>389</ele>
        <time>2024-04-05T14:43:58+02:00</time>
      </trkpt>
      <trkpt lat="43.36981" lon="5.92708">
        <ele>390</ele>
        <time>2024-04-05T14:44:18+02:00</time>
      </trkpt>
      <trkpt lat="43.36984" lon="5.92732">
        <ele>390</ele>
        <time>2024-04-05T14:44:38+02:00</time>
      </trkpt>
      <trkpt lat="43.3698" lon="5.92758">
        <ele>390</ele>
        <time>2024-04-05T14:44:53+02:00</time>
      </trkpt>
      <trkpt lat="43.36994" lon="5.92773">
        <ele>390</ele>
        <time>2024-04-05T14:45:13+02:00</time>
      </trkpt>
      <trkpt lat="43.37012" lon="5.92797">
        <ele>391</ele>
        <time>2024-04-05T14:45:32+02:00</time>
      </trkpt>
      <trkpt lat="43.37014" lon="5.92811">
        <ele>391</ele>
        <time>2024-04-05T14:45:52+02:00</time>
      </trkpt>
      <trkpt lat="43.37015" lon="5.92811">
        <ele>391</ele>
        <time>2024-04-05T14:46:05+02:00</time>
      </trkpt>
      <trkpt lat="43.37017" lon="5.92816">
        <ele>392</ele>
        <time>2024-04-05T14:46:18+02:00</time>
      </trkpt>
      <trkpt lat="43.37028" lon="5.92833">
        <ele>392</ele>
        <time>2024-04-05T14:46:35+02:00</time>
      </trkpt>
      <trkpt lat="43.37037" lon="5.92846">
        <ele>394</ele>
        <time>2024-04-05T14:46:50+02:00</time>
      </trkpt>
      <trkpt lat="43.37049" lon="5.92858">
        <ele>395</ele>
        <time>2024-04-05T14:47:06+02:00</time>
      </trkpt>
      <trkpt lat="43.37063" lon="5.92875">
        <ele>396</ele>
        <time>2024-04-05T14:47:23+02:00</time>
      </trkpt>
      <trkpt lat="43.37063" lon="5.92876">
        <ele>396</ele>
        <time>2024-04-05T14:47:25+02:00</time>
      </trkpt>
      <trkpt lat="43.37066" lon="5.92899">
        <ele>397</ele>
        <time>2024-04-05T14:47:42+02:00</time>
      </trkpt>
      <trkpt lat="43.37073" lon="5.92915">
        <ele>398</ele>
        <time>2024-04-05T14:47:58+02:00</time>
      </trkpt>
      <trkpt lat="43.37087" lon="5.92912">
        <ele>399</ele>
        <time>2024-04-05T14:48:16+02:00</time>
      </trkpt>
      <trkpt lat="43.37113" lon="5.9291">
        <ele>400</ele>
        <time>2024-04-05T14:48:36+02:00</time>
      </trkpt>
      <trkpt lat="43.37133" lon="5.92908">
        <ele>402</ele>
        <time>2024-04-05T14:48:56+02:00</time>
      </trkpt>
      <trkpt lat="43.37155" lon="5.92903">
        <ele>405</ele>
        <time>2024-04-05T14:49:14+02:00</time>
      </trkpt>
      <trkpt lat="43.37166" lon="5.92889">
        <ele>406</ele>
        <time>2024-04-05T14:49:34+02:00</time>
      </trkpt>
      <trkpt lat="43.37186" lon="5.92886">
        <ele>409</ele>
        <time>2024-04-05T14:49:54+02:00</time>
      </trkpt>
      <trkpt lat="43.37209" lon="5.92894">
        <ele>410</ele>
        <time>2024-04-05T14:50:13+02:00</time>
      </trkpt>
      <trkpt lat="43.37217" lon="5.92897">
        <ele>410</ele>
        <time>2024-04-05T14:50:20+02:00</time>
      </trkpt>
      <trkpt lat="43.37228" lon="5.92903">
        <ele>411</ele>
        <time>2024-04-05T14:50:29+02:00</time>
      </trkpt>
      <trkpt lat="43.37232" lon="5.92902">
        <ele>411</ele>
        <time>2024-04-05T14:50:32+02:00</time>
      </trkpt>
      <trkpt lat="43.37246" lon="5.92893">
        <ele>412</ele>
        <time>2024-04-05T14:50:50+02:00</time>
      </trkpt>
      <trkpt lat="43.37249" lon="5.92889">
        <ele>412</ele>
        <time>2024-04-05T14:51:05+02:00</time>
      </trkpt>
      <trkpt lat="43.37251" lon="5.92885">
        <ele>412</ele>
        <time>2024-04-05T14:51:23+02:00</time>
      </trkpt>
      <trkpt lat="43.37254" lon="5.9288">
        <ele>412</ele>
        <time>2024-04-05T14:51:33+02:00</time>
      </trkpt>
      <trkpt lat="43.37266" lon="5.92856">
        <ele>413</ele>
        <time>2024-04-05T14:51:55+02:00</time>
      </trkpt>
      <trkpt lat="43.3728" lon="5.92838">
        <ele>413</ele>
        <time>2024-04-05T14:52:13+02:00</time>
      </trkpt>
      <trkpt lat="43.37292" lon="5.92809">
        <ele>414</ele>
        <time>2024-04-05T14:52:33+02:00</time>
      </trkpt>
      <trkpt lat="43.37293" lon="5.92804">
        <ele>414</ele>
        <time>2024-04-05T14:52:36+02:00</time>
      </trkpt>
      <trkpt lat="43.37297" lon="5.92777">
        <ele>414</ele>
        <time>2024-04-05T14:52:53+02:00</time>
      </trkpt>
      <trkpt lat="43.37307" lon="5.92751">
        <ele>415</ele>
        <time>2024-04-05T14:53:12+02:00</time>
      </trkpt>
      <trkpt lat="43.37308" lon="5.92746">
        <ele>415</ele>
        <time>2024-04-05T14:53:15+02:00</time>
      </trkpt>
      <trkpt lat="43.37309" lon="5.9272">
        <ele>416</ele>
        <time>2024-04-05T14:53:33+02:00</time>
      </trkpt>
      <trkpt lat="43.37314" lon="5.92699">
        <ele>416</ele>
        <time>2024-04-05T14:53:47+02:00</time>
      </trkpt>
      <trkpt lat="43.37323" lon="5.92669">
        <ele>416</ele>
        <time>2024-04-05T14:54:05+02:00</time>
      </trkpt>
      <trkpt lat="43.37335" lon="5.92652">
        <ele>417</ele>
        <time>2024-04-05T14:54:22+02:00</time>
      </trkpt>
      <trkpt lat="43.3736" lon="5.92661">
        <ele>418</ele>
        <time>2024-04-05T14:54:44+02:00</time>
      </trkpt>
      <trkpt lat="43.37377" lon="5.92674">
        <ele>418</ele>
        <time>2024-04-05T14:55:02+02:00</time>
      </trkpt>
      <trkpt lat="43.37397" lon="5.92689">
        <ele>418</ele>
        <time>2024-04-05T14:55:21+02:00</time>
      </trkpt>
      <trkpt lat="43.37405" lon="5.92691">
        <ele>417</ele>
        <time>2024-04-05T14:55:31+02:00</time>
      </trkpt>
      <trkpt lat="43.37418" lon="5.92686">
        <ele>417</ele>
        <time>2024-04-05T14:55:38+02:00</time>
      </trkpt>
      <trkpt lat="43.3742" lon="5.9268">
        <ele>417</ele>
        <time>2024-04-05T14:55:43+02:00</time>
      </trkpt>
      <trkpt lat="43.37429" lon="5.92661">
        <ele>417</ele>
        <time>2024-04-05T14:56:00+02:00</time>
      </trkpt>
      <trkpt lat="43.37446" lon="5.92645">
        <ele>417</ele>
        <time>2024-04-05T14:56:20+02:00</time>
      </trkpt>
      <trkpt lat="43.37465" lon="5.92623">
        <ele>419</ele>
        <time>2024-04-05T14:56:36+02:00</time>
      </trkpt>
      <trkpt lat="43.37477" lon="5.92599">
        <ele>420</ele>
        <time>2024-04-05T14:56:53+02:00</time>
      </trkpt>
      <trkpt lat="43.37488" lon="5.92577">
        <ele>420</ele>
        <time>2024-04-05T14:57:10+02:00</time>
      </trkpt>
      <trkpt lat="43.37489" lon="5.92575">
        <ele>420</ele>
        <time>2024-04-05T14:57:12+02:00</time>
      </trkpt>
      <trkpt lat="43.375" lon="5.92553">
        <ele>421</ele>
        <time>2024-04-05T14:57:28+02:00</time>
      </trkpt>
      <trkpt lat="43.37512" lon="5.92532">
        <ele>421</ele>
        <time>2024-04-05T14:57:43+02:00</time>
      </trkpt>
      <trkpt lat="43.37518" lon="5.92505">
        <ele>421</ele>
        <time>2024-04-05T14:58:00+02:00</time>
      </trkpt>
      <trkpt lat="43.37522" lon="5.92479">
        <ele>420</ele>
        <time>2024-04-05T14:58:16+02:00</time>
      </trkpt>
      <trkpt lat="43.37522" lon="5.92477">
        <ele>420</ele>
        <time>2024-04-05T14:58:24+02:00</time>
      </trkpt>
      <trkpt lat="43.37531" lon="5.92463">
        <ele>420</ele>
        <time>2024-04-05T14:58:40+02:00</time>
      </trkpt>
      <trkpt lat="43.37535" lon="5.92455">
        <ele>421</ele>
        <time>2024-04-05T14:58:46+02:00</time>
      </trkpt>
      <trkpt lat="43.37551" lon="5.92436">
        <ele>421</ele>
        <time>2024-04-05T14:59:05+02:00</time>
      </trkpt>
      <trkpt lat="43.37568" lon="5.92406">
        <ele>422</ele>
        <time>2024-04-05T14:59:27+02:00</time>
      </trkpt>
      <trkpt lat="43.3758" lon="5.92384">
        <ele>422</ele>
        <time>2024-04-05T14:59:44+02:00</time>
      </trkpt>
      <trkpt lat="43.37582" lon="5.9238">
        <ele>422</ele>
        <time>2024-04-05T14:59:47+02:00</time>
      </trkpt>
      <trkpt lat="43.37585" lon="5.92376">
        <ele>422</ele>
        <time>2024-04-05T14:59:50+02:00</time>
      </trkpt>
      <trkpt lat="43.37598" lon="5.9235">
        <ele>422</ele>
        <time>2024-04-05T15:00:08+02:00</time>
      </trkpt>
      <trkpt lat="43.37605" lon="5.92325">
        <ele>422</ele>
        <time>2024-04-05T15:00:26+02:00</time>
      </trkpt>
      <trkpt lat="43.37617" lon="5.9231">
        <ele>422</ele>
        <time>2024-04-05T15:00:43+02:00</time>
      </trkpt>
      <trkpt lat="43.37634" lon="5.923">
        <ele>423</ele>
        <time>2024-04-05T15:01:01+02:00</time>
      </trkpt>
      <trkpt lat="43.37656" lon="5.92287">
        <ele>425</ele>
        <time>2024-04-05T15:01:19+02:00</time>
      </trkpt>
      <trkpt lat="43.37673" lon="5.92264">
        <ele>426</ele>
        <time>2024-04-05T15:01:39+02:00</time>
      </trkpt>
      <trkpt lat="43.3769" lon="5.92263">
        <ele>426</ele>
        <time>2024-04-05T15:01:57+02:00</time>
      </trkpt>
      <trkpt lat="43.37696" lon="5.92267">
        <ele>425</ele>
        <time>2024-04-05T15:02:03+02:00</time>
      </trkpt>
      <trkpt lat="43.37704" lon="5.92271">
        <ele>425</ele>
        <time>2024-04-05T15:02:19+02:00</time>
      </trkpt>
      <trkpt lat="43.3771" lon="5.92272">
        <ele>424</ele>
        <time>2024-04-05T15:02:46+02:00</time>
      </trkpt>
      <trkpt lat="43.3771" lon="5.92274">
        <ele>424</ele>
        <time>2024-04-05T15:03:13+02:00</time>
      </trkpt>
      <trkpt lat="43.37709" lon="5.92275">
        <ele>424</ele>
        <time>2024-04-05T15:03:40+02:00</time>
      </trkpt>
      <trkpt lat="43.37709" lon="5.92274">
        <ele>424</ele>
        <time>2024-04-05T15:04:06+02:00</time>
      </trkpt>
      <trkpt lat="43.37717" lon="5.92283">
        <ele>424</ele>
        <time>2024-04-05T15:04:35+02:00</time>
      </trkpt>
      <trkpt lat="43.37733" lon="5.92279">
        <ele>421</ele>
        <time>2024-04-05T15:04:52+02:00</time>
      </trkpt>
      <trkpt lat="43.37749" lon="5.92277">
        <ele>419</ele>
        <time>2024-04-05T15:05:10+02:00</time>
      </trkpt>
      <trkpt lat="43.37769" lon="5.92277">
        <ele>416</ele>
        <time>2024-04-05T15:05:26+02:00</time>
      </trkpt>
      <trkpt lat="43.37789" lon="5.92288">
        <ele>412</ele>
        <time>2024-04-05T15:05:46+02:00</time>
      </trkpt>
      <trkpt lat="43.37805" lon="5.92304">
        <ele>411</ele>
        <time>2024-04-05T15:06:04+02:00</time>
      </trkpt>
      <trkpt lat="43.37817" lon="5.92311">
        <ele>410</ele>
        <time>2024-04-05T15:06:22+02:00</time>
      </trkpt>
      <trkpt lat="43.37838" lon="5.9232">
        <ele>407</ele>
        <time>2024-04-05T15:06:42+02:00</time>
      </trkpt>
      <trkpt lat="43.37857" lon="5.9233">
        <ele>405</ele>
        <time>2024-04-05T15:07:01+02:00</time>
      </trkpt>
      <trkpt lat="43.37872" lon="5.92342">
        <ele>404</ele>
        <time>2024-04-05T15:07:18+02:00</time>
      </trkpt>
      <trkpt lat="43.37881" lon="5.92356">
        <ele>402</ele>
        <time>2024-04-05T15:07:34+02:00</time>
      </trkpt>
      <trkpt lat="43.37894" lon="5.92384">
        <ele>398</ele>
        <time>2024-04-05T15:07:56+02:00</time>
      </trkpt>
      <trkpt lat="43.37898" lon="5.92403">
        <ele>396</ele>
        <time>2024-04-05T15:08:17+02:00</time>
      </trkpt>
      <trkpt lat="43.37902" lon="5.92423">
        <ele>395</ele>
        <time>2024-04-05T15:08:36+02:00</time>
      </trkpt>
      <trkpt lat="43.37909" lon="5.92442">
        <ele>392</ele>
        <time>2024-04-05T15:08:55+02:00</time>
      </trkpt>
      <trkpt lat="43.37917" lon="5.92462">
        <ele>389</ele>
        <time>2024-04-05T15:09:14+02:00</time>
      </trkpt>
      <trkpt lat="43.37927" lon="5.92474">
        <ele>387</ele>
        <time>2024-04-05T15:09:33+02:00</time>
      </trkpt>
      <trkpt lat="43.37939" lon="5.92489">
        <ele>384</ele>
        <time>2024-04-05T15:09:54+02:00</time>
      </trkpt>
      <trkpt lat="43.37949" lon="5.92493">
        <ele>381</ele>
        <time>2024-04-05T15:10:13+02:00</time>
      </trkpt>
      <trkpt lat="43.37952" lon="5.92497">
        <ele>380</ele>
        <time>2024-04-05T15:10:29+02:00</time>
      </trkpt>
      <trkpt lat="43.37957" lon="5.92526">
        <ele>379</ele>
        <time>2024-04-05T15:10:49+02:00</time>
      </trkpt>
      <trkpt lat="43.37956" lon="5.92558">
        <ele>378</ele>
        <time>2024-04-05T15:11:10+02:00</time>
      </trkpt>
      <trkpt lat="43.3796" lon="5.92583">
        <ele>377</ele>
        <time>2024-04-05T15:11:29+02:00</time>
      </trkpt>
      <trkpt lat="43.37971" lon="5.9258">
        <ele>376</ele>
        <time>2024-04-05T15:11:45+02:00</time>
      </trkpt>
      <trkpt lat="43.37981" lon="5.92574">
        <ele>375</ele>
        <time>2024-04-05T15:12:04+02:00</time>
      </trkpt>
      <trkpt lat="43.37997" lon="5.92584">
        <ele>372</ele>
        <time>2024-04-05T15:12:19+02:00</time>
      </trkpt>
      <trkpt lat="43.3801" lon="5.92603">
        <ele>371</ele>
        <time>2024-04-05T15:12:35+02:00</time>
      </trkpt>
      <trkpt lat="43.38012" lon="5.92631">
        <ele>370</ele>
        <time>2024-04-05T15:12:54+02:00</time>
      </trkpt>
      <trkpt lat="43.38014" lon="5.92665">
        <ele>369</ele>
        <time>2024-04-05T15:13:16+02:00</time>
      </trkpt>
      <trkpt lat="43.38029" lon="5.92678">
        <ele>366</ele>
        <time>2024-04-05T15:13:34+02:00</time>
      </trkpt>
      <trkpt lat="43.38039" lon="5.927">
        <ele>365</ele>
        <time>2024-04-05T15:13:52+02:00</time>
      </trkpt>
      <trkpt lat="43.38036" lon="5.92731">
        <ele>365</ele>
        <time>2024-04-05T15:14:13+02:00</time>
      </trkpt>
      <trkpt lat="43.38035" lon="5.92759">
        <ele>365</ele>
        <time>2024-04-05T15:14:32+02:00</time>
      </trkpt>
      <trkpt lat="43.38042" lon="5.92778">
        <ele>365</ele>
        <time>2024-04-05T15:14:48+02:00</time>
      </trkpt>
      <trkpt lat="43.38052" lon="5.92799">
        <ele>365</ele>
        <time>2024-04-05T15:15:05+02:00</time>
      </trkpt>
      <trkpt lat="43.3806" lon="5.92816">
        <ele>365</ele>
        <time>2024-04-05T15:15:22+02:00</time>
      </trkpt>
      <trkpt lat="43.3807" lon="5.92843">
        <ele>365</ele>
        <time>2024-04-05T15:15:42+02:00</time>
      </trkpt>
      <trkpt lat="43.38083" lon="5.92871">
        <ele>365</ele>
        <time>2024-04-05T15:16:00+02:00</time>
      </trkpt>
      <trkpt lat="43.38098" lon="5.92893">
        <ele>365</ele>
        <time>2024-04-05T15:16:17+02:00</time>
      </trkpt>
      <trkpt lat="43.38115" lon="5.92912">
        <ele>365</ele>
        <time>2024-04-05T15:16:36+02:00</time>
      </trkpt>
      <trkpt lat="43.38133" lon="5.92931">
        <ele>365</ele>
        <time>2024-04-05T15:16:54+02:00</time>
      </trkpt>
      <trkpt lat="43.38141" lon="5.9295">
        <ele>365</ele>
        <time>2024-04-05T15:17:11+02:00</time>
      </trkpt>
      <trkpt lat="43.38151" lon="5.92969">
        <ele>365</ele>
        <time>2024-04-05T15:17:26+02:00</time>
      </trkpt>
      <trkpt lat="43.38164" lon="5.92989">
        <ele>365</ele>
        <time>2024-04-05T15:17:42+02:00</time>
      </trkpt>
      <trkpt lat="43.38178" lon="5.93004">
        <ele>365</ele>
        <time>2024-04-05T15:18:00+02:00</time>
      </trkpt>
      <trkpt lat="43.38195" lon="5.93016">
        <ele>366</ele>
        <time>2024-04-05T15:18:16+02:00</time>
      </trkpt>
      <trkpt lat="43.38214" lon="5.93025">
        <ele>367</ele>
        <time>2024-04-05T15:18:36+02:00</time>
      </trkpt>
      <trkpt lat="43.38238" lon="5.93032">
        <ele>369</ele>
        <time>2024-04-05T15:18:56+02:00</time>
      </trkpt>
      <trkpt lat="43.38261" lon="5.93038">
        <ele>369</ele>
        <time>2024-04-05T15:19:14+02:00</time>
      </trkpt>
      <trkpt lat="43.38274" lon="5.93043">
        <ele>369</ele>
        <time>2024-04-05T15:19:29+02:00</time>
      </trkpt>
      <trkpt lat="43.38288" lon="5.93051">
        <ele>371</ele>
        <time>2024-04-05T15:19:42+02:00</time>
      </trkpt>
      <trkpt lat="43.38303" lon="5.93058">
        <ele>372</ele>
        <time>2024-04-05T15:19:59+02:00</time>
      </trkpt>
      <trkpt lat="43.38318" lon="5.93064">
        <ele>372</ele>
        <time>2024-04-05T15:20:14+02:00</time>
      </trkpt>
      <trkpt lat="43.38337" lon="5.93066">
        <ele>372</ele>
        <time>2024-04-05T15:20:32+02:00</time>
      </trkpt>
      <trkpt lat="43.38345" lon="5.93063">
        <ele>373</ele>
        <time>2024-04-05T15:20:44+02:00</time>
      </trkpt>
      <trkpt lat="43.38346" lon="5.9307">
        <ele>373</ele>
        <time>2024-04-05T15:20:53+02:00</time>
      </trkpt>
      <trkpt lat="43.38338" lon="5.93093">
        <ele>373</ele>
        <time>2024-04-05T15:21:12+02:00</time>
      </trkpt>
      <trkpt lat="43.38338" lon="5.93114">
        <ele>373</ele>
        <time>2024-04-05T15:21:27+02:00</time>
      </trkpt>
      <trkpt lat="43.38339" lon="5.93146">
        <ele>374</ele>
        <time>2024-04-05T15:21:46+02:00</time>
      </trkpt>
      <trkpt lat="43.38336" lon="5.93182">
        <ele>376</ele>
        <time>2024-04-05T15:22:06+02:00</time>
      </trkpt>
      <trkpt lat="43.38339" lon="5.93211">
        <ele>377</ele>
        <time>2024-04-05T15:22:24+02:00</time>
      </trkpt>
      <trkpt lat="43.38333" lon="5.93238">
        <ele>377</ele>
        <time>2024-04-05T15:22:41+02:00</time>
      </trkpt>
      <trkpt lat="43.3833" lon="5.93271">
        <ele>376</ele>
        <time>2024-04-05T15:23:00+02:00</time>
      </trkpt>
      <trkpt lat="43.38328" lon="5.93285">
        <ele>376</ele>
        <time>2024-04-05T15:23:08+02:00</time>
      </trkpt>
      <trkpt lat="43.3832" lon="5.93314">
        <ele>375</ele>
        <time>2024-04-05T15:23:27+02:00</time>
      </trkpt>
      <trkpt lat="43.38319" lon="5.93342">
        <ele>374</ele>
        <time>2024-04-05T15:23:44+02:00</time>
      </trkpt>
      <trkpt lat="43.38325" lon="5.93372">
        <ele>373</ele>
        <time>2024-04-05T15:24:03+02:00</time>
      </trkpt>
      <trkpt lat="43.38327" lon="5.93402">
        <ele>373</ele>
        <time>2024-04-05T15:24:21+02:00</time>
      </trkpt>
      <trkpt lat="43.38328" lon="5.93414">
        <ele>373</ele>
        <time>2024-04-05T15:24:29+02:00</time>
      </trkpt>
      <trkpt lat="43.38329" lon="5.93424">
        <ele>372</ele>
        <time>2024-04-05T15:24:35+02:00</time>
      </trkpt>
      <trkpt lat="43.38328" lon="5.93429">
        <ele>372</ele>
        <time>2024-04-05T15:24:38+02:00</time>
      </trkpt>
      <trkpt lat="43.3832" lon="5.93441">
        <ele>372</ele>
        <time>2024-04-05T15:24:46+02:00</time>
      </trkpt>
      <trkpt lat="43.38318" lon="5.93447">
        <ele>371</ele>
        <time>2024-04-05T15:24:49+02:00</time>
      </trkpt>
      <trkpt lat="43.38323" lon="5.93467">
        <ele>371</ele>
        <time>2024-04-05T15:25:02+02:00</time>
      </trkpt>
      <trkpt lat="43.38328" lon="5.93498">
        <ele>370</ele>
        <time>2024-04-05T15:25:20+02:00</time>
      </trkpt>
      <trkpt lat="43.38333" lon="5.93512">
        <ele>370</ele>
        <time>2024-04-05T15:25:29+02:00</time>
      </trkpt>
      <trkpt lat="43.38336" lon="5.93548">
        <ele>368</ele>
        <time>2024-04-05T15:25:50+02:00</time>
      </trkpt>
      <trkpt lat="43.38337" lon="5.93562">
        <ele>368</ele>
        <time>2024-04-05T15:25:58+02:00</time>
      </trkpt>
      <trkpt lat="43.38343" lon="5.93571">
        <ele>367</ele>
        <time>2024-04-05T15:26:03+02:00</time>
      </trkpt>
      <trkpt lat="43.38366" lon="5.93584">
        <ele>366</ele>
        <time>2024-04-05T15:26:23+02:00</time>
      </trkpt>
      <trkpt lat="43.38371" lon="5.93592">
        <ele>366</ele>
        <time>2024-04-05T15:26:29+02:00</time>
      </trkpt>
      <trkpt lat="43.38387" lon="5.93608">
        <ele>365</ele>
        <time>2024-04-05T15:26:45+02:00</time>
      </trkpt>
      <trkpt lat="43.38397" lon="5.93628">
        <ele>365</ele>
        <time>2024-04-05T15:27:02+02:00</time>
      </trkpt>
      <trkpt lat="43.38413" lon="5.93643">
        <ele>365</ele>
        <time>2024-04-05T15:27:22+02:00</time>
      </trkpt>
      <trkpt lat="43.38428" lon="5.93655">
        <ele>365</ele>
        <time>2024-04-05T15:27:39+02:00</time>
      </trkpt>
      <trkpt lat="43.38438" lon="5.93657">
        <ele>365</ele>
        <time>2024-04-05T15:27:58+02:00</time>
      </trkpt>
      <trkpt lat="43.38451" lon="5.9367">
        <ele>364</ele>
        <time>2024-04-05T15:28:14+02:00</time>
      </trkpt>
      <trkpt lat="43.3846" lon="5.93679">
        <ele>364</ele>
        <time>2024-04-05T15:28:32+02:00</time>
      </trkpt>
      <trkpt lat="43.38465" lon="5.93677">
        <ele>363</ele>
        <time>2024-04-05T15:29:13+02:00</time>
      </trkpt>
      <trkpt lat="43.38469" lon="5.93679">
        <ele>363</ele>
        <time>2024-04-05T15:29:44+02:00</time>
      </trkpt>
      <trkpt lat="43.3848" lon="5.93697">
        <ele>362</ele>
        <time>2024-04-05T15:30:00+02:00</time>
      </trkpt>
      <trkpt lat="43.38489" lon="5.93719">
        <ele>361</ele>
        <time>2024-04-05T15:30:16+02:00</time>
      </trkpt>
      <trkpt lat="43.385" lon="5.93752">
        <ele>360</ele>
        <time>2024-04-05T15:30:38+02:00</time>
      </trkpt>
      <trkpt lat="43.38502" lon="5.93757">
        <ele>360</ele>
        <time>2024-04-05T15:30:40+02:00</time>
      </trkpt>
      <trkpt lat="43.3851" lon="5.93789">
        <ele>358</ele>
        <time>2024-04-05T15:30:59+02:00</time>
      </trkpt>
      <trkpt lat="43.38519" lon="5.93817">
        <ele>358</ele>
        <time>2024-04-05T15:31:17+02:00</time>
      </trkpt>
      <trkpt lat="43.38521" lon="5.93826">
        <ele>358</ele>
        <time>2024-04-05T15:31:32+02:00</time>
      </trkpt>
      <trkpt lat="43.38525" lon="5.93825">
        <ele>358</ele>
        <time>2024-04-05T15:31:40+02:00</time>
      </trkpt>
      <trkpt lat="43.38539" lon="5.93815">
        <ele>356</ele>
        <time>2024-04-05T15:31:56+02:00</time>
      </trkpt>
      <trkpt lat="43.38548" lon="5.93803">
        <ele>354</ele>
        <time>2024-04-05T15:32:14+02:00</time>
      </trkpt>
      <trkpt lat="43.38558" lon="5.93782">
        <ele>351</ele>
        <time>2024-04-05T15:32:32+02:00</time>
      </trkpt>
      <trkpt lat="43.38558" lon="5.9378">
        <ele>351</ele>
        <time>2024-04-05T15:32:34+02:00</time>
      </trkpt>
      <trkpt lat="43.38563" lon="5.93749">
        <ele>348</ele>
        <time>2024-04-05T15:32:53+02:00</time>
      </trkpt>
      <trkpt lat="43.38563" lon="5.93721">
        <ele>346</ele>
        <time>2024-04-05T15:33:08+02:00</time>
      </trkpt>
      <trkpt lat="43.38564" lon="5.93699">
        <ele>343</ele>
        <time>2024-04-05T15:33:22+02:00</time>
      </trkpt>
      <trkpt lat="43.38564" lon="5.9367">
        <ele>341</ele>
        <time>2024-04-05T15:33:39+02:00</time>
      </trkpt>
      <trkpt lat="43.38574" lon="5.93646">
        <ele>338</ele>
        <time>2024-04-05T15:33:57+02:00</time>
      </trkpt>
      <trkpt lat="43.38586" lon="5.93627">
        <ele>336</ele>
        <time>2024-04-05T15:34:13+02:00</time>
      </trkpt>
      <trkpt lat="43.38589" lon="5.93621">
        <ele>336</ele>
        <time>2024-04-05T15:34:17+02:00</time>
      </trkpt>
      <trkpt lat="43.38594" lon="5.93615">
        <ele>335</ele>
        <time>2024-04-05T15:34:22+02:00</time>
      </trkpt>
      <trkpt lat="43.38608" lon="5.93589">
        <ele>333</ele>
        <time>2024-04-05T15:34:40+02:00</time>
      </trkpt>
      <trkpt lat="43.38613" lon="5.93575">
        <ele>332</ele>
        <time>2024-04-05T15:34:56+02:00</time>
      </trkpt>
      <trkpt lat="43.38619" lon="5.9356">
        <ele>333</ele>
        <time>2024-04-05T15:35:10+02:00</time>
      </trkpt>
      <trkpt lat="43.38622" lon="5.93551">
        <ele>334</ele>
        <time>2024-04-05T15:35:16+02:00</time>
      </trkpt>
      <trkpt lat="43.38618" lon="5.93535">
        <ele>332</ele>
        <time>2024-04-05T15:35:31+02:00</time>
      </trkpt>
      <trkpt lat="43.38613" lon="5.93527">
        <ele>331</ele>
        <time>2024-04-05T15:35:46+02:00</time>
      </trkpt>
      <trkpt lat="43.38614" lon="5.93528">
        <ele>331</ele>
        <time>2024-04-05T15:35:49+02:00</time>
      </trkpt>
      <trkpt lat="43.38625" lon="5.9354">
        <ele>334</ele>
        <time>2024-04-05T15:36:00+02:00</time>
      </trkpt>
      <trkpt lat="43.38628" lon="5.93542">
        <ele>335</ele>
        <time>2024-04-05T15:36:03+02:00</time>
      </trkpt>
      <trkpt lat="43.38633" lon="5.93536">
        <ele>337</ele>
        <time>2024-04-05T15:36:14+02:00</time>
      </trkpt>
      <trkpt lat="43.38636" lon="5.93523">
        <ele>337</ele>
        <time>2024-04-05T15:36:26+02:00</time>
      </trkpt>
      <trkpt lat="43.38645" lon="5.93501">
        <ele>336</ele>
        <time>2024-04-05T15:36:44+02:00</time>
      </trkpt>
      <trkpt lat="43.38653" lon="5.93489">
        <ele>337</ele>
        <time>2024-04-05T15:37:00+02:00</time>
      </trkpt>
      <trkpt lat="43.3866" lon="5.9348">
        <ele>338</ele>
        <time>2024-04-05T15:37:09+02:00</time>
      </trkpt>
      <trkpt lat="43.38673" lon="5.93454">
        <ele>339</ele>
        <time>2024-04-05T15:37:28+02:00</time>
      </trkpt>
      <trkpt lat="43.38688" lon="5.9344">
        <ele>339</ele>
        <time>2024-04-05T15:37:43+02:00</time>
      </trkpt>
      <trkpt lat="43.3869" lon="5.93433">
        <ele>339</ele>
        <time>2024-04-05T15:37:47+02:00</time>
      </trkpt>
      <trkpt lat="43.38691" lon="5.9342">
        <ele>339</ele>
        <time>2024-04-05T15:37:55+02:00</time>
      </trkpt>
      <trkpt lat="43.38696" lon="5.93397">
        <ele>339</ele>
        <time>2024-04-05T15:38:11+02:00</time>
      </trkpt>
      <trkpt lat="43.38705" lon="5.93379">
        <ele>338</ele>
        <time>2024-04-05T15:38:27+02:00</time>
      </trkpt>
      <trkpt lat="43.38708" lon="5.93373">
        <ele>338</ele>
        <time>2024-04-05T15:38:31+02:00</time>
      </trkpt>
      <trkpt lat="43.38716" lon="5.93351">
        <ele>338</ele>
        <time>2024-04-05T15:38:46+02:00</time>
      </trkpt>
      <trkpt lat="43.38718" lon="5.93331">
        <ele>336</ele>
        <time>2024-04-05T15:39:02+02:00</time>
      </trkpt>
      <trkpt lat="43.38718" lon="5.93313">
        <ele>334</ele>
        <time>2024-04-05T15:39:16+02:00</time>
      </trkpt>
      <trkpt lat="43.38719" lon="5.93297">
        <ele>331</ele>
        <time>2024-04-05T15:39:29+02:00</time>
      </trkpt>
      <trkpt lat="43.3872" lon="5.93285">
        <ele>330</ele>
        <time>2024-04-05T15:39:45+02:00</time>
      </trkpt>
      <trkpt lat="43.38721" lon="5.93268">
        <ele>327</ele>
        <time>2024-04-05T15:39:58+02:00</time>
      </trkpt>
      <trkpt lat="43.38724" lon="5.93248">
        <ele>324</ele>
        <time>2024-04-05T15:40:14+02:00</time>
      </trkpt>
      <trkpt lat="43.38727" lon="5.93237">
        <ele>322</ele>
        <time>2024-04-05T15:40:34+02:00</time>
      </trkpt>
      <trkpt lat="43.38727" lon="5.93236">
        <ele>321</ele>
        <time>2024-04-05T15:40:37+02:00</time>
      </trkpt>
      <trkpt lat="43.38729" lon="5.93223">
        <ele>318</ele>
        <time>2024-04-05T15:40:49+02:00</time>
      </trkpt>
      <trkpt lat="43.3873" lon="5.93207">
        <ele>314</ele>
        <time>2024-04-05T15:41:04+02:00</time>
      </trkpt>
      <trkpt lat="43.38737" lon="5.93193">
        <ele>312</ele>
        <time>2024-04-05T15:41:18+02:00</time>
      </trkpt>
      <trkpt lat="43.38744" lon="5.93177">
        <ele>309</ele>
        <time>2024-04-05T15:41:33+02:00</time>
      </trkpt>
      <trkpt lat="43.38756" lon="5.93161">
        <ele>305</ele>
        <time>2024-04-05T15:41:51+02:00</time>
      </trkpt>
      <trkpt lat="43.38767" lon="5.9315">
        <ele>302</ele>
        <time>2024-04-05T15:42:07+02:00</time>
      </trkpt>
      <trkpt lat="43.38774" lon="5.93141">
        <ele>300</ele>
        <time>2024-04-05T15:42:24+02:00</time>
      </trkpt>
      <trkpt lat="43.38777" lon="5.9314">
        <ele>299</ele>
        <time>2024-04-05T15:42:27+02:00</time>
      </trkpt>
      <trkpt lat="43.38792" lon="5.93136">
        <ele>297</ele>
        <time>2024-04-05T15:42:45+02:00</time>
      </trkpt>
      <trkpt lat="43.388" lon="5.93134">
        <ele>296</ele>
        <time>2024-04-05T15:43:01+02:00</time>
      </trkpt>
      <trkpt lat="43.38815" lon="5.93131">
        <ele>293</ele>
        <time>2024-04-05T15:43:16+02:00</time>
      </trkpt>
      <trkpt lat="43.38829" lon="5.93132">
        <ele>290</ele>
        <time>2024-04-05T15:43:31+02:00</time>
      </trkpt>
      <trkpt lat="43.38839" lon="5.93136">
        <ele>288</ele>
        <time>2024-04-05T15:43:44+02:00</time>
      </trkpt>
      <trkpt lat="43.38849" lon="5.93142">
        <ele>287</ele>
        <time>2024-04-05T15:43:55+02:00</time>
      </trkpt>
      <trkpt lat="43.38866" lon="5.93149">
        <ele>285</ele>
        <time>2024-04-05T15:44:11+02:00</time>
      </trkpt>
      <trkpt lat="43.38875" lon="5.93153">
        <ele>285</ele>
        <time>2024-04-05T15:44:24+02:00</time>
      </trkpt>
      <trkpt lat="43.38885" lon="5.93156">
        <ele>285</ele>
        <time>2024-04-05T15:44:37+02:00</time>
      </trkpt>
      <trkpt lat="43.38898" lon="5.93156">
        <ele>284</ele>
        <time>2024-04-05T15:44:50+02:00</time>
      </trkpt>
      <trkpt lat="43.3891" lon="5.93145">
        <ele>279</ele>
        <time>2024-04-05T15:45:03+02:00</time>
      </trkpt>
      <trkpt lat="43.38918" lon="5.93145">
        <ele>279</ele>
        <time>2024-04-05T15:45:17+02:00</time>
      </trkpt>
      <trkpt lat="43.38924" lon="5.93152">
        <ele>281</ele>
        <time>2024-04-05T15:45:33+02:00</time>
      </trkpt>
      <trkpt lat="43.38922" lon="5.93151">
        <ele>281</ele>
        <time>2024-04-05T15:45:49+02:00</time>
      </trkpt>
      <trkpt lat="43.38917" lon="5.93141">
        <ele>278</ele>
        <time>2024-04-05T15:46:04+02:00</time>
      </trkpt>
      <trkpt lat="43.38914" lon="5.9314">
        <ele>277</ele>
        <time>2024-04-05T15:46:20+02:00</time>
      </trkpt>
      <trkpt lat="43.38915" lon="5.93136">
        <ele>277</ele>
        <time>2024-04-05T15:46:45+02:00</time>
      </trkpt>
      <trkpt lat="43.38916" lon="5.93137">
        <ele>277</ele>
        <time>2024-04-05T15:47:07+02:00</time>
      </trkpt>
      <trkpt lat="43.38913" lon="5.93138">
        <ele>277</ele>
        <time>2024-04-05T15:47:35+02:00</time>
      </trkpt>
      <trkpt lat="43.38915" lon="5.93137">
        <ele>277</ele>
        <time>2024-04-05T15:48:09+02:00</time>
      </trkpt>
      <trkpt lat="43.38917" lon="5.93137">
        <ele>277</ele>
        <time>2024-04-05T15:48:35+02:00</time>
      </trkpt>
      <trkpt lat="43.38911" lon="5.93139">
        <ele>277</ele>
        <time>2024-04-05T15:49:04+02:00</time>
      </trkpt>
      <trkpt lat="43.38911" lon="5.93143">
        <ele>279</ele>
        <time>2024-04-05T15:49:29+02:00</time>
      </trkpt>
      <trkpt lat="43.38914" lon="5.93138">
        <ele>277</ele>
        <time>2024-04-05T15:49:54+02:00</time>
      </trkpt>
      <trkpt lat="43.38914" lon="5.93139">
        <ele>277</ele>
        <time>2024-04-05T15:50:21+02:00</time>
      </trkpt>
      <trkpt lat="43.38914" lon="5.93139">
        <ele>277</ele>
        <time>2024-04-05T15:50:46+02:00</time>
      </trkpt>
      <trkpt lat="43.38915" lon="5.93141">
        <ele>278</ele>
        <time>2024-04-05T15:51:11+02:00</time>
      </trkpt>
      <trkpt lat="43.38916" lon="5.93143">
        <ele>279</ele>
        <time>2024-04-05T15:51:33+02:00</time>
      </trkpt>
      <trkpt lat="43.38915" lon="5.93146">
        <ele>279</ele>
        <time>2024-04-05T15:51:56+02:00</time>
      </trkpt>
      <trkpt lat="43.38914" lon="5.93147">
        <ele>280</ele>
        <time>2024-04-05T15:52:20+02:00</time>
      </trkpt>
      <trkpt lat="43.38917" lon="5.93143">
        <ele>279</ele>
        <time>2024-04-05T15:52:47+02:00</time>
      </trkpt>
      <trkpt lat="43.38909" lon="5.9315">
        <ele>281</ele>
        <time>2024-04-05T15:53:10+02:00</time>
      </trkpt>
      <trkpt lat="43.38916" lon="5.93154">
        <ele>282</ele>
        <time>2024-04-05T15:53:26+02:00</time>
      </trkpt>
      <trkpt lat="43.3892" lon="5.93153">
        <ele>282</ele>
        <time>2024-04-05T15:53:50+02:00</time>
      </trkpt>
      <trkpt lat="43.38932" lon="5.93159">
        <ele>281</ele>
        <time>2024-04-05T15:54:08+02:00</time>
      </trkpt>
      <trkpt lat="43.38941" lon="5.93152">
        <ele>278</ele>
        <time>2024-04-05T15:54:23+02:00</time>
      </trkpt>
      <trkpt lat="43.38945" lon="5.93148">
        <ele>277</ele>
        <time>2024-04-05T15:54:36+02:00</time>
      </trkpt>
      <trkpt lat="43.38957" lon="5.93131">
        <ele>278</ele>
        <time>2024-04-05T15:54:54+02:00</time>
      </trkpt>
      <trkpt lat="43.38971" lon="5.9314">
        <ele>277</ele>
        <time>2024-04-05T15:55:09+02:00</time>
      </trkpt>
      <trkpt lat="43.38988" lon="5.93152">
        <ele>277</ele>
        <time>2024-04-05T15:55:24+02:00</time>
      </trkpt>
      <trkpt lat="43.39012" lon="5.93175">
        <ele>276</ele>
        <time>2024-04-05T15:55:44+02:00</time>
      </trkpt>
      <trkpt lat="43.39034" lon="5.93196">
        <ele>276</ele>
        <time>2024-04-05T15:56:07+02:00</time>
      </trkpt>
      <trkpt lat="43.39036" lon="5.93197">
        <ele>276</ele>
        <time>2024-04-05T15:56:10+02:00</time>
      </trkpt>
      <trkpt lat="43.39037" lon="5.93199">
        <ele>277</ele>
        <time>2024-04-05T15:56:24+02:00</time>
      </trkpt>
      <trkpt lat="43.39038" lon="5.93199">
        <ele>277</ele>
        <time>2024-04-05T15:56:34+02:00</time>
      </trkpt>
      <trkpt lat="43.39039" lon="5.93201">
        <ele>277</ele>
        <time>2024-04-05T15:56:35+02:00</time>
      </trkpt>
      <trkpt lat="43.39057" lon="5.93227">
        <ele>277</ele>
        <time>2024-04-05T15:56:55+02:00</time>
      </trkpt>
      <trkpt lat="43.39072" lon="5.93251">
        <ele>277</ele>
        <time>2024-04-05T15:57:11+02:00</time>
      </trkpt>
      <trkpt lat="43.39078" lon="5.93261">
        <ele>278</ele>
        <time>2024-04-05T15:57:21+02:00</time>
      </trkpt>
      <trkpt lat="43.39086" lon="5.9329">
        <ele>279</ele>
        <time>2024-04-05T15:57:37+02:00</time>
      </trkpt>
      <trkpt lat="43.39088" lon="5.9332">
        <ele>283</ele>
        <time>2024-04-05T15:57:54+02:00</time>
      </trkpt>
      <trkpt lat="43.3908" lon="5.93354">
        <ele>283</ele>
        <time>2024-04-05T15:58:15+02:00</time>
      </trkpt>
      <trkpt lat="43.39079" lon="5.9336">
        <ele>283</ele>
        <time>2024-04-05T15:58:19+02:00</time>
      </trkpt>
      <trkpt lat="43.39084" lon="5.93388">
        <ele>282</ele>
        <time>2024-04-05T15:58:36+02:00</time>
      </trkpt>
      <trkpt lat="43.39087" lon="5.93407">
        <ele>281</ele>
        <time>2024-04-05T15:58:48+02:00</time>
      </trkpt>
      <trkpt lat="43.391" lon="5.93427">
        <ele>281</ele>
        <time>2024-04-05T15:59:03+02:00</time>
      </trkpt>
      <trkpt lat="43.39102" lon="5.93429">
        <ele>281</ele>
        <time>2024-04-05T15:59:05+02:00</time>
      </trkpt>
      <trkpt lat="43.39125" lon="5.93442">
        <ele>280</ele>
        <time>2024-04-05T15:59:25+02:00</time>
      </trkpt>
      <trkpt lat="43.39145" lon="5.93448">
        <ele>278</ele>
        <time>2024-04-05T15:59:42+02:00</time>
      </trkpt>
      <trkpt lat="43.39169" lon="5.93449">
        <ele>277</ele>
        <time>2024-04-05T15:59:58+02:00</time>
      </trkpt>
      <trkpt lat="43.39192" lon="5.93445">
        <ele>278</ele>
        <time>2024-04-05T16:00:16+02:00</time>
      </trkpt>
      <trkpt lat="43.39211" lon="5.93442">
        <ele>278</ele>
        <time>2024-04-05T16:00:30+02:00</time>
      </trkpt>
      <trkpt lat="43.39231" lon="5.93441">
        <ele>279</ele>
        <time>2024-04-05T16:00:47+02:00</time>
      </trkpt>
      <trkpt lat="43.39242" lon="5.93444">
        <ele>280</ele>
        <time>2024-04-05T16:00:57+02:00</time>
      </trkpt>
      <trkpt lat="43.39249" lon="5.93446">
        <ele>280</ele>
        <time>2024-04-05T16:01:10+02:00</time>
      </trkpt>
      <trkpt lat="43.39263" lon="5.93455">
        <ele>279</ele>
        <time>2024-04-05T16:01:23+02:00</time>
      </trkpt>
      <trkpt lat="43.39271" lon="5.93458">
        <ele>280</ele>
        <time>2024-04-05T16:01:32+02:00</time>
      </trkpt>
      <trkpt lat="43.39289" lon="5.93461">
        <ele>280</ele>
        <time>2024-04-05T16:01:47+02:00</time>
      </trkpt>
      <trkpt lat="43.39307" lon="5.93463">
        <ele>281</ele>
        <time>2024-04-05T16:02:02+02:00</time>
      </trkpt>
      <trkpt lat="43.39333" lon="5.93468">
        <ele>279</ele>
        <time>2024-04-05T16:02:17+02:00</time>
      </trkpt>
      <trkpt lat="43.39347" lon="5.93472">
        <ele>278</ele>
        <time>2024-04-05T16:02:28+02:00</time>
      </trkpt>
      <trkpt lat="43.39363" lon="5.93474">
        <ele>278</ele>
        <time>2024-04-05T16:02:43+02:00</time>
      </trkpt>
      <trkpt lat="43.3938" lon="5.93476">
        <ele>277</ele>
        <time>2024-04-05T16:03:00+02:00</time>
      </trkpt>
      <trkpt lat="43.39375" lon="5.9348">
        <ele>277</ele>
        <time>2024-04-05T16:03:09+02:00</time>
      </trkpt>
      <trkpt lat="43.39373" lon="5.93486">
        <ele>276</ele>
        <time>2024-04-05T16:03:26+02:00</time>
      </trkpt>
      <trkpt lat="43.39384" lon="5.93478">
        <ele>277</ele>
        <time>2024-04-05T16:03:42+02:00</time>
      </trkpt>
      <trkpt lat="43.3939" lon="5.93474">
        <ele>277</ele>
        <time>2024-04-05T16:03:47+02:00</time>
      </trkpt>
      <trkpt lat="43.39415" lon="5.93465">
        <ele>277</ele>
        <time>2024-04-05T16:04:05+02:00</time>
      </trkpt>
      <trkpt lat="43.39432" lon="5.93463">
        <ele>276</ele>
        <time>2024-04-05T16:04:19+02:00</time>
      </trkpt>
      <trkpt lat="43.39456" lon="5.93464">
        <ele>275</ele>
        <time>2024-04-05T16:04:39+02:00</time>
      </trkpt>
      <trkpt lat="43.39481" lon="5.93455">
        <ele>274</ele>
        <time>2024-04-05T16:05:00+02:00</time>
      </trkpt>
      <trkpt lat="43.395" lon="5.93431">
        <ele>274</ele>
        <time>2024-04-05T16:05:20+02:00</time>
      </trkpt>
      <trkpt lat="43.39509" lon="5.93418">
        <ele>275</ele>
        <time>2024-04-05T16:05:30+02:00</time>
      </trkpt>
      <trkpt lat="43.39516" lon="5.9341">
        <ele>276</ele>
        <time>2024-04-05T16:05:37+02:00</time>
      </trkpt>
      <trkpt lat="43.39522" lon="5.93388">
        <ele>279</ele>
        <time>2024-04-05T16:05:55+02:00</time>
      </trkpt>
      <trkpt lat="43.39531" lon="5.93368">
        <ele>281</ele>
        <time>2024-04-05T16:06:14+02:00</time>
      </trkpt>
      <trkpt lat="43.39535" lon="5.93342">
        <ele>285</ele>
        <time>2024-04-05T16:06:34+02:00</time>
      </trkpt>
      <trkpt lat="43.39543" lon="5.93337">
        <ele>286</ele>
        <time>2024-04-05T16:06:48+02:00</time>
      </trkpt>
      <trkpt lat="43.39556" lon="5.93328">
        <ele>288</ele>
        <time>2024-04-05T16:07:01+02:00</time>
      </trkpt>
      <trkpt lat="43.39561" lon="5.93302">
        <ele>290</ele>
        <time>2024-04-05T16:07:21+02:00</time>
      </trkpt>
      <trkpt lat="43.39565" lon="5.9328">
        <ele>294</ele>
        <time>2024-04-05T16:07:39+02:00</time>
      </trkpt>
      <trkpt lat="43.3957" lon="5.93265">
        <ele>296</ele>
        <time>2024-04-05T16:07:54+02:00</time>
      </trkpt>
      <trkpt lat="43.39575" lon="5.93249">
        <ele>297</ele>
        <time>2024-04-05T16:08:08+02:00</time>
      </trkpt>
      <trkpt lat="43.39582" lon="5.9322">
        <ele>300</ele>
        <time>2024-04-05T16:08:29+02:00</time>
      </trkpt>
      <trkpt lat="43.39586" lon="5.93213">
        <ele>301</ele>
        <time>2024-04-05T16:08:47+02:00</time>
      </trkpt>
      <trkpt lat="43.39588" lon="5.93196">
        <ele>303</ele>
        <time>2024-04-05T16:09:01+02:00</time>
      </trkpt>
      <trkpt lat="43.39587" lon="5.9318">
        <ele>305</ele>
        <time>2024-04-05T16:09:15+02:00</time>
      </trkpt>
      <trkpt lat="43.39586" lon="5.93156">
        <ele>309</ele>
        <time>2024-04-05T16:09:33+02:00</time>
      </trkpt>
      <trkpt lat="43.3959" lon="5.93147">
        <ele>310</ele>
        <time>2024-04-05T16:09:40+02:00</time>
      </trkpt>
      <trkpt lat="43.39598" lon="5.93121">
        <ele>311</ele>
        <time>2024-04-05T16:09:59+02:00</time>
      </trkpt>
      <trkpt lat="43.396" lon="5.93114">
        <ele>312</ele>
        <time>2024-04-05T16:10:05+02:00</time>
      </trkpt>
      <trkpt lat="43.39604" lon="5.93088">
        <ele>314</ele>
        <time>2024-04-05T16:10:22+02:00</time>
      </trkpt>
      <trkpt lat="43.3961" lon="5.93069">
        <ele>316</ele>
        <time>2024-04-05T16:10:38+02:00</time>
      </trkpt>
      <trkpt lat="43.39616" lon="5.93053">
        <ele>316</ele>
        <time>2024-04-05T16:10:54+02:00</time>
      </trkpt>
      <trkpt lat="43.39618" lon="5.93056">
        <ele>315</ele>
        <time>2024-04-05T16:11:12+02:00</time>
      </trkpt>
      <trkpt lat="43.39617" lon="5.93042">
        <ele>317</ele>
        <time>2024-04-05T16:11:25+02:00</time>
      </trkpt>
      <trkpt lat="43.39621" lon="5.93018">
        <ele>318</ele>
        <time>2024-04-05T16:11:41+02:00</time>
      </trkpt>
      <trkpt lat="43.39621" lon="5.9299">
        <ele>319</ele>
        <time>2024-04-05T16:11:59+02:00</time>
      </trkpt>
      <trkpt lat="43.39614" lon="5.92962">
        <ele>321</ele>
        <time>2024-04-05T16:12:19+02:00</time>
      </trkpt>
      <trkpt lat="43.3961" lon="5.92931">
        <ele>320</ele>
        <time>2024-04-05T16:12:33+02:00</time>
      </trkpt>
      <trkpt lat="43.39606" lon="5.92909">
        <ele>321</ele>
        <time>2024-04-05T16:12:49+02:00</time>
      </trkpt>
      <trkpt lat="43.39614" lon="5.92902">
        <ele>318</ele>
        <time>2024-04-05T16:13:02+02:00</time>
      </trkpt>
      <trkpt lat="43.39627" lon="5.92891">
        <ele>316</ele>
        <time>2024-04-05T16:13:17+02:00</time>
      </trkpt>
      <trkpt lat="43.39633" lon="5.92885">
        <ele>315</ele>
        <time>2024-04-05T16:13:24+02:00</time>
      </trkpt>
      <trkpt lat="43.39636" lon="5.9288">
        <ele>314</ele>
        <time>2024-04-05T16:13:29+02:00</time>
      </trkpt>
      <trkpt lat="43.39651" lon="5.92859">
        <ele>316</ele>
        <time>2024-04-05T16:13:46+02:00</time>
      </trkpt>
      <trkpt lat="43.39661" lon="5.92842">
        <ele>319</ele>
        <time>2024-04-05T16:14:01+02:00</time>
      </trkpt>
      <trkpt lat="43.39675" lon="5.92826">
        <ele>322</ele>
        <time>2024-04-05T16:14:19+02:00</time>
      </trkpt>
      <trkpt lat="43.39688" lon="5.92817">
        <ele>323</ele>
        <time>2024-04-05T16:14:34+02:00</time>
      </trkpt>
      <trkpt lat="43.39696" lon="5.92818">
        <ele>323</ele>
        <time>2024-04-05T16:14:42+02:00</time>
      </trkpt>
      <trkpt lat="43.39704" lon="5.92819">
        <ele>322</ele>
        <time>2024-04-05T16:14:49+02:00</time>
      </trkpt>
      <trkpt lat="43.3972" lon="5.92817">
        <ele>320</ele>
        <time>2024-04-05T16:15:07+02:00</time>
      </trkpt>
      <trkpt lat="43.39722" lon="5.92816">
        <ele>320</ele>
        <time>2024-04-05T16:15:26+02:00</time>
      </trkpt>
      <trkpt lat="43.39727" lon="5.92811">
        <ele>320</ele>
        <time>2024-04-05T16:15:34+02:00</time>
      </trkpt>
      <trkpt lat="43.39734" lon="5.92789">
        <ele>320</ele>
        <time>2024-04-05T16:15:48+02:00</time>
      </trkpt>
      <trkpt lat="43.39736" lon="5.92786">
        <ele>320</ele>
        <time>2024-04-05T16:15:50+02:00</time>
      </trkpt>
      <trkpt lat="43.39738" lon="5.92761">
        <ele>322</ele>
        <time>2024-04-05T16:16:08+02:00</time>
      </trkpt>
      <trkpt lat="43.39744" lon="5.92727">
        <ele>324</ele>
        <time>2024-04-05T16:16:27+02:00</time>
      </trkpt>
      <trkpt lat="43.3974" lon="5.92704">
        <ele>323</ele>
        <time>2024-04-05T16:16:43+02:00</time>
      </trkpt>
      <trkpt lat="43.39728" lon="5.92683">
        <ele>323</ele>
        <time>2024-04-05T16:16:58+02:00</time>
      </trkpt>
      <trkpt lat="43.39719" lon="5.92662">
        <ele>321</ele>
        <time>2024-04-05T16:17:11+02:00</time>
      </trkpt>
      <trkpt lat="43.39715" lon="5.92649">
        <ele>322</ele>
        <time>2024-04-05T16:17:19+02:00</time>
      </trkpt>
      <trkpt lat="43.39715" lon="5.92645">
        <ele>322</ele>
        <time>2024-04-05T16:17:22+02:00</time>
      </trkpt>
      <trkpt lat="43.39712" lon="5.92643">
        <ele>322</ele>
        <time>2024-04-05T16:17:35+02:00</time>
      </trkpt>
      <trkpt lat="43.39717" lon="5.92634">
        <ele>321</ele>
        <time>2024-04-05T16:17:50+02:00</time>
      </trkpt>
      <trkpt lat="43.39718" lon="5.9263">
        <ele>321</ele>
        <time>2024-04-05T16:18:04+02:00</time>
      </trkpt>
      <trkpt lat="43.39718" lon="5.92627">
        <ele>321</ele>
        <time>2024-04-05T16:18:32+02:00</time>
      </trkpt>
      <trkpt lat="43.39718" lon="5.92629">
        <ele>321</ele>
        <time>2024-04-05T16:19:10+02:00</time>
      </trkpt>
      <trkpt lat="43.39719" lon="5.92628">
        <ele>321</ele>
        <time>2024-04-05T16:19:35+02:00</time>
      </trkpt>
      <trkpt lat="43.39717" lon="5.92628">
        <ele>322</ele>
        <time>2024-04-05T16:19:56+02:00</time>
      </trkpt>
      <trkpt lat="43.39725" lon="5.92604">
        <ele>323</ele>
        <time>2024-04-05T16:20:16+02:00</time>
      </trkpt>
      <trkpt lat="43.39725" lon="5.92603">
        <ele>323</ele>
        <time>2024-04-05T16:20:17+02:00</time>
      </trkpt>
      <trkpt lat="43.39744" lon="5.92576">
        <ele>327</ele>
        <time>2024-04-05T16:20:36+02:00</time>
      </trkpt>
      <trkpt lat="43.39743" lon="5.92555">
        <ele>330</ele>
        <time>2024-04-05T16:20:53+02:00</time>
      </trkpt>
      <trkpt lat="43.39746" lon="5.92538">
        <ele>331</ele>
        <time>2024-04-05T16:21:07+02:00</time>
      </trkpt>
      <trkpt lat="43.39747" lon="5.92519">
        <ele>332</ele>
        <time>2024-04-05T16:21:23+02:00</time>
      </trkpt>
      <trkpt lat="43.39739" lon="5.925">
        <ele>334</ele>
        <time>2024-04-05T16:21:37+02:00</time>
      </trkpt>
      <trkpt lat="43.39737" lon="5.92473">
        <ele>335</ele>
        <time>2024-04-05T16:21:57+02:00</time>
      </trkpt>
      <trkpt lat="43.39736" lon="5.92448">
        <ele>337</ele>
        <time>2024-04-05T16:22:15+02:00</time>
      </trkpt>
      <trkpt lat="43.39737" lon="5.92418">
        <ele>339</ele>
        <time>2024-04-05T16:22:33+02:00</time>
      </trkpt>
      <trkpt lat="43.39735" lon="5.92385">
        <ele>342</ele>
        <time>2024-04-05T16:22:52+02:00</time>
      </trkpt>
      <trkpt lat="43.39734" lon="5.92368">
        <ele>344</ele>
        <time>2024-04-05T16:23:07+02:00</time>
      </trkpt>
      <trkpt lat="43.39732" lon="5.92345">
        <ele>344</ele>
        <time>2024-04-05T16:23:23+02:00</time>
      </trkpt>
      <trkpt lat="43.39728" lon="5.92331">
        <ele>344</ele>
        <time>2024-04-05T16:23:37+02:00</time>
      </trkpt>
      <trkpt lat="43.3974" lon="5.92311">
        <ele>342</ele>
        <time>2024-04-05T16:23:55+02:00</time>
      </trkpt>
      <trkpt lat="43.3975" lon="5.92306">
        <ele>341</ele>
        <time>2024-04-05T16:24:08+02:00</time>
      </trkpt>
      <trkpt lat="43.39761" lon="5.92298">
        <ele>340</ele>
        <time>2024-04-05T16:24:31+02:00</time>
      </trkpt>
      <trkpt lat="43.39767" lon="5.92295">
        <ele>340</ele>
        <time>2024-04-05T16:24:50+02:00</time>
      </trkpt>
      <trkpt lat="43.39766" lon="5.92293">
        <ele>340</ele>
        <time>2024-04-05T16:25:08+02:00</time>
      </trkpt>
      <trkpt lat="43.3978" lon="5.92285">
        <ele>339</ele>
        <time>2024-04-05T16:25:24+02:00</time>
      </trkpt>
      <trkpt lat="43.39783" lon="5.92284">
        <ele>339</ele>
        <time>2024-04-05T16:25:26+02:00</time>
      </trkpt>
      <trkpt lat="43.39802" lon="5.92276">
        <ele>337</ele>
        <time>2024-04-05T16:25:40+02:00</time>
      </trkpt>
      <trkpt lat="43.39816" lon="5.92266">
        <ele>334</ele>
        <time>2024-04-05T16:25:53+02:00</time>
      </trkpt>
      <trkpt lat="43.39832" lon="5.92246">
        <ele>330</ele>
        <time>2024-04-05T16:26:11+02:00</time>
      </trkpt>
      <trkpt lat="43.39835" lon="5.92243">
        <ele>330</ele>
        <time>2024-04-05T16:26:14+02:00</time>
      </trkpt>
      <trkpt lat="43.3985" lon="5.92226">
        <ele>329</ele>
        <time>2024-04-05T16:26:30+02:00</time>
      </trkpt>
      <trkpt lat="43.39867" lon="5.92213">
        <ele>328</ele>
        <time>2024-04-05T16:26:45+02:00</time>
      </trkpt>
      <trkpt lat="43.39886" lon="5.92202">
        <ele>325</ele>
        <time>2024-04-05T16:27:04+02:00</time>
      </trkpt>
      <trkpt lat="43.39899" lon="5.92195">
        <ele>322</ele>
        <time>2024-04-05T16:27:19+02:00</time>
      </trkpt>
      <trkpt lat="43.39915" lon="5.92186">
        <ele>319</ele>
        <time>2024-04-05T16:27:33+02:00</time>
      </trkpt>
      <trkpt lat="43.39925" lon="5.92178">
        <ele>317</ele>
        <time>2024-04-05T16:27:49+02:00</time>
      </trkpt>
      <trkpt lat="43.3994" lon="5.92172">
        <ele>315</ele>
        <time>2024-04-05T16:28:06+02:00</time>
      </trkpt>
      <trkpt lat="43.39967" lon="5.92163">
        <ele>315</ele>
        <time>2024-04-05T16:28:25+02:00</time>
      </trkpt>
      <trkpt lat="43.39983" lon="5.92167">
        <ele>317</ele>
        <time>2024-04-05T16:28:36+02:00</time>
      </trkpt>
      <trkpt lat="43.39985" lon="5.92168">
        <ele>317</ele>
        <time>2024-04-05T16:28:39+02:00</time>
      </trkpt>
      <trkpt lat="43.40012" lon="5.92177">
        <ele>320</ele>
        <time>2024-04-05T16:29:02+02:00</time>
      </trkpt>
      <trkpt lat="43.40032" lon="5.92187">
        <ele>321</ele>
        <time>2024-04-05T16:29:20+02:00</time>
      </trkpt>
      <trkpt lat="43.40053" lon="5.92207">
        <ele>320</ele>
        <time>2024-04-05T16:29:40+02:00</time>
      </trkpt>
      <trkpt lat="43.40082" lon="5.92212">
        <ele>318</ele>
        <time>2024-04-05T16:30:01+02:00</time>
      </trkpt>
      <trkpt lat="43.40088" lon="5.92212">
        <ele>318</ele>
        <time>2024-04-05T16:30:06+02:00</time>
      </trkpt>
      <trkpt lat="43.40107" lon="5.92208">
        <ele>315</ele>
        <time>2024-04-05T16:30:22+02:00</time>
      </trkpt>
      <trkpt lat="43.4013" lon="5.92207">
        <ele>314</ele>
        <time>2024-04-05T16:30:41+02:00</time>
      </trkpt>
      <trkpt lat="43.40133" lon="5.92207">
        <ele>313</ele>
        <time>2024-04-05T16:30:44+02:00</time>
      </trkpt>
      <trkpt lat="43.40159" lon="5.9221">
        <ele>314</ele>
        <time>2024-04-05T16:31:03+02:00</time>
      </trkpt>
      <trkpt lat="43.40174" lon="5.92214">
        <ele>314</ele>
        <time>2024-04-05T16:31:20+02:00</time>
      </trkpt>
      <trkpt lat="43.40199" lon="5.9222">
        <ele>314</ele>
        <time>2024-04-05T16:31:38+02:00</time>
      </trkpt>
      <trkpt lat="43.40211" lon="5.92219">
        <ele>313</ele>
        <time>2024-04-05T16:31:52+02:00</time>
      </trkpt>
      <trkpt lat="43.40218" lon="5.92217">
        <ele>313</ele>
        <time>2024-04-05T16:31:57+02:00</time>
      </trkpt>
      <trkpt lat="43.40244" lon="5.92215">
        <ele>312</ele>
        <time>2024-04-05T16:32:16+02:00</time>
      </trkpt>
      <trkpt lat="43.40272" lon="5.92218">
        <ele>310</ele>
        <time>2024-04-05T16:32:37+02:00</time>
      </trkpt>
      <trkpt lat="43.40293" lon="5.92216">
        <ele>310</ele>
        <time>2024-04-05T16:32:56+02:00</time>
      </trkpt>
      <trkpt lat="43.40295" lon="5.92215">
        <ele>310</ele>
        <time>2024-04-05T16:32:58+02:00</time>
      </trkpt>
      <trkpt lat="43.40321" lon="5.92204">
        <ele>309</ele>
        <time>2024-04-05T16:33:17+02:00</time>
      </trkpt>
      <trkpt lat="43.40345" lon="5.92208">
        <ele>310</ele>
        <time>2024-04-05T16:33:37+02:00</time>
      </trkpt>
      <trkpt lat="43.40364" lon="5.92213">
        <ele>310</ele>
        <time>2024-04-05T16:33:55+02:00</time>
      </trkpt>
      <trkpt lat="43.40384" lon="5.92227">
        <ele>311</ele>
        <time>2024-04-05T16:34:15+02:00</time>
      </trkpt>
      <trkpt lat="43.40389" lon="5.92233">
        <ele>311</ele>
        <time>2024-04-05T16:34:22+02:00</time>
      </trkpt>
      <trkpt lat="43.40401" lon="5.92258">
        <ele>309</ele>
        <time>2024-04-05T16:34:43+02:00</time>
      </trkpt>
      <trkpt lat="43.40417" lon="5.92275">
        <ele>306</ele>
        <time>2024-04-05T16:35:01+02:00</time>
      </trkpt>
      <trkpt lat="43.40433" lon="5.92281">
        <ele>305</ele>
        <time>2024-04-05T16:35:21+02:00</time>
      </trkpt>
      <trkpt lat="43.40434" lon="5.92279">
        <ele>305</ele>
        <time>2024-04-05T16:35:36+02:00</time>
      </trkpt>
      <trkpt lat="43.40436" lon="5.92279">
        <ele>305</ele>
        <time>2024-04-05T16:35:54+02:00</time>
      </trkpt>
      <trkpt lat="43.40437" lon="5.92282">
        <ele>305</ele>
        <time>2024-04-05T16:36:10+02:00</time>
      </trkpt>
      <trkpt lat="43.40446" lon="5.9229">
        <ele>302</ele>
        <time>2024-04-05T16:36:25+02:00</time>
      </trkpt>
      <trkpt lat="43.40453" lon="5.92299">
        <ele>299</ele>
        <time>2024-04-05T16:36:40+02:00</time>
      </trkpt>
      <trkpt lat="43.40464" lon="5.92308">
        <ele>296</ele>
        <time>2024-04-05T16:36:54+02:00</time>
      </trkpt>
      <trkpt lat="43.40481" lon="5.92322">
        <ele>292</ele>
        <time>2024-04-05T16:37:10+02:00</time>
      </trkpt>
      <trkpt lat="43.4049" lon="5.92324">
        <ele>290</ele>
        <time>2024-04-05T16:37:21+02:00</time>
      </trkpt>
      <trkpt lat="43.40498" lon="5.92326">
        <ele>290</ele>
        <time>2024-04-05T16:37:36+02:00</time>
      </trkpt>
      <trkpt lat="43.40509" lon="5.9233">
        <ele>288</ele>
        <time>2024-04-05T16:37:50+02:00</time>
      </trkpt>
      <trkpt lat="43.40529" lon="5.92344">
        <ele>286</ele>
        <time>2024-04-05T16:38:08+02:00</time>
      </trkpt>
      <trkpt lat="43.40533" lon="5.92345">
        <ele>285</ele>
        <time>2024-04-05T16:38:22+02:00</time>
      </trkpt>
      <trkpt lat="43.40546" lon="5.92357">
        <ele>283</ele>
        <time>2024-04-05T16:38:35+02:00</time>
      </trkpt>
      <trkpt lat="43.40547" lon="5.92359">
        <ele>283</ele>
        <time>2024-04-05T16:38:39+02:00</time>
      </trkpt>
      <trkpt lat="43.40549" lon="5.92376">
        <ele>281</ele>
        <time>2024-04-05T16:38:54+02:00</time>
      </trkpt>
      <trkpt lat="43.40549" lon="5.92382">
        <ele>281</ele>
        <time>2024-04-05T16:39:12+02:00</time>
      </trkpt>
      <trkpt lat="43.40566" lon="5.92383">
        <ele>281</ele>
        <time>2024-04-05T16:39:28+02:00</time>
      </trkpt>
      <trkpt lat="43.40577" lon="5.9239">
        <ele>281</ele>
        <time>2024-04-05T16:39:39+02:00</time>
      </trkpt>
      <trkpt lat="43.40591" lon="5.92394">
        <ele>282</ele>
        <time>2024-04-05T16:39:54+02:00</time>
      </trkpt>
      <trkpt lat="43.40592" lon="5.92396">
        <ele>282</ele>
        <time>2024-04-05T16:39:56+02:00</time>
      </trkpt>
      <trkpt lat="43.40599" lon="5.92405">
        <ele>282</ele>
        <time>2024-04-05T16:40:10+02:00</time>
      </trkpt>
      <trkpt lat="43.406" lon="5.92406">
        <ele>282</ele>
        <time>2024-04-05T16:40:23+02:00</time>
      </trkpt>
    </trkseg>
  </trk>
</gpx>